1802200120, 9036617001, 16546JG30A, 4734335120, 546403R000

Cписок запчастей

«« « 200 201 202 203 204 205 206 207 208 » »»

Toyota

Номер Цена, $ Название Номер Цена, $ Название Номер Цена, $ Название Номер Цена, $ Название
6113260270 75.70$ PILLAR, FRONT BODY, UPPER OUTER LH 61132AC010 76.32$ НАКЛАДКА ПОРОГА 1770574460 48.31$ CAP SUB-ASSY, AIR CLEANER 6113336010 290.48$ PILLAR, FRONT BODY, LOWER OUTER RH
1770574480 27.39$ CAP SUB-ASSY, AIR CLEANER 6113436020 290.48$ КУЗОВА СТОЙКА 1770574510 27.60$ CAP SUB-ASSY, AIR CLEANER 6113437010 4.83$ BRACKET, FRONT BODY PILLAR OUTER, LH
1770575130 27.47$ CAP SUB-ASSY, AIR CLEANER 6113550010 52.30$ REINFORCEMENT, FRONT BODY PILLAR, UPPER RH 1770575240 24.31$ CAP SUB-ASSY, AIR CLEANER 6113930020 1.06$ BRACKET, FRONT BODY PILLAR OUTER
6114130170 12.17$ EXTENSION, FRONT PILLAR, UPPER INNER RH 1770575280 99.25$ CAP SUB-ASSY, AIR CLEANER 6114150030 10.18$ EXTENSION, FRONT PILLAR, UPPER INNER RH 6114150040 8.94$ EXTENSION, FRONT PILLAR, UPPER INNER RH
1770575310 21.67$ КРЫШКА ВОЗДУШНОГО ФИЛЬТРА 6114153011 9.93$ EXTENSION, FRONT PILLAR, UPPER INNER RH 6114153020 10.79$ EXTENSION, FRONT PILLAR, UPPER INNER RH 6114230170 12.67$ EXTENSION, FRONT PILLAR, UPPER INNER LH
6114250030 10.18$ EXTENSION, FRONT PILLAR, UPPER INNER LH 17705AD010 58.72$ КОРПУС ВОЗДУШНОГО ФИЛЬТРА 6114250040 8.94$ EXTENSION, FRONT PILLAR, UPPER INNER LH 6114253011 9.93$ EXTENSION, FRONT PILLAR, UPPER INNER LH
1770638011 94.61$ CAP SUB-ASSY, AIR CLEANER, LH 6114253020 11.11$ EXTENSION, FRONT PILLAR, UPPER INNER LH 1770638021 167.87$ CAP SUB-ASSY, AIR CLEANER, LH 1770654030 15.47$ STAY, AIR CLEANER, NO.1
6114353020 10.79$ GUSSET, FRONT BODY PILLAR, UPPER INNER RH 1770990B01 72.16$ INLET SUB-ASSY, AIR CLEANER 6114436020 10.24$ STRENGTH, SIDE PANEL, NO.3 UPPER LH 1771013020 121.13$ CLEANER ASSY, AIR
6114453020 10.79$ GUSSET, FRONT BODY PILLAR, UPPER INNER LH 1771054341 219.28$ CLEANER ASSY, AIR 6114524010 32.92$ КУЗОВНАЯ ПАНЕЛЬ 1771054510 226.38$ CLEANER ASSY, AIR
1772810010 25.34$ КЛАПАН ВОДЯНОГО НАСОСА 6114533020 18.63$ GUSSET, FRONT BODY PILLAR, LOWER RH 1772811020 27.72$ ДАТЧИК ТЕМПЕРАТУРЫ 6114533030 23.95$ GUSSET, FRONT BODY PILLAR, LOWER RH
6114533040 29.93$ GUSSET, FRONT BODY PILLAR, LOWER RH 1772813050 28.82$ VALVE, THERMOSTATIC 6114533060 30.19$ КРОНШТЕЙН КУЗОВНОЙ 1772813060 28.82$ VALVE, THERMOSTATIC
1772815080 25.34$ VALVE, THERMOSTATIC 6114548040 23.93$ GUSSET, FRONT BODY PILLAR, LOWER RH 1772816020 26.60$ VALVE, THERMOSTATIC 6114550020 20.43$ GUSSET, FRONT BODY PILLAR, LOWER RH
1772841030 26.17$ VALVE SUB-ASSY, THERMOSTATIC(FOR AIR CLEANER) 1772871010 29.26$ VALVE, THERMOSTATIC 6114553010 29.93$ GUSSET, FRONT BODY PILLAR, LOWER RH 1773011010 55.23$ PRECLEANER ASSY, AIR W/HOSE
6114553020 21.99$ GUSSET, FRONT BODY PILLAR, LOWER RH 1773011011 73.10$ PRECLEANER ASSY, AIR W/HOSE 61145AC020 19.28$ GUSSET, FRONT BODY PILLAR, LOWER RH 1773011031 55.10$ PRECLEANER ASSY, AIR W/HOSE
6114624010 32.92$ КУЗОВНАЯ ПАНЕЛЬ 1773011040 54.25$ PRECLEANER ASSY, AIR W/HOSE 6114630060 13.02$ GUSSET, FRONT BODY PILLAR, LOWER LH 6114633020 18.63$ GUSSET, FRONT BODY PILLAR, LOWER LH
1773011060 51.59$ PRECLEANER ASSY, AIR W/HOSE 1773011070 54.73$ PRECLEANER ASSY, AIR W/HOSE 6114633040 29.93$ GUSSET, FRONT BODY PILLAR, LOWER LH 1773011080 47.55$ PRECLEANER ASSY, AIR W/HOSE
6114633060 30.19$ GUSSET, FRONT BODY PILLAR, LOWER LH 6114648040 23.93$ GUSSET, FRONT BODY PILLAR, LOWER LH 6114653010 29.93$ КУЗОВНАЯ ПАНЕЛЬ 6114690B00 90.74$ PANEL, FRONT SIDE END, LH
61146AC020 19.28$ GUSSET, FRONT BODY PILLAR, LOWER LH 6114710010 7.97$ EXTENSION, FRONT BODY PILLAR, OUTER RH 1773035010 70.80$ PRECLEANER ASSY, AIR W/HOSE 6114753011 14.45$ EXTENSION, FRONT BODY PILLAR, UPPER OUTER RH
1773035020 77.58$ PRECLEANER ASSY, AIR W/HOSE 6114810010 7.97$ EXTENSION, FRONT BODY PILLAR, UPPER OUTER LH 1773035030 68.45$ PRECLEANER ASSY, AIR W/HOSE 6114853011 14.45$ EXTENSION, FRONT BODY PILLAR, UPPER OUTER LH
1773043010 47.99$ PRECLEANER ASSY, AIR W/HOSE 6116110090 81.21$ PILLAR, FRONT BODY, UPPER INNER RH 1773056020 64.61$ PRECLEANER ASSY, AIR W/HOSE 6116120060 17.82$ PILLAR, FRONT BODY, INNER RH
6116130210 52.05$ PILLAR, FRONT BODY, UPPER INNER RH 6116130240 88.04$ PILLAR, FRONT BODY, UPPER INNER RH 6116130282 95.08$ PILLAR, FRONT BODY, UPPER INNER RH 6116150030 96.25$ PILLAR, FRONT BODY, UPPER INNER RH
1773074020 37.13$ PRECLEANER ASSY, AIR W/HOSE 6116150040 95.08$ PILLAR, FRONT BODY, UPPER INNER RH 1773074030 45.78$ PRECLEANER ASSY, AIR W/HOSE 6116150050 81.45$ PILLAR, FRONT BODY, INNER RH
1773616040 45.66$ CASE, PRECLEANER 6116153030 76.22$ PILLAR, FRONT BODY, UPPER INNER RH 1773616050 33.48$ CASE, PRECLEANER 6116189107 23.01$ PILLAR, FRONT BODY, UPPER INNER RH
1773616070 27.89$ CASE, PRECLEANER 6116190A03 29.52$ PILLAR, FRONT BODY, INNER RH 1773616080 41.15$ CASE, PRECLEANER 6116207010 80.25$ PILLAR, FRONT BODY, UPPER INNER LH
1773750010 2.19$ COVER, AIR CLEANER 6116210080 81.21$ PILLAR, FRONT BODY, UPPER INNER LH 1774350010 4.14$ VALVE, DUST RELIEF 6116220060 17.82$ PILLAR, FRONT BODY, INNER LH
6116230282 95.08$ PILLAR, FRONT BODY, UPPER INNER LH 1774416010 11.00$ CUP, PRECLEANER 6116230310 76.22$ PILLAR, FRONT BODY, UPPER INNER LH 6116236902 61.11$ STIFFENER, SIDE PANEL, UPPER NO.1
6116250050 82.27$ PILLAR, FRONT BODY, INNER LH 1775002010 25.90$ INLET, AIR CLEANER, NO.1 6116253023 111.08$ PILLAR, FRONT BODY, UPPER INNER LH 1775003040 16.75$ INLET ASSY, AIR CLEANER
6116253030 76.22$ КУЗОВА СТОЙКА 6116289107 23.01$ PILLAR, FRONT BODY, UPPER INNER LH 177500A020 18.40$ INLET ASSY, AIR CLEANER 6116290A03 29.52$ PILLAR, FRONT BODY, INNER LH
6116522070 7.74$ BRACKET SUB-ASSY, INSTRUMENT PANEL TO COWL SIDE, RH 1775011030 33.50$ INLET, AIR CLEANER, NO.1 6116533010 11.35$ BRACKET SUB-ASSY, INSTRUMENT PANEL TO COWL SIDE, RH 1775011040 14.06$ INLET, AIR CLEANER, NO.1
6116542010 8.65$ BRACKET SUB-ASSY, INSTRUMENT PANEL TO COWL SIDE, RH 6116548020 17.82$ КРОНШТЕЙН КУЗОВНОЙ 6116642020 17.60$ BRACKET SUB-ASSY, INSTRUMENT PANEL TO COWL SIDE, LH 1775020010 21.53$ ПАТРУБОК ПЛАСТИКОВЫЙ
6116690K01 9.32$ BRACKET SUB-ASSY, INSTRUMENT PANEL TO COWL SIDE, LH 1775020030 21.83$ ПАТРУБОК ПЛАСТИКОВЫЙ 6116760060 3.11$ BRACKET, FRONT BODY PILLAR TO COWL TOP, RH 1775020080 27.12$ ПАТРУБОК ПЛАСТИКОВЫЙ
6117330150 13.92$ REINFORCEMENT, FRONT BODY PILLAR, UPPER INNER RH 6117335020 9.85$ REINFORCEMENT, FRONT BODY PILLAR, UPPER INNER 6117350040 10.56$ REINFORCEMENT, FRONT BODY PILLAR, UPPER INNER RH 6117353020 12.23$ REINFORCEMENT, FRONT BODY PILLAR, UPPER INNER RH
6117430150 13.92$ REINFORCEMENT, FRONT BODY PILLAR, UPPER INNER LH 6117450030 10.56$ REINFORCEMENT, FRONT BODY PILLAR, UPPER INNER LH 1775028060 40.94$ INLET ASSY, AIR CLEANER 6117453020 12.23$ REINFORCEMENT, FRONT BODY PILLAR, UPPER INNER LH
6117512080 8.00$ REINFORCEMENT, FRONT BODY PILLAR, INNER NO.2 RH 1775050011 168.34$ БАМПЕРА НАКЛАДКА 6117512150 12.60$ REINFORCEMENT, FRONT PILLAR, UPPER OUTER NO.2 RH 6117552020 9.67$ REINFORCEMENT, FRONT PILLAR, UPPER OUTER NO.2 RH
6117612080 8.00$ REINFORCEMENT, FRONT BODY PILLAR, INNER NO.2 LH 1775064010 19.71$ COVER ASSY, AIR CLEANER INLET, SEAL 6117652020 9.67$ REINFORCE, FRONT BODY PILLAR, UPPER OUT NO.2 LH 1775074010 16.29$ INLET ASSY, AIR CLEANER
6117736010 7.21$ REINFORCEMENT, NO.1 PILLAR, CENTER 1775074030 26.56$ ПАТРУБОК ВОЗДУХОЗАБОРНИКА ПЛАСТИКОВЫЙ 6118130061 15.74$ BRACKET, INSTRUMENT SIDE, RH 6118133010 12.60$ BRACKET, INSTRUMENT SIDE, RH
1775074040 16.23$ INLET ASSY, AIR CLEANER 6118153011 15.74$ BRACKET, INSTRUMENT SIDE, RH 1775074050 16.75$ ПАТРУБОК ВОЗДУХОЗАБОРНИКА ПЛАСТИКОВЫЙ 6118160010 7.18$ BRACKET, INSTRUMENT SIDE, RH
1775074051 16.55$ INLET ASSY, AIR CLEANER 1775074060 16.44$ INLET ASSY, AIR CLEANER 6118237020 8.56$ BRACKET, INSTRUMENT SIDE, LH 6118260030 6.66$ BRACKET, INSTRUMENT SIDE, LH
1775074070 18.20$ INLET ASSY, AIR CLEANER 1775102031 16.61$ INLET, AIR CLEANER, NO.1 6118514010 12.52$ BRACKET, INSTRUMENT PANEL SIDE, NO.3 RH 177510B010 25.75$ INLET, AIR CLEANER, NO.1
6118730020 0.55$ BRACKET, FRONT PILLAR DOOR HINGE COVER, RH/LH 177510D010 24.92$ INLET, AIR CLEANER, NO.1 6118836010 15.62$ REINFORCEMENT, NO.1 PILLAR, LOWER LH 6119136020 38.94$ REINFORCEMENT, SIDE LOWER, RH
177510H030 69.67$ INLET, AIR CLEANER, NO.1 6119136021 38.62$ REINFORCEMENT, SIDE LOWER, RH 177510J030 17.01$ INLET, AIR CLEANER, NO.1 6119350030 8.09$ COVER, FRONT PILLAR SERVICE HOLE
1775111100 16.50$ INLET, AIR CLEANER, NO.1 6119360030 2.16$ COVER, FRONT PILLAR SERVICE HOLE 1775111130 20.99$ INLET, AIR CLEANER, NO.1 6119450020 3.08$ BRACKET, COWL SIDE TRIM, RH
1775115010 35.77$ ПАТРУБОК ПЛАСТИКОВЫЙ 6119550020 3.08$ BRACKET, COWL SIDE TRIM, LH 6119550060 14.19$ COVER, FRONT PILLAR END, RH 6119650030 14.19$ COVER, FRONT PILLAR END, LH
6119790K00 1.51$ COVER, FRONT PILLAR, RH 1775116110 19.23$ ПАТРУБОК ПЛАСТИКОВЫЙ 6120128030 74.76$ RAIL SUB-ASSY, ROOF SIDE, RH 6120128100 93.70$ RAIL SUB-ASSY, ROOF SIDE, RH
6120133901 81.16$ RAIL, ROOF SIDE, OUTER RH 6120148901 110.36$ RAIL SUB-ASSY, ROOF SIDE, RH 6120150010 86.49$ RAIL, ROOF SIDE, INNER RH 1775121020 23.48$ ПАТРУБОК ВОЗДУШНОГО ФИЛЬТРА ПЛАСТИКОВЫЙ
6120152040 77.26$ RAIL SUB-ASSY, ROOF SIDE, RH 6120195J00 119.73$ RAIL, ROOF SIDE, OUTER RH 6120248901 110.36$ RAIL SUB-ASSY, ROOF SIDE, LH 6120252030 77.26$ RAIL SUB-ASSY, ROOF SIDE, LH
6120333030 70.37$ RAIL SUB-ASSY, ROOF SIDE, INNER RH 6120348010 80.18$ RAIL SUB-ASSY, ROOF SIDE, INNER RH 1775122040 21.92$ INLET, AIR CLEANER, NO.1 6120395J00 62.60$ RAIL, ROOF SIDE, OUTER NO.2 RH
1775122050 11.48$ INLET, AIR CLEANER, NO.1 61203AC010 60.28$ RAIL SUB-ASSY, ROOF SIDE, INNER RH 6120433010 62.79$ RAIL SUB-ASSY, ROOF SIDE, INNER LH 6120433030 70.37$ RAIL SUB-ASSY, ROOF SIDE, INNER LH
6120448010 80.18$ RAIL SUB-ASSY, ROOF SIDE, INNER LH 61204AC010 60.28$ RAIL SUB-ASSY, ROOF SIDE, INNER LH 6120728020 36.13$ RAIL, ROOF SIDE, INNER NO.2 RH 1775128070 12.78$ ПАТРУБОК ВОЗДУШНОГО ФИЛЬТРА РЕЗИНОВЫЙ
6121105040 31.87$ RAIL, ROOF SIDE, OUTER RH 6121110090 39.99$ RAIL SUB-ASSY, ROOF SIDE, RH 6121112240 24.89$ RAIL, ROOF SIDE, OUTER RH 6121112350 49.14$ RAIL, ROOF SIDE, OUTER RH
6121112410 46.96$ ПАНЕЛЬ КУЗОВА 6121112480 70.28$ RAIL, ROOF SIDE, RH 6121120180 49.79$ RAIL, ROOF SIDE, OUTER RH 1775131160 18.50$ INLET, AIR CLEANER, NO.1
6121120190 53.68$ RAIL, ROOF SIDE, OUTER RH 6121130190 91.61$ RAIL, ROOF SIDE, OUTER RH 6121130230 101.85$ RAIL, ROOF SIDE, OUTER RH 6121130231 101.97$ RAIL, ROOF SIDE, OUTER RH
1775131250 39.39$ INLET, AIR CLEANER, NO.1 1775131260 31.13$ INLET, AIR CLEANER, NO.1 6121132070 39.32$ RAIL, ROOF SIDE, OUTER RH 1775131270 39.39$ INLET, AIR CLEANER, NO.1
1775131280 20.37$ INLET, AIR CLEANER, NO.1 6121133030 100.68$ RAIL, ROOF SIDE, OUTER RH 1775131300 19.75$ INLET, AIR CLEANER, NO.1 6121134010 34.09$ RAIL, ROOF SIDE, OUTER RH
6121135021 66.75$ RAIL, ROOF SIDE, OUTER RH 1775137050 6.13$ INLET, AIR CLEANER, NO.1 1775138020 51.02$ INLET, AIR CLEANER, NO.1 6121142011 25.62$ RAIL, ROOF SIDE, OUTER RH
1775146050 12.10$ INLET, AIR CLEANER, NO.1 6121150010 137.41$ RAIL, ROOF SIDE, OUTER RH 6121150020 96.39$ RAIL, ROOF SIDE, OUTER RH 6121150030 70.38$ RAIL, ROOF SIDE, RH
1775146190 39.39$ INLET, AIR CLEANER, NO.1 6121150060 77.35$ RAIL, ROOF SIDE 1775150120 40.82$ INLET, AIR CLEANER, NO.1 6121160010 43.10$ КУЗОВНОЙ УСИЛИТЕЛЬ
1775155010 21.83$ INLET, AIR CLEANER, NO.1 1775164051 17.99$ INLET, AIR CLEANER, NO.1 1775170020 3.57$ INLET, AIR CLEANER, NO.1 6121187005 15.00$ RAIL, ROOF SIDE, OUTER RH
6121189107 24.06$ RAIL, ROOF SIDE, OUTER RH 1775174040 26.53$ ПАТРУБОК ПЛАСТИКОВЫЙ 1775174050 15.83$ INLET, AIR CLEANER, NO.1 6121189109 45.46$ RAIL, ROOF SIDE, OUTER RH
177520D010 4.97$ INLET, AIR CLEANER, NO.2 6121190K02 62.27$ RAIL, ROOF SIDE, OUTER RH 177520P050 28.66$ INLET, AIR CLEANER, NO.2 61211AA020 39.89$ RAIL, ROOF SIDE, OUTER RH
61211AC020 65.19$ RAIL, ROOF SIDE, OUTER RH 6121205040 31.87$ КУЗОВНОЙ УСИЛИТЕЛЬ 6121207010 51.65$ RAIL, ROOF SIDE, OUTER LH 6121210090 39.99$ RAIL SUB-ASSY, ROOF SIDE, LH
6121212370 27.70$ КУЗОВНОЙ УСИЛИТЕЛЬ 6121212410 46.96$ КУЗОВНОЙ УСИЛИТЕЛЬ 1775231030 16.03$ INLET, AIR CLEANER, NO.2 6121220180 52.07$ RAIL, ROOF SIDE, OUTER LH
6121220190 53.68$ RAIL, ROOF SIDE, OUTER LH 1775231090 16.86$ INLET, AIR CLEANER, NO.2 6121230190 91.61$ RAIL, ROOF SIDE, OUTER LH 1775231110 24.02$ INLET, AIR CLEANER, NO.2
6121230231 101.97$ RAIL, ROOF SIDE, OUTER LH 6121232070 39.32$ RAIL, ROOF SIDE, OUTER LH 1775246060 17.48$ INLET, AIR CLEANER, NO.2 6121233020 81.64$ RAIL, ROOF SIDE, OUTER LH
6121233040 81.64$ RAIL, ROOF SIDE, OUTER LH 6121242011 25.62$ КУЗОВНОЙ УСИЛИТЕЛЬ 1777170010 10.43$ BRACKET, AIR CLEANER INLET DUCT 1777175010 6.51$ BRACKET, AIR CLEANER
6121242030 25.62$ КУЗОВНОЙ УСИЛИТЕЛЬ 1778120020 1.72$ SEAL, AIR CLEANER INLET 1778615010 2.17$ CLAMP(FOR AIR CLEANER HOSE, NO.2) 1779135080 1.46$ PLATE, AIR CLEANER CAUTION (FOR ENGINE MODEL)
6121250010 137.41$ RAIL, ROOF SIDE, OUTER LH 1779162010 1.28$ LABEL, MAINTENANCE INFORMATION 6121250020 96.39$ RAIL, ROOF SIDE, OUTER LH 1779164020 2.51$ LABEL, MAINTENANCE INFORMATION
1779176010 1.19$ LABEL, MAINTENANCE INFORMATION 6121250041 86.49$ RAIL, ROOF SIDE, LH 1779177052 2.67$ PLATE, AIR CLEANER CAUTION (FOR ENGINE MODEL) 1779211502 2.74$ PLATE, ENGINE VACUUM HOSE INFORMATION
1779211512 2.74$ PLATE, ENGINE VACUUM HOSE INFORMATION 1779211651 2.72$ PLATE, ENGINE VACUUM HOSE INFORMATION 1779211654 2.79$ PLATE, ENGINE VACUUM HOSE INFORMATION 1779211710 2.72$ PLATE, ENGINE VACUUM HOSE INFORMATION
1779216560 2.81$ PLATE, ENGINE VACUUM HOSE INFORMATION 6121287007 15.00$ RAIL, ROOF SIDE, OUTER LH 1779216580 2.74$ PLATE, ENGINE VACUUM HOSE INFORMATION 6121289107 24.06$ RAIL, ROOF SIDE, OUTER LH
1779216610 1.44$ PLATE, ENGINE VACUUM HOSE INFORMATION 6121290B00 52.10$ PILLAR, NO.1 OU 1779216670 2.72$ PLATE, ENGINE VACUUM HOSE INFORMATION 1779216680 2.72$ PLATE, ENGINE VACUUM HOSE INFORMATION
6121290K02 62.27$ RAIL, ROOF SIDE, OUTER LH 1779216710 2.74$ PLATE, ENGINE VACUUM HOSE INFORMATION 1779220010 1.75$ НАКЛЕЙКА БУМАЖНАЯ 6121295403 22.81$ RAIL, ROOF SIDE, OUTER LH
1779220030 1.75$ НАКЛЕЙКА БУМАЖНАЯ 61212AA020 39.89$ RAIL, ROOF SIDE, OUTER LH 1779220040 1.44$ НАКЛЕЙКА БУМАЖНАЯ 61212AC020 65.19$ RAIL, ROOF SIDE, OUTER LH
1779220050 2.06$ НАКЛЕЙКА БУМАЖНАЯ 6121333010 15.42$ КУЗОВНОЙ УСИЛИТЕЛЬ 1779220060 2.11$ НАКЛЕЙКА БУМАЖНАЯ 6121333050 50.19$ КУЗОВНОЙ УСИЛИТЕЛЬ
1779220070 1.69$ НАКЛЕЙКА БУМАЖНАЯ 1779220090 2.11$ НАКЛЕЙКА БУМАЖНАЯ 1779220100 2.99$ НАКЛЕЙКА БУМАЖНАЯ 1779220110 2.38$ НАКЛЕЙКА БУМАЖНАЯ
1779220120 2.99$ НАКЛЕЙКА БУМАЖНАЯ 6121348010 43.32$ ПАНЕЛЬ КРЫШИ 1779220130 2.35$ НАКЛЕЙКА БУМАЖНАЯ 6121348020 116.93$ ПАНЕЛЬ КРЫШИ
1779220140 2.99$ НАКЛЕЙКА БУМАЖНАЯ 6121352030 43.10$ УСИЛИТЕЛЬ КРЫШИ 1779220190 1.09$ НАКЛЕЙКА БУМАЖНАЯ 61213AA030 56.33$ RAIL, ROOF SIDE, OUTER NO.2 RH
1779220210 0.86$ НАКЛЕЙКА БУМАЖНАЯ 612140C040 60.28$ RAIL, ROOF SIDE, OUTER NO.2 LH 1779220220 0.86$ НАКЛЕЙКА БУМАЖНАЯ 6121428030 43.10$ RAIL, ROOF SIDE, OUTER NO.2 LH
1779220230 0.86$ НАКЛЕЙКА БУМАЖНАЯ 6121433010 15.42$ RAIL, ROOF SIDE, OUTER REAR LH 6121433050 50.19$ КУЗОВНОЙ УСИЛИТЕЛЬ 1779220280 0.95$ LABEL, ENGINE VACUUM HOSE INFORMATION
1779220290 0.86$ PLATE, ENGINE VACUUM HOSE INFORMATION 1779220300 1.09$ НАКЛЕЙКА БУМАЖНАЯ 6121448020 116.93$ ПАНЕЛЬ КРЫШИ 1779221010 0.86$ PLATE, ENGINE VACUUM HOSE INFORMATION
1779221030 0.86$ PLATE, ENGINE VACUUM HOSE INFORMATION 6121452090 43.32$ КУЗОВА СТОЙКА 1779221040 0.86$ LABEL, ENGINE VACUUM HOSE INFORMATION 6121528040 40.10$ RAIL, ROOF SIDE, OUTER NO.3 RH
6121548010 90.16$ RAIL, ROOF SIDE, OUTER NO.3 RH 1779222010 1.45$ PLATE, ENGINE VACUUM HOSE INFORMATION 6121628020 43.10$ RAIL, ROOF SIDE, OUTER REAR LH 6121628040 40.10$ RAIL, ROOF SIDE, OUTER REAR LH
1779222020 0.53$ PLATE, ENGINE VACUUM HOSE INFORMATION 1779222030 0.53$ PLATE, ENGINE VACUUM HOSE INFORMATION 6121648010 90.04$ RAIL, ROOF SIDE, OUTER NO.3 LH 1779222031 0.50$ PLATE, ENGINE VACUUM HOSE INFORMATION
1779222060 0.58$ НАКЛЕЙКА БУМАЖНАЯ 6122136010 23.01$ PILLAR, NO.1 OUTER, UPPER LH 6122190B00 75.09$ PILLAR, NO.1 OU 1779228180 0.50$ PLATE, ENGINE VACUUM HOSE INFORMATION
6122522010 30.95$ CHANNEL, ROOF DRIP, CENTER RH 6122528010 121.97$ RAIL, ROOF SIDE OUTER UPPER NO.1, RH 1779231170 0.55$ LABEL, ENGINE VACUUM HOSE INFORMATION 6122530011 33.43$ CHANNEL, ROOF DRIP, CENTER RH
1779231190 0.54$ НАКЛЕЙКА ПОДКАПОТНАЯ 6122530030 62.57$ ПАНЕЛЬ КУЗОВА 1779231230 0.95$ LABEL, ENGINE VACUUM HOSE INFORMATION 1779231240 0.50$ LABEL, ENGINE VACUUM HOSE INFORMATION
6122622010 25.25$ CHANNEL, ROOF DRIP, CENTER LH 177923D160 1.68$ PLATE, ENGINE VACUUM HOSE INFORMATION 177923D240 1.90$ PLATE, ENGINE VACUUM HOSE INFORMATION 6122630011 33.43$ CHANNEL, ROOF DRIP, CENTER LH
177923D280 2.74$ PLATE, ENGINE VACUUM HOSE INFORMATION 6122630030 62.57$ RAIL, ROOF SIDE OUTER UPPER NO.1, LH 177923D300 2.74$ PLATE, ENGINE VACUUM HOSE INFORMATION 6122636010 107.24$ ПАНЕЛЬ ДВЕРИ ВНУТРЕННЯЯ
1779246061 2.94$ PLATE, ENGINE VACUUM HOSE INFORMATION 6122650020 73.36$ RAIL, ROOF SIDE OUTER UPPER NO.1, LH 1779246062 2.68$ PLATE, ENGINE VACUUM HOSE INFORMATION 1779246110 0.45$ PLATE, ENGINE VACUUM HOSE INFORMATION
612310K902 66.43$ RAIL, ROOF SIDE, INNER RH 1779250010 3.50$ PLATE, ENGINE VACUUM HOSE INFORMATION 6123110160 34.46$ RAIL, ROOF SIDE, INNER RH 1779250041 2.33$ PLATE, ENGINE VACUUM HOSE INFORMATION
612311A110 62.89$ RAIL, ROOF SIDE, INNER RH 1779250080 2.34$ PLATE, ENGINE VACUUM HOSE INFORMATION 6123120260 34.35$ RAIL, ROOF SIDE, INNER RH 1779250081 0.58$ PLATE, ENGINE VACUUM HOSE INFORMATION
6123130300 83.47$ RAIL, ROOF SIDE, INNER RH 1779250130 1.09$ PLATE, ENGINE VACUUM HOSE INFORMATION 6123130390 44.04$ RAIL, ROOF SIDE, INNER RH 1779250150 0.81$ PLATE, ENGINE VACUUM HOSE INFORMATION
6123130400 56.20$ RAIL, ROOF SIDE, INNER RH 1779250160 1.09$ PLATE, ENGINE VACUUM HOSE INFORMATION 6123133010 46.25$ RAIL, ROOF SIDE, INNER RH 1779250170 0.63$ НАКЛЕЙКА БУМАЖНАЯ
6123133100 68.94$ RAIL, ROOF SIDE, INNER RH 1779250180 0.45$ LABEL, ENGINE VACUUM HOSE INFORMATION 1779250190 0.50$ PLATE, ENGINE VACUUM HOSE INFORMATION 6123137050 31.87$ RAIL, ROOF SIDE, INNER RH
1779250191 0.51$ PLATE, ENGINE VACUUM HOSE INFORMATION 6123142010 20.41$ RAIL, ROOF SIDE, INNER RH 1779250202 0.43$ LABEL, ENGINE VACUUM HOSE INFORMATION 6123142080 39.89$ RAIL, ROOF SIDE, INNER RH
1779250220 0.44$ LABEL, ENGINE VACUUM HOSE INFORMATION 6123142090 56.44$ RAIL, ROOF SIDE, INNER RH 1779250230 0.95$ LABEL, ENGINE VACUUM HOSE INFORMATION 6123142120 34.97$ RAIL, ROOF SIDE, INNER RH
1779261102 1.86$ PLATE, ENGINE VACUUM HOSE INFORMATION 6123148020 70.37$ RAIL, ROOF SIDE, INNER RH 1779262040 1.80$ PLATE, ENGINE VACUUM HOSE INFORMATION 6123150010 55.77$ RAIL, ROOF SIDE, INNER RH
1779262060 1.75$ PLATE, ENGINE VACUUM HOSE INFORMATION 6123153080 56.20$ RAIL, ROOF SIDE, INNER RH 1779262190 2.79$ PLATE, ENGINE VACUUM HOSE INFORMATION 1779262210 2.81$ PLATE, ENGINE VACUUM HOSE INFORMATION
6123160020 36.35$ RAIL, ROOF SIDE, INNER RH 1779262250 2.25$ PLATE, ENGINE VACUUM HOSE INFORMATION 6123160030 17.50$ RAIL, ROOF SIDE, INNER RH 1779262280 0.50$ PLATE, ENGINE VACUUM HOSE INFORMATION
1779265040 2.72$ PLATE, ENGINE VACUUM HOSE INFORMATION 6123160080 46.76$ УСИЛИТЕЛЬ КУЗОВА 1779265060 2.70$ PLATE, ENGINE VACUUM HOSE INFORMATION 1779265090 2.81$ PLATE, ENGINE VACUUM HOSE INFORMATION
1779274320 1.44$ PLATE, ENGINE VACUUM HOSE INFORMATION 1779274400 1.78$ PLATE, ENGINE VACUUM HOSE INFORMATION 1779274430 1.44$ PLATE, ENGINE VACUUM HOSE INFORMATION 6123187002 33.15$ RAIL, ROOF SIDE, INNER RH
1779274471 1.42$ PLATE, ENGINE VACUUM HOSE INFORMATION 6123189113 20.81$ RAIL, ROOF SIDE, INNER RH 1779274490 1.44$ PLATE, ENGINE VACUUM HOSE INFORMATION 6123189114 43.53$ RAIL, ROOF SIDE, INNER RH
1779274521 1.42$ PLATE, ENGINE VACUUM HOSE INFORMATION 6123189117 43.86$ RAIL, ROOF SIDE, INNER RH 1779274530 1.42$ PLATE, ENGINE VACUUM HOSE INFORMATION 6123190K00 14.85$ RAIL, ROOF SIDE, INNER RH
1779274541 1.42$ PLATE, ENGINE VACUUM HOSE INFORMATION 1779274550 1.45$ PLATE, ENGINE VACUUM HOSE INFORMATION 1779274551 2.38$ PLATE, ENGINE VACUUM HOSE INFORMATION 61231AC010 56.33$ RAIL, ROOF SIDE, INNER RH
1779274580 2.35$ PLATE, ENGINE VACUUM HOSE INFORMATION 6123207010 54.80$ RAIL, ROOF SIDE, INNER LH 1779274611 1.44$ PLATE, ENGINE VACUUM HOSE INFORMATION 612320K902 66.43$ RAIL, ROOF SIDE, INNER LH
1779274612 2.38$ PLATE, ENGINE VACUUM HOSE INFORMATION 6123210160 34.46$ RAIL, ROOF SIDE, INNER LH 6123212880 62.89$ RAIL, ROOF SIDE, INNER LH 1779275160 1.92$ PLATE, ENGINE VACUUM HOSE INFORMATION
612321A020 55.18$ КУЗОВНАЯ ПАНЕЛЬ 1779275200 1.92$ PLATE, ENGINE VACUUM HOSE INFORMATION 6123220250 34.35$ RAIL, ROOF SIDE, INNER LH 1779275210 1.92$ PLATE, ENGINE VACUUM HOSE INFORMATION
6123220400 49.61$ RAIL, ROOF SIDE, INNER LH 1779275300 2.34$ PLATE, ENGINE VACUUM HOSE INFORMATION 6123220430 50.81$ RAIL, ROOF SIDE, INNER LH 1779275320 0.86$ PLATE, ENGINE VACUUM HOSE INFORMATION
6123226060 23.32$ RAIL, ROOF SIDE, INNER LH 1779275330 0.86$ PLATE, ENGINE VACUUM HOSE INFORMATION 6123230390 44.04$ RAIL, ROOF SIDE, INNER LH 1779275340 0.86$ PLATE, ENGINE VACUUM HOSE INFORMATION
6123230400 56.20$ RAIL, ROOF SIDE, INNER LH 1779275370 0.50$ LABEL, ENGINE VACUUM HOSE INFORMATION 6123233100 68.94$ RAIL, ROOF SIDE, INNER LH 1779276010 1.78$ PLATE, ENGINE VACUUM HOSE INFORMATION
1780038010 343.61$ CLEANER ASSY, AIR W/ELEMENT, LH 6123242010 20.41$ RAIL, ROOF SIDE, INNER LH 6123242120 34.97$ RAIL, ROOF SIDE, INNER LH 6123248010 70.37$ RAIL, ROOF SIDE, INNER LH
1780101020 13.31$ ELEMENT SUB-ASSY, AIR CLEANER FILTER 6123250010 55.77$ RAIL, ROOF SIDE, INNER LH 1780102040 17.69$ ФИЛЬТР ВОЗДУШНЫЙ 6123253060 56.20$ RAIL, ROOF SIDE, INNER LH
1780102050 14.25$ ФИЛЬТР ВОЗДУШНЫЙ 6123260011 39.49$ RAIL, ROOF SIDE, INNER LH 1780102060 13.71$ ФИЛЬТР ВОЗДУШНЫЙ 1780102080 20.86$ ФИЛЬТР ВОЗДУШНЫЙ
1780103010 16.15$ ФИЛЬТР ВОЗДУШНЫЙ 6123260080 46.76$ RAIL, ROOF SIDE, INNER LH 1780107010 22.96$ ФИЛЬТР ВОЗДУШНЫЙ 178010B010 17.69$ ФИЛЬТР ВОЗДУШНЫЙ
178010B020 18.14$ ФИЛЬТР ВОЗДУШНЫЙ 178010H020 11.79$ ФИЛЬТР ВОЗДУШНЫЙ 6123287002 24.96$ RAIL, ROOF SIDE, INNER LH 178010N020 15.77$ ELEMENT SUB-ASSY, AIR CLEANER FILTER
178010R010 17.42$ ФИЛЬТР ВОЗДУШНЫЙ 6123295405 26.03$ RAIL, ROOF SIDE, INNER LH 61232AC010 51.63$ RAIL, ROOF SIDE, INNER LH 178010W010 21.43$ ФИЛЬТР ВОЗДУШНЫЙ
6123310040 47.06$ RAIL, ROOF SIDE, INNER NO.2 RH 6123312150 46.96$ RAIL, ROOF SIDE, INNER NO.2 RH 6123326260 85.17$ RAIL, ROOF SIDE, INNER NO.2 RH 6123328100 60.28$ RAIL, ROOF SIDE, INNER NO.2 RH
6123395J00 42.01$ RAIL, ROOF SIDE, INNER NO.2 RH 6123410030 47.06$ RAIL, ROOF SIDE, INNER NO.2 LH 6123412110 46.96$ RAIL, ROOF SIDE, INNER NO.2 LH 1780113020 11.52$ ФИЛЬТР ВОЗДУШНЫЙ
6123435010 50.29$ RAIL, ROOF SIDE, INNER NO.2 LH 1780113030 13.03$ ФИЛЬТР ВОЗДУШНЫЙ 1780113040 7.05$ ФИЛЬТР ВОЗДУШНЫЙ 6123533020 13.13$ BRACKET, ASSIST GRIP
6123533050 17.82$ BRACKET, ASSIST GRIP 6123760010 4.71$ BRACKET, ASSIST GRIP, NO.1 6123833010 3.45$ BRACKET, ASSIST GRIP 6123860010 4.71$ BRACKET, ASSIST GRIP, NO.2
6123990K00 3.74$ RETAINER, ROOF SIDE RAIL OUTER, RH 6124190K00 5.48$ GUSSET, ROOF SIDE RAIL, REAR RH 1780120090 36.02$ ФИЛЬТР ВОЗДУШНЫЙ 6124290K00 5.48$ GUSSET, ROOF SIDE RAIL, REAR LH
6124512040 37.70$ REINFORCEMENT, ROOF SIDE RAIL, OUTER RH 6124612060 37.70$ ЛОНЖЕРОН 6124760020 11.59$ REINFORCEMENT, ROOF SIDE RAIL, INNER RH 6124790B00 17.54$ PILLAR, NO.9 OU
6124860010 12.51$ REINFORCEMENT, ROOF SIDE RAIL, INNER LH 6124990B00 233.16$ PILLAR SUB-ASSY, NO.10, LH 1780127010 18.14$ ФИЛЬТР ВОЗДУШНЫЙ 6124990K00 3.74$ RETAINER, ROOF SIDE RAIL, OUTER LH
6125190B01 48.84$ PILLAR, NO.1 IN 6125528030 31.87$ PLATE, ROOF SIDE RAIL, OUTER RH 1780130030 27.62$ ФИЛЬТР ВОЗДУШНЫЙ 6126106020 23.57$ CHANNEL, ROOF DRIP, RH
6126120120 14.48$ CHANNEL, ROOF DRIP, RH 6126126050 77.16$ CHANNEL, ROOF DRIP, RH 6126126060 109.32$ CHANNEL, ROOF DRIP, RH 6126128020 43.01$ CHANNEL, ROOF DRIP, RH
6126130170 24.71$ CHANNEL, ROOF DRIP, RH 1780131080 9.72$ ФИЛЬТР ВОЗДУШНЫЙ 6126132060 24.37$ CHANNEL, ROOF DRIP, RH 6126132070 17.41$ CHANNEL, ROOF DRIP, RH
6126133010 30.82$ CHANNEL, ROOF DRIP, RH 1780131140 19.52$ ELEMENT SUB-ASSY, AIR CLEANER FILTER 6126150020 23.93$ CHANNEL, ROOF DRIP, RH 1780134070 12.24$ ФИЛЬТР ВОЗДУШНЫЙ
6126190B01 48.01$ PILLAR, NO.1 IN 1780137010 10.69$ ФИЛЬТР ВОЗДУШНЫЙ 6126206020 23.57$ CHANNEL, ROOF DRIP, LH 6126207010 26.14$ CHANNEL, ROOF DRIP, LH
6126220120 14.48$ CHANNEL, ROOF DRIP, LH 1780140020 13.07$ ELEMENT SUB-ASSY, AIR CLEANER FILTER 6126222130 15.31$ CHANNEL, ROOF DRIP, LH 6126226010 20.00$ CHANNEL, ROOF DRIP
6126226020 77.16$ CHANNEL, ROOF DRIP, LH 1780141120 12.59$ ФИЛЬТР ВОЗДУШНЫЙ 1780144040 14.43$ ELEMENT SUB-ASSY, AIR CLEANER FILTER 6126228020 43.01$ CHANNEL, ROOF DRIP, LH
1780144070 16.65$ ELEMENT SUB-ASSY, AIR CLEANER FILTER 6126230170 24.71$ CHANNEL, ROOF DRIP, LH 1780144100 23.89$ ELEMENT, AIR 1780145010 18.03$ ФИЛЬТР ВОЗДУШНЫЙ
6126250010 34.03$ CHANNEL, ROOF DRIP, LH 6126250020 23.93$ CHANNEL, ROOF DRIP, LH 1780147030 34.05$ ELEMENT SUB-ASSY, AIR CLEANER FILTER 6126316100 17.05$ CHANNEL, ROOF DRIP SIDE, FRONT RH
6126326020 18.53$ CHANNEL, ROOF DRIP SIDE, FRONT RH 6126360010 17.07$ CHANNEL, ROOF DRIP, RH 6126390A01 28.37$ CHANNEL, ROOF DRIP SIDE, FRONT RH 6126395702 26.72$ CHANNEL, ROOF DRIP SIDE, FRONT RH
1780154020 25.17$ ФИЛЬТР ВОЗДУШНЫЙ 6126416090 16.98$ CHANNEL, ROOF DRIP SIDE, FRONT LH 6126416100 17.05$ CHANNEL, ROOF DRIP SIDE, FRONT LH 6126426020 18.53$ CHANNEL, ROOF DRIP SIDE, FRONT LH
6126460010 17.07$ CHANNEL, ROOF DRIP SIDE, FRONT LH 6126490A01 28.37$ CHANNEL, ROOF DRIP SIDE, FRONT LH 6126512180 21.98$ CHANNEL, ROOF DRIP SIDE, CENTER RH 6126512230 18.74$ CHANNEL, ROOF DRIP SIDE, CENTER RH
1780154120 27.55$ ФИЛЬТР ВОЗДУШНЫЙ 6126513030 23.43$ CHANNEL, ROOF DRIP SIDE, CENTER RH 6126536030 48.52$ PILLAR, NO.3 INNER, UPPER LH 6126612180 21.98$ CHANNEL, ROOF DRIP SIDE, CENTER LH
6126613030 23.43$ CHANNEL, ROOF DRIP SIDE, CENTER LH 6126712130 5.87$ CHANNEL, ROOF DRIP SIDE, REAR RH 6126712170 9.67$ CHANNEL, ROOF DRIP SIDE, REAR RH 6126730050 32.99$ CHANNEL, ROOF DRIP SIDE, REAR RH
6126733020 13.96$ CHANNEL, ROOF DRIP SIDE, REAR RH 6126733040 15.21$ CHANNEL, ROOF DRIP SIDE, REAR RH 6126736010 62.38$ PILLAR, NO.4 INNER, UPPER LH 6126736030 48.52$ PILLAR, NO.4 INNER, UPPER LH
6126750020 27.06$ CHANNEL, ROOF DRIP SIDE, REAR RH 1780160050 26.43$ ФИЛЬТР ВОЗДУШНЫЙ 6126789103 19.55$ CHANNEL, ROOF DRIP SIDE, REAR RH 1780161020 18.27$ ФИЛЬТР ВОЗДУШНЫЙ
6126790A00 63.70$ CHANNEL, ROOF DRIP SIDE, REAR RH 6126812130 5.25$ CHANNEL, ROOF DRIP SIDE, REAR LH 6126812170 9.67$ CHANNEL, ROOF DRIP SIDE, REAR LH 6126813040 14.58$ CHANNEL, ROOF DRIP SIDE, REAR LH
6126830040 32.99$ CHANNEL, ROOF DRIP SIDE, REAR LH 6126833020 13.96$ CHANNEL, ROOF DRIP SIDE, REAR LH 1780164060 18.14$ ФИЛЬТР ВОЗДУШНЫЙ 6126833040 15.21$ CHANNEL, ROOF DRIP SIDE, REAR LH
6126850020 27.06$ CHANNEL, ROOF DRIP SIDE, REAR LH 1780166030 26.67$ ФИЛЬТР ВОЗДУШНЫЙ 6126889101 12.81$ CHANNEL, ROOF DRIP SIDE, REAR LH 6126890A00 65.32$ CHANNEL, ROOF DRIP SIDE, REAR LH
6127236030 63.00$ PILLAR, NO.9 INNER, RH 6127336010 3.92$ PILLAR, NO.9 INNER, LOWER RH 6127336030 4.40$ PILLAR, NO.9 INNER, LOWER RH 6127436010 24.06$ PILLAR, NO.10 INNER, RH
6128150050 2.28$ BRACKET, SLIDING ROOF HOUSING SIDE MOUNTING, NO.1 1780173010 13.16$ ELEMENT SUB-ASSY, AIR CLEANER FILTER 1780174010 17.61$ ФИЛЬТР ВОЗДУШНЫЙ 6128310060 5.42$ BRACKET, SLIDING ROOF HOUSING SIDE MOUNTING, NO.3 RH
6128336030 4.40$ PILLAR, NO.9 INNER, LOWER LH 6128360020 16.88$ BRACKET, SLIDING ROOF HOUSING SIDE MOUNTING, RH 6128410060 5.42$ BRACKET, SLIDING ROOF HOUSING SIDE MOUNTING, NO.3 LH 6128436010 24.06$ PILLAR, NO.10 INNER, LH
6128460020 16.88$ BRACKET, SLIDING ROOF HOUSING SIDE MOUNTING, LH 1780178070 32.55$ ELEMENT SUB-ASSY 6129936010 1.34$ BRACKET, NO.9 INNER PILLAR BLOWER 1780197201 8.93$ ФИЛЬТР ВОЗДУШНЫЙ
613010K901 157.58$ PILLAR SUB-ASSY, CENTER BODY, RH 6130110060 75.41$ PILLAR SUB-ASSY 6130112190 86.29$ PILLAR SUB-ASSY, CENTER BODY, OUTER RH 6130112270 114.52$ PILLAR SUB-ASSY, CENTER BODY, RH
17801BZ050 13.39$ ВОЗДУШНЫЙ ФИЛЬТР 6130120340 101.73$ PILLAR, CENTER BODY, OUTER RH 6130122910 104.96$ PILLAR SUB-ASSY, CENTER BODY, OUTER RH 6130126021 110.36$ PILLAR SUB-ASSY, CENTER BODY, OUTER RH
1780503010 44.30$ RESONATOR SUB-ASSY, INTAKE AIR 6130126090 107.24$ PILLAR SUB-ASSY, CENTER BODY, RH 1780507010 55.32$ RESONATOR SUB-ASSY, INTAKE AIR 6130126340 137.44$ PILLAR SUB-ASSY, CENTER BODY, OUTER RH
6130126360 137.44$ PILLAR SUB-ASSY, CENTER BODY, OUTER RH 1780513050 18.70$ CONNECTOR SUB-ASSY, INTAKE AIR 1780513060 17.21$ CONNECTOR SUB-ASSY, INTAKE AIR 6130128080 178.04$ PILLAR SUB-ASSY, CENTER BODY, OUTER RH
6130128100 175.29$ PILLAR SUB-ASSY, CENTER BODY, OUTER RH 6130128110 179.08$ PILLAR SUB-ASSY, CENTER BODY, OUTER RH 6130128140 114.52$ PILLAR SUB-ASSY, CENTER BODY, RH 6130128150 114.52$ PILLAR SUB-ASSY, CENTER BODY, RH
1780535021 206.57$ CONNECTOR SUB-ASSY, INTAKE AIR 6130128190 70.07$ PILLAR SUB-ASSY, CENTER BODY, OUTER RH 1780535060 135.42$ CONNECTOR SUB-ASSY, INTAKE AIR 6130128210 59.98$ PILLAR SUB-ASSY, CENTER BODY, RH
1780546020 44.90$ CONNECTOR SUB-ASSY, INTAKE AIR 6130130150 128.03$ PILLAR SUB-ASSY, CENTER BODY, OUTER RH 1780554090 14.30$ PIPE SUB-ASSY, AIR CLEANER, NO.1 1780554111 35.03$ RESONATOR SUB-ASSY, INTAKE AIR
6130148901 148.88$ PILLAR SUB-ASSY, CENTER BODY, RH 1780554152 34.32$ PIPE SUB-ASSY, AIR CLEANER, NO.1 6130158010 73.61$ PILLAR SUB-ASSY, CENTER BODY, RH 1780554220 54.32$ RESONATOR SUB-ASSY, INTAKE AIR
6130160072 137.32$ КРОНШТЕЙН КУЗОВНОЙ 1780554250 32.88$ RESONATOR SUB-ASSY, INTAKE AIR 6130160080 133.37$ КРОНШТЕЙН КУЗОВНОЙ 1780554270 66.27$ RESONATOR SUB-ASSY, INTAKE AIR
6130160090 137.44$ КРОНШТЕЙН КУЗОВНОЙ 1780554340 35.46$ RESONATOR SUB-ASSY, INTAKE AIR 1780554370 78.88$ CONNECTOR SUB-ASSY, INTAKE AIR 6130160111 115.06$ КРОНШТЕЙН КУЗОВНОЙ
1780558230 69.36$ PIPE SUB-ASSY, AIR CLEANER, NO.1 1780561010 72.69$ CONNECTOR SUB-ASSY, INTAKE AIR 6130160901 97.14$ КРОНШТЕЙН КУЗОВНОЙ 1780561020 74.26$ CONNECTOR SUB-ASSY, INTAKE AIR
6130189105 116.59$ PILLAR SUB-ASSY, CENTER BODY, OUTER RH 1780561030 70.80$ CONNECTOR SUB-ASSY, INTAKE AIR 6130189107 123.76$ PILLAR SUB-ASSY, CENTER BODY, OUTER RH 6130195J15 133.37$ PILLAR SUB-ASSY, CENTER BODY, OUTER RH
1780564020 29.41$ CONNECTOR SUB-ASSY, INTAKE AIR 6130195J21 133.37$ PILLAR SUB-ASSY, CENTER BODY, OUTER RH 6130210060 75.41$ PILLAR SUB-ASSY 1780571020 38.98$ CONNECTOR SUB-ASSY, INTAKE AIR
6130212250 94.43$ PILLAR SUB-ASSY, CENTER BODY, OUTER LH 1780572030 19.65$ CONNECTOR SUB-ASSY, INTAKE AIR 6130220450 101.73$ PILLAR, CENTER BODY, OUTER LH 6130222906 102.72$ PILLAR SUB-ASSY, CENTER BODY, LH
1780574100 76.15$ RESONATOR SUB-ASSY, INTAKE AIR 6130222910 104.96$ PILLAR SUB-ASSY, CENTER BODY, OUTER LH 1780574110 58.80$ БАЧОК ПЛАСТИКОВЫЙ 6130226260 132.23$ PILLAR SUB-ASSY, CENTER BODY, LH
6130226280 137.44$ PILLAR SUB-ASSY, CENTER BODY, OUTER LH 1780574180 31.33$ RESONATOR SUB-ASSY, INTAKE AIR 6130226500 137.44$ КУЗОВНАЯ СТОЙКА 1780574210 55.72$ RESONATOR SUB-ASSY, INTAKE AIR
6130228010 178.04$ PILLAR SUB-ASSY, CENTER BODY, OUTER LH 1780575010 80.83$ CONNECTOR SUB-ASSY, INTAKE AIR 6130228040 175.29$ ПАНЕЛЬ КУЗОВА 1780575030 85.07$ CONNECTOR SUB-ASSY, INTAKE AIR
6130228060 175.29$ PILLAR SUB-ASSY, CENTER BODY, OUTER LH 1780575040 143.01$ CONNECTOR SUB-ASSY, INTAKE AIR 6130228140 129.11$ PILLAR SUB-ASSY, CENTER BODY, LH 1780575100 127.14$ CONNECTOR SUB-ASSY, INTAKE AIR
6130228150 129.11$ PILLAR SUB-ASSY, CENTER BODY, LH 1780575150 141.63$ CONNECTOR SUB-ASSY, INTAKE AIR 6130228170 47.53$ PILLAR SUB-ASSY, CENTER BODY, OUTER LH 6130230150 105.02$ PILLAR SUB-ASSY, CENTER BODY, OUTER LH
1780575180 3.60$ CONNECTOR SUB-ASSY, INTAKE AIR 6130230180 128.03$ PILLAR SUB-ASSY, CENTER BODY, OUTER LH 6130232900 93.06$ PILLAR SUB-ASSY, CENTER BODY, OUTER LH 1780603010 23.52$ PIPE SUB-ASSY, AIR CLEANER, NO.2
1780607010 27.00$ PIPE SUB-ASSY, AIR CLEANER, NO.2 6130248901 148.88$ PILLAR SUB-ASSY, CENTER BODY, LH 178060A010 37.97$ PIPE SUB-ASSY, AIR CLEANER, NO.2 6130260091 133.37$ PILLAR SUB-ASSY, CENTER BODY, LH
178060A020 38.98$ PIPE SUB-ASSY, AIR CLEANER, NO.2 6130260092 137.32$ КУЗОВНАЯ СТОЙКА 6130260100 133.37$ PILLAR SUB-ASSY, CENTER BODY, LH 6130260110 137.44$ PILLAR SUB-ASSY, CENTER BODY, OUTER LH
6130260140 129.18$ PILLAR SUB-ASSY, CENTER BODY, OUTER LH 1780642020 41.40$ PIPE SUB-ASSY, AIR CLEANER, NO.2 1780654080 52.10$ PIPE SUB-ASSY, AIR CLEANER, NO.2 1780654110 71.23$ RESONATOR SUB-ASSY, INTAKE AIR, NO.2
6130289112 123.76$ PILLAR SUB-ASSY, CENTER BODY, OUTER LH 1780658020 6.93$ PIPE SUB-ASSY, AIR CLEANER, NO.2 6130295J09 151.23$ PILLAR SUB-ASSY, CENTER BODY, OUTER LH 1780658030 40.43$ PIPE SUB-ASSY, AIR CLEANER, NO.2
6130328020 113.49$ REINFORCE SUB-ASSY, CENTER BODY PILLAR, UPPER RH 1780658040 47.89$ PIPE SUB-ASSY, AIR CLEANER, NO.2 1780658050 47.89$ PIPE SUB-ASSY, AIR CLEANER, NO.2 1780667020 59.44$ PIPE SUB-ASSY, AIR CLEANER, NO.2
6130333900 116.03$ REINFORCE SUB-ASSY, CENTER BODY PILLAR, UPPER RH 1780674010 33.54$ PIPE SUB-ASSY, AIR CLEANER, NO.2 6130333906 156.08$ REINFORCE SUB-ASSY, CENTER BODY PILLAR, UPPER RH 6130333908 141.78$ REINFORCE SUB-ASSY, CENTER BODY PILLAR, UPPER RH
1780674040 37.49$ PIPE SUB-ASSY, AIR CLEANER, NO.2 6130335020 46.76$ REINFORCE SUB-ASSY, CENTER BODY PILLAR, UPPER RH 1780754010 12.74$ PLATE SUB-ASSY, AIR CLEANER FILTER SET 6130342902 92.88$ REINFORCEMENT SUB-ASSY, CENTER BODY PILLAR, RH
1780754030 30.34$ RESONATOR SUB-ASSY, INTAKE AIR, NO.3 6130342903 92.77$ REINFORCEMENT SUB-ASSY, CENTER BODY PILLAR, RH 6130360030 111.41$ УСИЛИТЕЛЬ КУЗОВА 1780768010 1.73$ PLATE SUB-ASSY, AIR CLEANER FILTER SET
6130360050 92.77$ REINFORCE SUB-ASSY, CENTER BODY PILLAR, UPPER RH 1780774010 13.81$ CONNECTOR SUB-ASSY, INTAKE AIR, NO.3 1781221010 17.81$ FILTER, AIR CLEANER 1781231030 22.48$ FILTER, AIR CLEANER ( R/A - 7 )***
61303AA030 140.55$ REINFORCE SUB-ASSY, CENTER BODY PILLAR, UPPER RH 61303AC010 100.17$ REINFORCE SUB-ASSY, CENTER BODY PILLAR, UPPER RH 1781231040 22.58$ FILTER, AIR CLEANER 61303AC020 101.82$ REINFORCE SUB-ASSY, CENTER BODY PILLAR, UPPER RH
1781250030 22.58$ FILTER, AIR CLEANER 613040K010 80.57$ REINFORCE SUB-ASSY, CENTER BODY PILLAR, UPPER LH 1784144030 3.11$ ПРОКЛАДКА РЕЗИНОВАЯ 6130428020 113.49$ REINFORCE SUB-ASSY, CENTER BODY PILLAR, UPPER LH
1784168040 0.98$ GASKET, FILTER ELEMENT 1784177040 14.61$ GASKET, FILTER ELEMENT 6130433040 83.17$ REINFORCE SUB-ASSY, CENTER BODY PILLAR, UPPER LH 1784510020 6.13$ GASKET, AIR CLEANER CAP
6130433900 116.03$ REINFORCE SUB-ASSY, CENTER BODY PILLAR, UPPER LH 1784525010 2.21$ GASKET, AIR CLEANER CAP 6130433904 156.08$ REINFORCE SUB-ASSY, CENTER BODY PILLAR, UPPER LH 1784542010 3.46$ GASKET, AIR CLEANER CAP
6130433906 141.78$ REINFORCE SUB-ASSY, CENTER BODY PILLAR, UPPER LH 6130442903 92.77$ REINFORCEMENT SUB-ASSY, CENTER BODY PILLAR, LH 6130460030 111.41$ REINFORCE SUB-ASSY, CENTER BODY PILLAR, UPPER LH 61304AC010 100.17$ REINFORCE SUB-ASSY, CENTER BODY PILLAR, UPPER LH
61304AC020 101.82$ REINFORCE SUB-ASSY, CENTER BODY PILLAR, UPPER LH 1784813010 3.29$ GASKET, AIR CLEANER TO CARBURETOR 613050C901 153.06$ REINFORCE SUB-ASSY, CENTER BODY PILLAR, LOWER RH 1784861011 5.90$ GASKET, AIR CLEANER TO CARBURETOR
6130533040 146.98$ REINFORCE SUB-ASSY, CENTER BODY PILLAR, LOWER RH 1784946010 4.29$ ПРОКЛАДКА МЕТАЛЛИЧЕСКАЯ 1784974010 1.71$ GASKET, INTAKE AIR CONNECTOR 6130552080 107.24$ REINFORCE SUB-ASSY, CENTER BODY PILLAR, LOWER RH
1785116020 12.53$ BRACKET, AIR CLEANER SUPPORT 6130552901 83.29$ REINFORCE SUB-ASSY, CENTER BODY PILLAR, LOWER RH 1785164010 10.25$ BRACKET, AIR CLEANER SUPPORT 6130560041 91.62$ REINFORCE SUB-ASSY, CENTER BODY PILLAR, LOWER RH
1785174040 8.57$ BRACKET, AIR CLEANER SUPPORT 61305AC901 110.36$ REINFORCE SUB-ASSY, CENTER BODY PILLAR, LOWER RH 613060C901 153.06$ REINFORCE SUB-ASSY, CENTER BODY PILLAR, LOWER LH 1785375010 2.98$ INSULATOR, AIR CLEANER BRACKET
6130612160 50.40$ REINFORCE SUB-ASSY, CENTER BODY PILLAR, LOWER LH 6130633010 165.18$ REINFORCEMENT, CENTER BODY PILLAR, LOWER LH 6130633040 146.98$ REINFORCE SUB-ASSY, CENTER BODY PILLAR, LOWER LH 6130633902 119.27$ REINFORCE SUB-ASSY, CENTER BODY PILLAR, LOWER LH
1785735010 6.08$ GASKET, AIR INLET DUCT, NO.2 1786030010 27.71$ CONNECTOR, INTAKE AIR 6130660040 103.41$ REINFORCE SUB-ASSY, CENTER BODY PILLAR, LOWER LH 1786042020 87.17$ CONNECTOR, INTAKE AIR
6130660041 91.62$ REINFORCE SUB-ASSY, CENTER BODY PILLAR, LOWER LH 1786043020 78.28$ CONNECTOR, INTAKE AIR 61306AC010 108.29$ REINFORCE SUB-ASSY, CENTER BODY PILLAR, LOWER LH 1786046031 44.89$ ВОЗДУХОВОД
61306AC901 110.36$ REINFORCE SUB-ASSY, CENTER BODY PILLAR, LOWER LH 613070C010 101.82$ PILLAR SUB-ASSY, CENTER BODY, INNER RH 1786046123 46.83$ ВОЗДУХОВОД 1786046140 58.23$ РЕЗОНАТОР ВОЗДУШНОГО ФИЛЬТРА
6130712030 18.18$ PILLAR SUB-ASSY, CENTER BODY, INNER RH 6130728090 120.05$ PILLAR SUB-ASSY, CENTER BODY, INNER RH 6130733040 68.72$ PILLAR SUB-ASSY, CENTER BODY, INNER RH 1786046180 101.03$ ВОЗДУХОВОД
6130733050 85.85$ PILLAR SUB-ASSY, CENTER BODY, INNER RH 1786055020 18.51$ CONNECTOR SUB-ASSY, INTAKE AIR 6130735020 106.58$ PILLAR, CENTER BODY, INNER RH 1786064021 21.60$ CONNECTOR, INTAKE AIR
6130735902 74.14$ REINFORCEMENT, CENTER BODY PILLAR, OUTER RH 6130742020 65.96$ PILLAR SUB-ASSY, CENTER BODY, INNER RH 1786075030 44.34$ CONNECTOR SUB-ASSY, INTAKE AIR 6130742902 62.47$ КУЗОВНАЯ СТОЙКА
1786117010 53.90$ CONNECTOR, INTAKE AIR 1786130080 38.35$ CONNECTOR, INTAKE AIR 6130748011 92.75$ PILLAR SUB-ASSY, CENTER BODY, INNER RH 6130748030 74.93$ PILLAR SUB-ASSY, CENTER BODY, INNER RH
1786135070 21.81$ CONNECTOR, INTAKE AIR 6130750010 58.40$ PILLAR SUB-ASSY, CENTER BODY, INNER RH 1786142050 70.86$ CONNECTOR, INTAKE AIR 6130750020 59.73$ PILLAR SUB-ASSY, CENTER BODY, INNER RH
1786146050 38.65$ CONNECTOR, INTAKE AIR 6130760070 45.27$ PILLAR SUB-ASSY, CENTER BODY, INNER RH 6130760130 48.21$ PILLAR SUB-ASSY, CENTER BODY, INNER RH 1786158070 52.47$ CONNECTOR, INTAKE AIR
6130760900 74.24$ PILLAR SUB-ASSY, CENTER BODY, INNER RH 6130795J51 89.19$ PILLAR SUB-ASSY, CENTER BODY, INNER RH 61307AC010 54.88$ PILLAR SUB-ASSY, CENTER BODY, INNER RH 613080C020 101.82$ PILLAR SUB-ASSY, CENTER BODY, INNER LH
1786170050 18.03$ ПАТРУБОК ВОЗДУШНОГО ФИЛЬТРА ПЛАСТИКОВЫЙ 613080K020 65.91$ PILLAR SUB-ASSY, CENTER BODY, INNER LH 6130812030 18.18$ PILLAR SUB-ASSY, CENTER BODY, INNER LH 1786170080 20.36$ ПАТРУБОК ВОЗДУШНОГО ФИЛЬТРА ПЛАСТИКОВЫЙ
6130826330 89.22$ PILLAR SUB-ASSY, CENTER BODY, INNER LH 1786175091 31.20$ CONNECTOR, INTAKE AIR 6130833040 68.72$ PILLAR SUB-ASSY, CENTER BODY, INNER LH 1786175110 40.12$ ПАТРУБОК ВОЗДУХОЗАБОРНИКА ПЛАСТИКОВЫЙ
6130833041 68.72$ PILLAR SUB-ASSY, CENTER BODY, INNER LH 1786175111 43.05$ CONNECTOR, INTAKE AIR 6130833050 85.85$ PILLAR SUB-ASSY, CENTER BODY, INNER LH 6130835010 109.32$ PILLAR, CENTER BODY, INNER LH
1786175121 54.40$ CONNECTOR, INTAKE AIR 6130835020 106.58$ PILLAR, CENTER BODY, INNER LH 1786188381 7.95$ CONNECTOR, INTAKE AIR 6130842020 65.96$ PILLAR SUB-ASSY, CENTER BODY, INNER LH
1786746010 6.51$ КУЗОВНОЙ УПЛОТНИТЕЛЬ 6130848011 92.75$ PILLAR SUB-ASSY, CENTER BODY, INNER LH 1787054020 35.07$ RESONATOR SUB-ASSY, INTAKE AIR, NO.3 6130860130 48.21$ PILLAR SUB-ASSY, CENTER BODY, INNER LH
1787117030 7.53$ STAY, AIR CONNECTOR 61308AC010 54.88$ PILLAR SUB-ASSY, CENTER BODY, INNER LH 1787175030 27.51$ STAY, AIR CONNECTOR 6131101080 73.61$ PILLAR, CENTER BODY, OUTER RH
1787242070 5.50$ BRACKET, INTAKE AIR CONNECTOR 6131105030 81.74$ КУЗОВНАЯ СТОЙКА 6131110040 128.06$ PILLAR, CENTER BODY, OUTER RH 1787250010 4.25$ BRACKET, INTAKE AIR CONNECTOR
1787254030 4.38$ BRACKET, INTAKE AIR CONNECTOR 6131112240 53.56$ PILLAR, CENTER BODY, OUTER RH 6131112290 131.19$ PILLAR, CENTER BODY, OUTER RH 1787516020 17.13$ PIPE, INTAKE AIR CONNECTOR
6131112320 124.93$ PILLAR, CENTER BODY, OUTER RH 1787535010 9.45$ PIPE, INTAKE AIR CONNECTOR 6131112400 92.77$ PILLAR, CENTER BODY, OUTER RH 1787541070 25.18$ PIPE, INTAKE AIR CONNECTOR
1787542070 22.18$ PIPE, INTAKE AIR CONNECTOR 1787543070 36.56$ PIPE, INTAKE AIR CONNECTOR 6131120300 93.65$ PILLAR, CENTER BODY, OUTER RH 6131120310 146.60$ PILLAR, CENTER BODY, OUTER RH
6131120900 80.66$ PILLAR, CENTER BODY, OUTER RH 6131122251 77.94$ PILLAR, CENTER BODY, OUTER RH 1787550121 117.33$ ПАТРУБОК ВОЗДУХОЗАБОРНИКА ПЛАСТИКОВЫЙ 6131126070 63.06$ PILLAR, CENTER BODY, OUTER RH
6131128110 84.87$ PILLAR, CENTER BODY, OUTER RH 6131130150 78.54$ КУЗОВНАЯ СТОЙКА 6131130170 141.95$ КУЗОВНАЯ СТОЙКА 6131130201 146.80$ КУЗОВНАЯ СТОЙКА
1787550260 103.08$ ПАТРУБОК ВОЗДУХОЗАБОРНИКА ПЛАСТИКОВЫЙ 6131133020 183.39$ ПОРОГ 6131133030 110.36$ ПОРОГ 1787550320 103.22$ PIPE, INTAKE AIR CONNECTOR
1787564100 57.27$ PIPE, INTAKE AIR CONNECTOR 1787570140 25.94$ PIPE, INTAKE AIR CONNECTOR 178800A060 26.37$ HOSE ASSY AIR 6131137120 83.39$ PILLAR, CENTER BODY, OUTER RH
1788011100 29.66$ ПАТРУБОК ВОЗДУХОЗАБОРНИКА РЕЗИНОВЫЙ 1788011120 35.85$ ПАТРУБОК ВОЗДУХОЗАБОРНИКА РЕЗИНОВЫЙ 6131143010 46.29$ PILLAR, CENTER BODY, OUTER RH 6131143020 32.18$ PILLAR, CENTER BODY, OUTER RH
6131144040 137.44$ PILLAR, CENTER BODY, OUTER RH 1788011150 35.70$ ПАТРУБОК ВОЗДУХОЗАБОРНИКА РЕЗИНОВЫЙ 1788011181 40.56$ ПАТРУБОК ВОЗДУХОЗАБОРНИКА РЕЗИНОВЫЙ 6131148040 74.24$ PILLAR, CENTER BODY, OUTER RH
1788011230 33.16$ ПАТРУБОК ВОЗДУХОЗАБОРНИКА РЕЗИНОВЫЙ 1788011240 24.59$ ПАТРУБОК ВОЗДУХОЗАБОРНИКА РЕЗИНОВЫЙ 6131150040 68.55$ PILLAR, CENTER BODY, OUTER RH 1788011370 32.73$ ПАТРУБОК ВОЗДУХОЗАБОРНИКА РЕЗИНОВЫЙ
6131153010 90.79$ PILLAR, CENTER BODY, OUTER RH 6131153011 161.28$ КУЗОВА СТОЙКА 1788016020 43.84$ HOSE, AIR CLEANER, NO.2 6131158010 73.61$ PILLAR, CENTER BODY, OUTER RH
1788016251 30.17$ HOSE ASSY, AIR CLEANER 6131158020 62.06$ PILLAR, CENTER BODY, OUTER RH 1788021010 27.62$ ПАТРУБОК РЕЗИНОВЫЙ 1788021081 25.94$ HOSE ASSY, AIR CLEANER
6131160190 54.46$ PILLAR, CENTER BODY, OUTER RH 61311AA010 158.26$ КУЗОВНАЯ СТОЙКА 1788030030 33.03$ HOSE ASSY, AIR CLEANER 6131202040 48.43$ PILLAR, CENTER BODY, OUTER LH
6131207010 154.62$ PILLAR, CENTER BODY, OUTER LH 6131207011 155.13$ PILLAR, CENTER BODY, OUTER LH 1788031200 26.28$ HOSE, AIR CLEANER, NO.1 6131210040 128.06$ PILLAR, CENTER BODY, OUTER LH
1788035040 19.02$ HOSE, COOL AIR INTAKE 6131212280 53.56$ ПОРОГ 1788037022 92.83$ HOSE, AIR CLEANER, NO.2 6131212330 131.19$ PILLAR, CENTER BODY, OUTER LH
1788037040 21.68$ HOSE ASSY, AIR CLEANER 6131212360 130.14$ PILLAR, CENTER BODY, OUTER LH 1788050040 67.28$ HOSE ASSY, AIR CLEANER 1788050050 68.44$ ПАТРУБОК ВОЗДУШНОГО ФИЛЬТРА ПЛАСТИКОВЫЙ
6131213010 165.55$ ПОРОГ 6131213040 74.87$ PILLAR, CENTER BODY, OUTER LH 1788054220 35.49$ HOSE ASSY, AIR CLEANER 6131220320 139.17$ ПОРОГ
1788054240 58.38$ HOSE ASSY, AIR CLEANER 6131220380 146.60$ ПОРОГ 6131222321 116.62$ PILLAR, CENTER BODY, OUTER LH 1788054261 44.07$ HOSE ASSY, AIR CLEANER
1788058030 41.96$ HOSE, AIR CLEANER, NO.1 1788062030 33.42$ ПАТРУБОК ВОЗДУШНОГО ФИЛЬТРА ПЛАСТИКОВЫЙ 1788062050 37.52$ HOSE ASSY, AIR CLEANER 1788062060 40.90$ HOSE ASSY, AIR CLEANER
1788064070 45.48$ ПАТРУБОК ПЛАСТИКОВЫЙ 6131230210 112.03$ ПОРОГ 1788064110 21.79$ ПАТРУБОК ПЛАСТИКОВЫЙ 6131230230 141.95$ ПОРОГ
1788064190 38.99$ ПАТРУБОК ПЛАСТИКОВЫЙ 1788064191 41.63$ ПАТРУБОК ПЛАСТИКОВЫЙ 6131233020 183.39$ PILLAR, CENTER BODY, OUTER LH 6131233030 110.36$ PILLAR, CENTER BODY, OUTER LH
1788064362 40.93$ ПАТРУБОК ПЛАСТИКОВЫЙ 1788064390 37.63$ ПАТРУБОК ПЛАСТИКОВЫЙ 1788074060 43.84$ ПАТРУБОК ВОЗДУХОЗАБОРНИКА ПЛАСТИКОВЫЙ 1788074070 60.44$ ПАТРУБОК ВОЗДУХОЗАБОРНИКА ПЛАСТИКОВЫЙ
6131235010 60.49$ ПАНЕЛЬ КУЗОВА 1788074120 35.62$ ПАТРУБОК ВОЗДУХОЗАБОРНИКА ПЛАСТИКОВЫЙ 6131242011 33.95$ PILLAR, CENTER BODY, OUTER LH 1788089102 15.16$ HOSE, AIR CLEANER, NO.2
1788103110 40.93$ ПАТРУБОК РЕЗИНОВЫЙ 6131243010 46.29$ PILLAR, CENTER BODY, OUTER LH 1788103140 28.63$ ПАТРУБОК РЕЗИНОВЫЙ 6131243020 32.18$ PILLAR, CENTER BODY, OUTER LH
178810A050 11.09$ HOSE AIR CLEANE 6131244070 81.74$ PILLAR, CENTER BODY, OUTER LH 178810D010 24.65$ HOSE, AIR CLEANER, NO.1 178810D300 17.65$ HOSE, AIR CLEANER, NO.1
178810L030 35.41$ HOSE, AIR CLEANER, NO.1 178810L050 29.96$ HOSE, AIR CLEANER, NO.1 178810L090 35.28$ HOSE, AIR CLEANER, NO.1 1788111122 3.35$ HOSE, AIR CLEANER, NO.1
6131253010 90.79$ ПОРОГ 6131258020 45.66$ PILLAR, CENTER BODY, OUTER LH 1788112030 24.41$ HOSE, AIR CLEANER, NO.2 1788112040 20.73$ HOSE, AIR CLEANER, NO.2
1788112080 12.58$ HOSE, AIR CLEANER, NO.4 1788113040 40.13$ HOSE, AIR CLEANER, NO.1 1788113051 8.77$ HOSE, AIR CLEANER, NO.1 6131260180 132.52$ КУЗОВНАЯ СТОЙКА
1788113070 15.74$ HOSE, PRECLEANER 6131260190 165.61$ КУЗОВНАЯ СТОЙКА 1788113121 13.51$ HOSE, AIR CLEANER, NO.5 1788113130 24.21$ HOSE, AIR CLEANER, NO.1
1788113140 21.17$ HOSE, AIR CLEANER, NO.1 1788113190 22.63$ HOSE, AIR CLEANER, NO.1 1788114020 22.28$ HOSE, AIR CLEANER, NO.2 6131263010 92.77$ PILLAR, CENTER BODY, OUTER LH
1788115050 15.68$ HOSE, AIR CLEANER, NO.2 1788115140 9.05$ HOSE, AIR CLEANER, NO.2 6131836010 10.15$ RAIL, NO.6 UPPER OUTER, RH 6131936020 6.94$ PLATE, CENTER BODY PILLAR, OUTER RH
6132190B01 171.19$ RAIL, NO.1 UPPER OUTER, LH 6132390B00 63.23$ RAIL, NO.1 UPPER OUTER, LOWER LH 1788116050 21.97$ HOSE, PRECLEANER 6132890B00 73.62$ RAIL, NO.6 UPPER OUTER, LH
1788116100 40.48$ HOSE, AIR CLEANER, NO.1 6133836010 11.35$ RAIL, REAR SIDE NO.2, RH 6133895J01 14.07$ УСИЛИТЕЛЬ 1788116150 35.32$ HOSE, AIR CLEANER, NO.1
6133930010 1.03$ SEAL, CENTER BODY PILLAR, INNER NO.1 1788116170 36.52$ HOSE, AIR CLEANER, NO.1 6133950020 1.90$ SEAL, CENTER BODY PILLAR, INNER NO.1 1788116210 13.40$ HOSE, AIR CLEANER, NO.1
6133950040 2.44$ SEAL, CENTER BODY PILLAR, INNER NO.1 6134090A07 194.29$ PILLAR SUB-ASSY, CENTER BODY, LH 1788116281 32.39$ HOSE, AIR CLEANER, NO.2 6134122140 165.73$ PILLAR SUB-ASSY, CENTER BODY, INNER RH
1788116300 27.38$ ПАТРУБОК ВОЗДУХОЗАБОРНИКА РЕЗИНОВЫЙ 6134142900 58.72$ PILLAR, CENTER BODY, INNER UPPER RH 6134160040 31.96$ КУЗОВНОЙ УСИЛИТЕЛЬ 1788116360 34.58$ HOSE, AIR CLEANER, NO.1
1788116380 30.06$ HOSE, AIR CLEANER, NO.1 6134242900 58.72$ PILLAR, CENTER BODY, INNER UPPER LH 6134260040 31.96$ PILLAR, CENTER BODY, INNER UPPER LH 6134260041 31.87$ PILLAR, CENTER BODY, INNER UPPER LH
6134310050 39.15$ PILLAR, CENTER BODY, INNER RH 1788117040 30.17$ ПАТРУБОК РЕЗИНОВЫЙ 1788117060 32.73$ ПАТРУБОК РЕЗИНОВЫЙ 6134312170 68.61$ КУЗОВНАЯ СТОЙКА
6134312190 54.88$ КУЗОВНАЯ СТОЙКА 6134322909 29.85$ PILLAR, CENTER BODY, INNER RH 6134324010 75.44$ PILLAR, CENTER BODY, INNER RH 6134326470 49.98$ PILLAR, CENTER BODY, INNER RH
6134330100 28.06$ PILLAR, CENTER BODY, INNER RH 6134330160 28.61$ PILLAR, CENTER BODY, INNER RH 6134330211 41.81$ PILLAR, CENTER BODY, INNER RH 6134330230 68.55$ PILLAR, CENTER BODY, INNER RH
1788120120 32.73$ HOSE, AIR CLEANER, NO.1 6134333903 68.55$ PILLAR, CENTER BODY, INNER RH 6134342900 62.47$ PILLER,CTR BODY 6134348010 122.52$ PILLAR, CENTER BODY, INNER RH
6134350020 143.07$ PILLAR, CENTER BODY, INNER RH 6134350030 85.72$ PILLAR, CENTER BODY, INNER RH 6134350050 74.93$ PILLAR, CENTER BODY, INNER RH 1788122040 27.62$ HOSE, AIR CLEANER, NO.1
6134353020 62.30$ PILLAR, CENTER BODY, INNER RH 1788122070 21.25$ HOSE, AIR CLEANER, NO.1 6134360071 43.94$ КУЗОВНАЯ СТОЙКА 6134360080 70.90$ КУЗОВНАЯ СТОЙКА
1788122090 26.49$ ПАТРУБОК РЕЗИНОВЫЙ 1788122110 29.87$ HOSE, AIR CLEANER, NO.1 1788122130 22.98$ HOSE, AIR CLEANER, NO.1 6134407010 113.60$ PILLAR, CENTER BODY, INNER LH
6134410050 39.15$ PILLAR, CENTER BODY, INNER LH 1788125013 10.54$ HOSE, AIR CLEANER, NO.1 1788126010 6.40$ HOSE, AIR CLEANER, NO.1 6134420120 15.83$ PILLAR, CENTER BODY, INNER LH
6134420902 40.34$ PILLAR, CENTER BODY, INNER LH 6134422909 29.85$ PILLAR, CENTER BODY, INNER LH 1788128060 39.17$ ПАТРУБОК ПЛАСТИКОВЫЙ 6134430100 28.06$ PILLAR, CENTER BODY, INNER LH
1788128070 38.65$ ПАТРУБОК ПЛАСТИКОВЫЙ 6134430130 28.06$ PILLAR, CENTER BODY, INNER LH 1788128080 38.65$ ПАТРУБОК ПЛАСТИКОВЫЙ 6134430221 60.39$ PILLAR, CENTER BODY, INNER LH
6134433010 49.72$ PILLAR, CENTER BODY, INNER LH 1788128150 29.96$ ПАТРУБОК ПЛАСТИКОВЫЙ 6134433020 58.31$ PILLAR, CENTER BODY, INNER LH 6134433903 68.55$ PILLAR, CENTER BODY, INNER LH
1788128170 25.29$ ПАТРУБОК ПЛАСТИКОВЫЙ 6134442900 62.47$ PILLER,CTR BODY 1788128210 26.49$ ПАТРУБОК ПЛАСТИКОВЫЙ 6134450030 85.72$ PILLAR, CENTER BODY, INNER LH
1788128211 26.49$ HOSE, AIR CLEANER, NO.1 6134450050 74.93$ PILLAR, CENTER BODY, INNER LH 1788128220 41.87$ ПАТРУБОК ПЛАСТИКОВЫЙ 6134453020 62.30$ PILLAR, CENTER BODY, INNER LH
6134460071 43.94$ PILLAR, CENTER BODY, INNER LH 6134460080 70.90$ PILLAR, CENTER BODY, INNER LH 1788130030 29.77$ HOSE, AIR CLEANER, NO.1 61344AC010 68.72$ PILLAR, CENTER BODY, INNER LH
6134512040 27.80$ PILLAR, CENTER BODY, INNER LOWER RH 6134612040 27.80$ PILLAR, CENTER BODY, INNER LOWER LH 6134710100 23.95$ REINFORCEMENT, BELT ANCHOR TO CENTER PILLAR, RH 6134810100 23.95$ REINFORCEMENT, BELT ANCHOR TO CENTER PILLAR, LH
1788131080 41.87$ HOSE, AIR CLEANER, NO.1 1788131090 41.27$ HOSE, AIR CLEANER, NO.1 1788131120 41.27$ HOSE, AIR CLEANER, NO.1 6135336010 14.58$ RAIL, NO.3 CENTER OUTER, RH/LH
1788131230 19.73$ HOSE, AIR CLEANER, NO.1 1788131250 33.13$ HOSE, AIR CLEANER, NO.1 6136736010 19.28$ CHANNEL, ROOF DRIP SIDE, CENTER NO.1 1788134040 9.18$ HOSE, AIR CLEANER, NO.1
6136836010 3.92$ CHANNEL, ROOF DRIP SIDE, REAR LH 6137436011 10.13$ RAIL, NO.4 CENTER INNER 6137716030 1.82$ BRACKET, REAR DOOR CHECK ARM, RH/LH 6138326010 84.23$ EXTENSION, CTR BODY
1788135060 3.48$ ПАТРУБОК ПЛАСТИКОВЫЙ 6138426010 84.23$ EXTENSION, CTR BODY 1788135080 7.96$ ПАТРУБОК ПЛАСТИКОВЫЙ 6138526010 25.21$ EXTENSION, CENTER BODY PILLAR, INNER RH
6138890K00 6.30$ PLATE, CENTER BODY PILLAR END, RH 1788135120 9.21$ ПАТРУБОК ПЛАСТИКОВЫЙ 6138990K00 6.30$ PLATE, CENTER BODY PILLAR END, LH 6139195J00 3.61$ SPACER, CENTER BODY PILLAR, INNER
1788138020 65.86$ HOSE, AIR CLEANER, NO.1 6140105010 35.30$ ПОРОГ 1788138050 35.64$ HOSE, AIR CLEANER, NO.1 6140110040 43.42$ ПОРОГ
6140112030 49.91$ PANEL, ROCKER, OUTER RH 6140120250 83.39$ PANEL, ROCKER, OUTER RH 1788142020 26.99$ HOSE, AIR CLEANER, NO.1 6140122030 66.49$ PANEL, ROCKER, OUTER RH
1788143010 26.83$ HOSE, AIR CLEANER, NO.1 6140122080 60.92$ КУЗОВНОЙ УСИЛИТЕЛЬ 6140124901 235.42$ PANEL, ROCKER, OUTER RH 1788143060 36.73$ HOSE, AIR CLEANER, NO.1
6140130230 88.60$ PANEL SUB-ASSY, ROCKER, OUTER RH 1788143070 20.15$ HOSE, AIR CLEANER, NO.1 6140130260 60.92$ REINFORCEMENT, ROCKER PANEL, OUTER RH 6140135030 40.61$ КУЗОВНОЙ УСИЛИТЕЛЬ
1788144030 51.03$ HOSE, AIR CLEANER, NO.1 1788144060 38.17$ HOSE, AIR CLEANER, NO.1 6140148030 62.83$ ПАНЕЛЬ КУЗОВА 6140148901 54.56$ PANEL SUB-ASSY, ROCKER, OUTER RH
1788146080 30.59$ HOSE, AIR CLEANER, NO.1 1788146100 13.71$ HOSE, AIR CLEANER, NO.1 6140150030 159.99$ REINFORCEMENT, ROCKER PANEL, RH 6140150040 88.45$ REINFORCEMENT SUB-ASSY, ROCKER PANEL, RH
6140153020 69.07$ PANEL SUB-ASSY, ROCKER, OUTER RH 6140160010 45.09$ НАКЛАДКА ПОРОГА 1788146170 30.27$ HOSE, AIR CLEANER, NO.2 1788146180 47.75$ ПАТРУБОК ВОЗДУХОЗАБОРНИКА РЕЗИНОВЫЙ
6140190A02 118.12$ PANEL, ROCKER, OUTER RH 1788146200 29.96$ HOSE, AIR CLEANER, NO.1 6140190A06 177.11$ PANEL, ROCKER, OUTER RH 1788146210 29.96$ HOSE, AIR CLEANER, NO.2
6140205010 32.07$ ПОРОГ 1788146260 30.27$ HOSE, AIR CLEANER, NO.1 6140210040 43.42$ ПОРОГ 1788146270 30.27$ HOSE, AIR CLEANER, NO.2
6140212010 49.91$ PANEL, ROCKER, OUTER LH 6140212030 64.18$ PANEL, ROCKER, OUTER LH 6140220160 60.11$ PANEL, ROCKER, OUTER LH 6140220250 83.39$ PANEL, ROCKER, OUTER LH
1788154021 41.23$ ПАТРУБОК ПЛАСТИКОВЫЙ 6140220360 74.89$ PANEL, ROCKER, OUTER LH 1788154060 44.12$ ПАТРУБОК ПЛАСТИКОВЫЙ 6140222030 66.49$ PANEL, ROCKER, OUTER LH
1788154070 36.52$ ПАТРУБОК ПЛАСТИКОВЫЙ 6140222050 86.90$ PANEL, ROCKER, OUTER LH 1788154090 29.75$ ПАТРУБОК ПЛАСТИКОВЫЙ 6140222080 60.92$ REINFORCEMENT, ROCKER PANEL, LH
1788154170 48.80$ ПАТРУБОК ПЛАСТИКОВЫЙ 6140224901 235.42$ PANEL, ROCKER, OUTER LH 6140230220 88.87$ PANEL SUB-ASSY, ROCKER, OUTER LH 6140230230 88.60$ PANEL SUB-ASSY, ROCKER, OUTER LH
1788154220 33.02$ ПАТРУБОК ПЛАСТИКОВЫЙ 6140230260 60.92$ REINFORCEMENT, ROCKER PANEL, OUTER LH 1788154230 26.14$ ПАТРУБОК ПЛАСТИКОВЫЙ 1788154240 43.41$ ПАТРУБОК ПЛАСТИКОВЫЙ
6140232080 80.88$ PANEL, ROCKER, OUTER LH 1788154260 45.91$ ПАТРУБОК ПЛАСТИКОВЫЙ 1788154270 33.16$ ПАТРУБОК ПЛАСТИКОВЫЙ 1788154290 39.93$ ПАТРУБОК ПЛАСТИКОВЫЙ
6140248030 62.83$ PANEL, ROCKER, OUTER LH 6140248901 54.56$ PANEL SUB-ASSY, ROCKER, OUTER LH 6140250010 159.99$ REINFORCEMENT, ROCKER PANEL, LH 1788154360 7.91$ ПАТРУБОК ПЛАСТИКОВЫЙ
6140250020 88.45$ REINFORCEMENT SUB-ASSY, ROCKER PANEL, LH 1788154361 7.97$ ПАТРУБОК ПЛАСТИКОВЫЙ 1788154380 26.73$ ПАТРУБОК ПЛАСТИКОВЫЙ 1788154391 32.52$ ПАТРУБОК ПЛАСТИКОВЫЙ
6140260010 45.09$ НАКЛАДКА ПОРОГА 6140290A06 177.11$ PANEL, ROCKER, OUTER LH 6140305030 173.88$ REINFORCE SUB-ASSY, ROCKER, OUTER RH 1788154490 20.84$ ПАТРУБОК ПЛАСТИКОВЫЙ
614030C906 107.17$ REINFORCE SUB-ASSY, ROCKER, OUTER RH 6140310020 64.97$ REINFORCEMENT, ROCKER PANEL, NO.1 RH 1788154540 35.43$ ПАТРУБОК ПЛАСТИКОВЫЙ 1788154570 27.41$ ПАТРУБОК ПЛАСТИКОВЫЙ
1788154580 43.97$ ПАТРУБОК ПЛАСТИКОВЫЙ 6140326100 87.77$ PANEL, FENDER, INNER RH 6140328010 128.06$ PANEL SUB-ASSY, FENDER, RH 6140336010 21.98$ RAIL SUB-ASSY, NO.6 LOWER OUTER, RH
1788154650 22.09$ ПАТРУБОК ПЛАСТИКОВЫЙ 6140405030 165.51$ REINFORCE SUB-ASSY, ROCKER, OUTER LH 1788154680 30.27$ ПАТРУБОК ПЛАСТИКОВЫЙ 614040C906 104.11$ REINFORCE SUB-ASSY, ROCKER, OUTER LH
6140410020 64.97$ REINFORCEMENT, ROCKER PANEL, NO.1 LH 1788154770 32.88$ ПАТРУБОК ПЛАСТИКОВЫЙ 6140426030 83.50$ PANEL, FENDER, INNER LH 1788154800 26.28$ ПАТРУБОК ПЛАСТИКОВЫЙ
6140428010 128.06$ PANEL SUB-ASSY, FENDER, LH 6140436020 45.09$ RAIL SUB-ASSY, NO.6 LOWER OUTER, RH 1788156030 38.74$ HOSE, AIR CLEANER, NO.1 1788156120 27.62$ HOSE, AIR CLEANER, NO.1
614110C070 55.29$ PANEL, ROCKER, OUTER RH 1788158010 28.39$ HOSE, AIR CLEANER, NO.1 6141112150 44.62$ ПОРОГ 1788158120 21.97$ HOSE, AIR CLEANER, NO.3
6141112550 43.86$ ПОРОГ 6141114320 44.04$ PANEL, ROCKER, OUTER RH 1788158190 32.73$ ПАТРУБОК РЕЗИНОВЫЙ 6141128030 38.84$ ПАНЕЛЬ КУЗОВА
1788158270 30.06$ HOSE, AIR CLEANER, NO.1 6141130230 63.03$ PANEL, ROCKER, OUTER RH 1788158310 30.27$ HOSE, AIR CLEANER, NO.1 6141134010 43.86$ PANEL, ROCKER, OUTER RH
6141135051 142.65$ ПОРОГ 1788161100 36.83$ HOSE, AIR CLEANER, NO.4 6141135061 142.65$ ПОРОГ 1788161120 56.39$ HOSE, AIR CLEANER, NO.1
1788162010 36.79$ ПАТРУБОК ПЛАСТИКОВЫЙ 6141135090 44.04$ КУЗОВНАЯ ПАНЕЛЬ 6141136010 39.99$ RAIL, NO.1 LOWER OUTER, RH 6141142050 38.77$ ПОРОГ
6141143010 63.42$ PANEL, ROCKER, OUTER RH 1788162101 38.74$ ПАТРУБОК ПЛАСТИКОВЫЙ 6141143030 50.60$ PANEL, ROCKER, OUTER RH 1788162110 38.56$ ПАТРУБОК ПЛАСТИКОВЫЙ
6141150010 118.03$ PANEL, ROCKER, OUTER RH 6141150011 122.47$ PANEL, ROCKER, OUTER RH 1788162130 44.58$ ПАТРУБОК ПЛАСТИКОВЫЙ 6141152020 50.19$ КУЗОВНАЯ СТОЙКА
1788162170 44.58$ ПАТРУБОК ПЛАСТИКОВЫЙ 1788162200 37.63$ ПАТРУБОК ПЛАСТИКОВЫЙ 1788163050 15.04$ HOSE, PRECLEANER 6141152100 75.38$ КУЗОВНАЯ СТОЙКА
1788164270 30.27$ HOSE,AIR CLEANE 6141152200 55.07$ PANEL, ROCKER, OUTER RH 1788164280 21.90$ HOSE, AIR CLEANER, NO.1 6141160020 66.05$ КУЗОВНАЯ ПАНЕЛЬ
1788164380 41.53$ HOSE, AIR CLEANER, NO.1 1788164400 27.51$ HOSE, AIR CLEANER, NO.1 1788165010 49.89$ HOSE, AIR CLEANER, NO.1 6141195701 70.63$ ПАНЕЛЬ КРЫЛА
6141195702 77.16$ ПАНЕЛЬ КРЫЛА 1788165030 41.62$ HOSE, AIR CLEANER, NO.1 6141202040 87.25$ PANEL, ROCKER, OUTER LH 6141204030 43.83$ PANEL, ROCKER, OUTER LH
614120C070 55.29$ PANEL, ROCKER, OUTER LH 6141210110 43.72$ PANEL, ROCKER, OUTER LH 6141210130 49.78$ PANEL, ROCKER, OUTER LH 6141212150 44.62$ ПОРОГ
1788166070 50.34$ ПАТРУБОК РЕЗИНОВЫЙ 6141212290 56.93$ ПОРОГ 6141212300 54.83$ ПОРОГ 6141212330 54.83$ ПОРОГ
1788166120 55.58$ ПАТРУБОК РЕЗИНОВЫЙ 6141212550 43.22$ ПОРОГ 1788166150 60.12$ ПАТРУБОК РЕЗИНОВЫЙ 6141214320 44.04$ PANEL, ROCKER, OUTER LH
6141226170 39.67$ НАКЛАДКА ПОРОГА 1788167031 47.25$ ПАТРУБОК ВОЗДУШНОГО ФИЛЬТРА ПЛАСТИКОВЫЙ 6141228010 43.83$ PANEL, ROCKER, OUTER LH 6141235061 142.65$ ПОРОГ
1788167080 43.97$ ПАТРУБОК ВОЗДУШНОГО ФИЛЬТРА ПЛАСТИКОВЫЙ 1788167110 29.56$ ПАТРУБОК ВОЗДУШНОГО ФИЛЬТРА ПЛАСТИКОВЫЙ 6141242012 43.43$ ПОРОГ 6141242030 43.22$ ПОРОГ
1788168050 33.52$ HOSE, AIR CLEANER, NO.1 6141242090 59.04$ ПОРОГ 1788170111 47.06$ HOSE, AIR CLEANER, NO.2 1788170140 19.91$ HOSE, AIR CLEANER, NO.1
6141243010 63.42$ PANEL, ROCKER, OUTER LH 1788170160 37.46$ HOSE, AIR CLEANER, NO.1 6141243030 50.60$ PANEL, ROCKER, OUTER LH 6141250010 118.03$ PANEL, ROCKER, OUTER LH
1788171010 52.30$ HOSE, AIR CLEANER, NO.1 6141250011 122.47$ PANEL, ROCKER, OUTER LH 6141252100 75.38$ КУЗОВНАЯ СТОЙКА 6141252210 38.16$ PANEL, ROCKER, OUTER LH
1788174070 48.35$ ПАТРУБОК РЕЗИНОВЫЙ 6141260020 66.05$ ПОРОГ 1788174160 32.07$ ПАТРУБОК РЕЗИНОВЫЙ 6141289104 43.94$ PANEL, ROCKER, OUTER LH
6141310030 12.70$ REINFORCEMENT, ROCKER PANEL, NO.2 RH 1788174300 24.70$ ПАТРУБОК РЕЗИНОВЫЙ 1788174320 37.03$ ПАТРУБОК РЕЗИНОВЫЙ 1788174360 33.42$ ПАТРУБОК РЕЗИНОВЫЙ
6141328040 50.81$ REINFORCEMENT, ROCKER PANEL, NO.2 RH 6141360010 22.60$ REINFORCEMENT, ROCKER PANEL, NO.2 RH 6141395J01 22.81$ КУЗОВНАЯ ПАНЕЛЬ 1788174400 24.76$ ПАТРУБОК РЕЗИНОВЫЙ
6141410030 12.70$ REINFORCEMENT, ROCKER PANEL, NO.2 LH 1788174420 34.44$ ПАТРУБОК РЕЗИНОВЫЙ 6141412100 23.95$ REINFORCEMENT, ROCKER PANEL, NO.2 LH 1788174440 26.62$ ПАТРУБОК РЕЗИНОВЫЙ
6141428040 50.81$ REINFORCEMENT, ROCKER PANEL, NO.2 LH 6141430050 14.45$ REINFORCEMENT, ROCKER PANEL, NO.2, RH/LH 6141448010 12.86$ УСИЛИТЕЛЬ КУЗОВА 6141495J01 22.81$ REINFORCEMENT, ROCKER PANEL, NO.2 LH
1788174540 35.99$ ПАТРУБОК РЕЗИНОВЫЙ 6141510010 31.44$ EXTENSION, ROCKER, OUTER RH 1788174550 33.16$ ПАТРУБОК РЕЗИНОВЫЙ 6141533040 68.30$ EXTENSION, ROCKER, OUTER RH
6141533060 55.29$ EXTENSION, ROCKER, OUTER RH 6141536010 17.18$ RAIL, NO.5 LOWER OUTER, RH 1788174620 29.56$ ПАТРУБОК РЕЗИНОВЫЙ 61415AC901 50.81$ EXTENSION, ROCKER, OUTER RH
6141626010 12.70$ PANEL, FRONT STEP UNDER, LH 6141633040 68.30$ EXTENSION, ROCKER, OUTER LH 1788174690 29.96$ ПАТРУБОК РЕЗИНОВЫЙ 1788174691 30.06$ ПАТРУБОК РЕЗИНОВЫЙ
6141736011 31.66$ RAIL, NO.7 LOWER OUTER, RH/LH 1788174701 34.58$ ПАТРУБОК РЕЗИНОВЫЙ 6141810030 28.75$ REINFORCEMENT, ROCKER PANEL, RH 1788174730 35.03$ ПАТРУБОК РЕЗИНОВЫЙ
6141833050 14.96$ REINFORCEMENT, ROCKER PANEL, RH/LH 1788174760 35.79$ ПАТРУБОК РЕЗИНОВЫЙ 6141848010 79.60$ REINFORCEMENT, ROCKER PANEL, RH 6141860010 66.21$ КУЗОВНОЙ УСИЛИТЕЛЬ
6141860030 88.92$ КУЗОВНОЙ УСИЛИТЕЛЬ 1788174880 31.41$ ПАТРУБОК РЕЗИНОВЫЙ 6141910020 28.75$ REINFORCEMENT, ROCKER PANEL, LH 6141948010 79.60$ REINFORCEMENT, ROCKER PANEL, LH
6141960010 66.21$ REINFORCEMENT, ROCKER PANEL, LH 1788175041 41.53$ HOSE, AIR CLEANER, NO.1 6141960020 88.92$ REINFORCEMENT, ROCKER PANEL, LH 1788175050 35.59$ HOSE, AIR CLEANER, NO.1
6142310030 27.48$ REINFORCEMENT, ROCKER PANEL, NO.3 RH 1788175060 50.69$ HOSE, AIR CLEANER, NO.1 6142330050 6.09$ REINFORCEMENT, ROCKER PANEL, NO.3, RH/LH 6142348010 5.96$ УСИЛИТЕЛЬ ПАНЕЛИ
1788175160 32.43$ HOSE, AIR CLEANER, NO.1 6142428010 12.70$ PANEL, FENDER, INNER LOWER LH 1788175170 35.70$ HOSE, AIR CLEANER, NO.1 6142430050 6.09$ REINFORCEMENT, ROCKER PANEL, NO.3, RH/LH
6142448010 5.96$ REINFORCEMENT, ROCKER PANEL, NO.3 LH 6142490504 24.28$ WEATHERSTRIP, SIDE LOWER WINDOW GLASS 1788176040 20.45$ HOSE, AIR CLEANER, NO.1 6142530020 14.96$ REINFORCEMENT, ROCKER PANEL, NO.4, RH/LH
6142636010 16.35$ RAIL, NO.6 LOWER OUTER, LH 6142730050 29.79$ REINFORCEMENT, ROCKER PANEL, NO.5 RH 6142730051 29.93$ REINFORCEMENT, ROCKER PANEL, NO.5 RH 1788178021 50.21$ HOSE, AIR CLEANER, NO.1
6142748010 28.37$ REINFORCEMENT, ROCKER PANEL, NO.5 RH 6142748060 39.93$ REINFORCEMENT, ROCKER PANEL, NO.5 RH 6142750020 49.57$ REINFORCEMENT, ROCKER PANEL, NO.5 RH 1788211030 9.87$ HOSE, AIR CLEANER, NO.2
1788214020 32.63$ HOSE, AIR CLEANER, NO.3 1788216100 12.53$ HOSE, AIR CLEANER, NO.4 6142830101 29.93$ REINFORCEMENT, ROCKER PANEL, NO.5 LH 1788216110 10.69$ HOSE, AIR CLEANER, NO.2
6142830150 39.81$ УСИЛИТЕЛЬ ПАНЕЛИ 1788216190 23.31$ HOSE, AIR CLEANER, NO.2 6142848010 28.37$ REINFORCEMENT, ROCKER PANEL, NO.5 LH 1788217020 41.53$ ПАТРУБОК ПЛАСТИКОВЫЙ
6142848060 39.93$ REINFORCEMENT, ROCKER PANEL, NO.5 LH 6142850020 49.57$ REINFORCEMENT, ROCKER PANEL, NO.5 LH 6142850040 44.10$ REINFORCEMENT, ROCKER PANEL, NO.5 LH 1788220140 11.05$ HOSE, AIR CLEANER, NO.2
1788220160 20.57$ ПАТРУБОК РЕЗИНОВЫЙ 1788227020 15.37$ HOSE, AIR CLEANER, NO.2 6143136020 18.63$ RAIL, NO.1 LOWER INNER, RH 6143228030 58.93$ PANEL, ROCKER, OUTER REAR LH
6143243010 29.88$ PANEL, ROCKER, OUTER REAR LH 6143326010 20.52$ PANEL, ROCKER, INNER RH 6143330020 9.31$ REINFORCEMENT, ROCKER PANEL, OUTER RH 1788231110 37.74$ HOSE, AIR CLEANER, NO.2
6143333020 16.01$ REINFORCEMENT, ROCKER PANEL, OUTER RH 1788234080 40.57$ HOSE, AIR CLEANER, NO.2 6143350010 15.48$ REINFORCEMENT, ROCKER PANEL, OUTER RH 6143426010 20.52$ PANEL, ROCKER, INNER LH
6143430020 9.00$ REINFORCEMENT, ROCKER PANEL, OUTER LH 6143433020 16.01$ REINFORCEMENT, ROCKER PANEL, OUTER LH 1788242020 44.83$ HOSE, AIR CLEANER, NO.2 1788242030 26.04$ HOSE, AIR CLEANER, NO.2
1788242H00 47.62$ HOSE, AIR CLEAN 6145128010 21.35$ PANEL, ROCKER, OUTER RH 1788243080 32.70$ HOSE, AIR CLEANER, NO.2 6146126010 50.29$ PANEL, ROCKER, OUTER LH
1788244061 12.07$ HOSE, AIR CLEANER, NO.2 6146146010 62.89$ ПАНЕЛЬ КУЗОВА 6146190B00 90.74$ PANEL, ROCKER, OUTER LH 1788254140 11.10$ ПАТРУБОК РЕЗИНОВЫЙ
6146336010 6.45$ PANEL, ROCKER, INNER REAR LH 1788254150 26.62$ ПАТРУБОК РЕЗИНОВЫЙ 1788254190 29.60$ ПАТРУБОК РЕЗИНОВЫЙ 6146590B00 32.04$ PANEL, FRONT DOOR STEP SIDE, LH
1788254261 13.80$ ПАТРУБОК РЕЗИНОВЫЙ 1788254262 13.62$ ПАТРУБОК РЕЗИНОВЫЙ 6147590B00 0.96$ BRACKET, CENTER RAIL INSIDE CUSHION, NO.1 1788254321 27.04$ ПАТРУБОК РЕЗИНОВЫЙ
6148560020 3.46$ PLATE, LOWER RAIL 6149126010 2.71$ PLATE, NO.3 LOWER RAIL, INNER, RH/LH 1788254350 29.66$ ПАТРУБОК РЕЗИНОВЫЙ 6150134050 81.09$ PILLAR, QUARTER LOCK, RH
6150136021 30.61$ RAIL SUB-ASSY, SEAT ANCHOR, LH 6150189116 71.95$ PILLAR, QUARTER LOCK, RH 1788254440 29.20$ ПАТРУБОК РЕЗИНОВЫЙ 1788254460 17.36$ ПАТРУБОК РЕЗИНОВЫЙ
6150190313 520.67$ PANEL ASSY, REAR UPPER SIDE, RH 6150190K00 146.80$ PILLAR SUB-ASSY, CAB REAR, UPPER RH 1788256020 47.83$ HOSE, AIR CLEANER, NO.2 6150190K02 145.75$ PILLAR SUB-ASSY, CAB REAR, UPPER RH
6150204030 96.93$ PILLAR, QUARTER LOCK, LH 6150236010 33.74$ RAIL SUB-ASSY, NO.2 SEAT ANCHOR, RH/LH 1788261030 21.91$ HOSE, AIR CLEANER, NO.3 6150289119 71.95$ PILLAR, QUARTER LOCK, LH
6150290317 487.30$ PANEL ASSY, REAR UPPER SIDE,LH 6150290K00 146.80$ PILLAR SUB-ASSY, CAB REAR, UPPER LH 6150290K02 145.75$ PILLAR SUB-ASSY, CAB REAR, UPPER LH 1788263030 25.28$ HOSE, AIR CLEANER, NO.2
1788263110 15.28$ HOSE, AIR CLEANER, NO.3 615030C901 389.87$ REINFORCEMENT SUB-ASSY, QUARTER LOCK PILLAR, RH 1788264050 13.00$ HOSE, AIR CLEANER, NO.4 6150326030 8.97$ REINFORCE SUB-ASSY, SLIDE DOOR LOCK STRIKER, RH/LH
6150330390 11.49$ REINFORCEMENT SUB-ASSY, QUARTER LOCK PILLAR, RH 6150336010 30.14$ RAIL SUB-ASSY, NO.3 SEAT ANCHOR 6150336050 33.01$ RAIL SUB-ASSY, NO.3 SEAT ANCHOR 1788268020 36.31$ HOSE, AIR CLEANER, NO.2
615040C903 152.65$ REINFORCEMENT SUB-ASSY, QUARTER LOCK PILLAR, LH 1788270010 37.92$ HOSE, AIR CLEANER, NO.2 615040K010 47.29$ REINFORCEMENT SUB-ASSY, QUARTER LOCK PILLAR, LH 1788270060 39.57$ HOSE, AIR CLEANER, NO.2
6150430440 11.49$ REINFORCEMENT SUB-ASSY, QUARTER LOCK PILLAR, LH 1788270071 24.95$ HOSE, AIR CLEANER, NO.3 6150437020 40.14$ REINFORCEMENT SUB-ASSY, QUARTER LOCK PILLAR, LH 1788274010 42.41$ ПАТРУБОК ВОЗДУХОЗАБОРНИКА ПЛАСТИКОВЫЙ
6150636011 31.55$ RAIL SUB-ASSY, NO.6 1788274040 25.38$ ПАТРУБОК ВОЗДУХОЗАБОРНИКА ПЛАСТИКОВЫЙ 1788274080 7.17$ ПАТРУБОК ВОЗДУХОЗАБОРНИКА ПЛАСТИКОВЫЙ 6150760050 91.73$ PILLAR SUB-ASSY, CAB REAR, LOWER RH
1788274171 13.85$ ПАТРУБОК ВОЗДУХОЗАБОРНИКА ПЛАСТИКОВЫЙ 6150836020 38.73$ RAIL SUB-ASSY, NO.8 SEAT ANCHOR, RH 6150836060 38.73$ RAIL SUB-ASSY, NO.8 SEAT ANCHOR, RH 6150860010 91.73$ PILLAR SUB-ASSY, CAB REAR, LOWER LH
1788275030 23.52$ HOSE, AIR CLEANER, NO.2 615110C030 72.21$ PILLAR, QUARTER LOCK, RH 1788275090 25.32$ HOSE, AIR CLEANER, NO.2 6151120910 40.55$ PILLAR QUARTER
6151126070 37.48$ PILLAR, QUARTER LOCK, RH 6151160030A0 8.66$ RAIL, SEAT ANCHOR, NO.1 1788289107 17.08$ HOSE, AIR CLEANER, NO.2 6151160030B0 8.66$ RAIL, SEAT ANCHOR, NO.1
1788289109 13.00$ HOSE, AIR CLEANER, NO.2 6151190A01 91.38$ PILLAR, QUARTER LOCK, RH 1788289114 4.58$ HOSE, AIR CLEANER, NO.2 6151220910 40.55$ PILLAR QUARTER
1788289121 15.62$ HOSE, COOL AIR INTAKE 6151260030A0 17.29$ RAIL, SEAT ANCHOR, NO.2 RH 1788295J00 21.27$ HOSE, COOL AIR INTAKE 6151260030B0 17.29$ RAIL, SEAT ANCHOR, NO.2 RH
1788316030 21.87$ HOSE, AIR CLEANER, NO.3 6151290A01 91.38$ PILLAR, QUARTER LOCK, LH 1788316031 27.29$ HOSE, AIR CLEANER, NO.3 6151360030A0 11.56$ RAIL, SEAT ANCHOR, NO.3
1788316040 21.73$ HOSE, AIR CLEANER, NO.3 6151360030B0 11.56$ RAIL, SEAT ANCHOR, NO.3 6151395A01 22.48$ ORNAMENT SUB-ASSY, REAR VENTILATOR, LH 1788316050 10.69$ HOSE, AIR CLEANER, NO.3
1788354111 16.16$ HOSE, AIR CLEANER, NO.3 1788354180 24.49$ HOSE, AIR CLEANER, NO.3 1788358040 14.74$ HOSE, AIR CLEANER, NO.3 6151546010 28.12$ EXTENSION, QUARTER LOCK PILLAR, RH
1788358050 15.86$ HOSE, AIR CLEANER, NO.2 6151628040 23.95$ EXTENSION, QUARTER LOCK PILLAR, LH 1788361030 14.34$ HOSE, AIR CLEANER, NO.3 6152528040 31.55$ REINFORCEMENT, QUARTER LOCK PILLER, UPPER RH
1788362011 30.02$ HOSE, AIR CLEANER, NO.4 6152726030 10.15$ REINFORCEMENT, QUARTER LOCK PILLER, LOWER RH 6152728030 31.87$ REINFORCEMENT, QUARTER LOCK PILLER, LOWER RH 1788363030 40.44$ HOSE, AIR CLEANER, NO.4
1788364050 4.90$ HOSE, AIR CLEANER, NO.3 1788373030 21.99$ HOSE, AIR CLEANER, NO.3 6152828010 63.62$ КУЗОВНАЯ СТОЙКА 1788375010 16.80$ HOSE, AIR CLEANER, NO.3
6153189124 53.31$ PANEL, CAB REAR PILLAR, INNER RH 1788375030 17.16$ HOSE, AIR CLEANER, NO.3 6153235040 47.69$ PANEL, CAB REAR PILLAR, INSIDE LH 1788375040 13.71$ HOSE, AIR CLEANER, NO.3
6154628010 18.85$ PANEL SUB-ASSY, CAB REAR PILLAR, INNER LH 1788395019 21.17$ HOSE, AIR CLEANER, NO.3 6154736010 2.90$ GUSSET, SEAT ANCHOR, NO.7 LH 61547AA010 10.73$ КРОНШТЕЙН КУЗОВНОЙ
1788395A00 19.29$ HOSE, AIR CLEANER, NO.3 61548AA010 10.73$ REINFORCEMENT, QUARTER PILLAR, INNER LH 1788395A02 18.99$ HOSE, AIR CLEANER, NO.3 6155736020 19.06$ GUSSET, PILLAR TO RAIL, NO.2
1788414010 22.19$ BOX, AIR CLEANER, NO.1 1788474030 7.75$ HOSE, AIR CLEANER, NO.4 1788554210 6.44$ PIPE, AIR CLEANER 1788558070 38.38$ CONNECTOR, INTAKE AIR
6159336010 2.35$ BRACKET, STIFFENER, NO.3 1788571010 20.33$ CONNECTOR, INTAKE AIR 1788573100 44.89$ PIPE, AIR CLEANER 6160101080 235.91$ PANEL, QUARTER, RH
1788671010 13.10$ PIPE SUB-ASSY, AIR CLEANER, NO.2 6160102906 272.57$ PANEL, QUARTER, RH 1788673030 30.99$ PIPE SUB-ASSY, AIR CLEANER, NO.2 6160102907 272.57$ PANEL, QUARTER, RH
1788914010 68.00$ BOX, AIR CLEANER HOSE, NO.2 6160102908 272.57$ PANEL, QUARTER, RH 6160106030 377.30$ PANEL, QUARTER, RH 6160106040 330.73$ PANEL, QUARTER, RH
1789050020 84.26$ HOSE, AIR CLEANER, NO.2 6160107901 302.38$ PANEL, QUARTER, RH 1789050030 106.78$ HOSE, AIR CLEANER, NO.2 6160107902 255.73$ PANEL, QUARTER, RH
1789135010 1.92$ CLAMP, AIR CLEANER HOSE 1789135020 2.34$ CLAMP(FOR AIR CLEANER HOSE, NO.3) 6160110908 199.08$ PANEL, QUARTER, RH 1789138010 3.68$ CLAMP, AIR CLEANER HOSE
6160112914 153.45$ PANEL, QUARTER, RH 1789302010 38.35$ RESONATOR, INTAKE AIR 6160112917 318.16$ PANEL, QUARTER, RH 1789303041 22.43$ ВОЗДУХОЗАБОРНИК
1789303110 18.23$ ВОЗДУХОЗАБОРНИК 178930A020 13.95$ RESONATOR, INTAKE AIR 178930C010 8.62$ RESONATOR, INTAKE AIR 178930D010 26.91$ ВОЗДУХОЗАБОРНИК
6160112A80 210.89$ PANEL, QUARTER, RH 6160113381 263.07$ КРЫЛО ЗАДНЕЕ 1789316060 6.17$ RESONATOR, INTAKE AIR 6160113391 263.07$ КРЫЛО ЗАДНЕЕ
6160113530 272.57$ КРЫЛО ЗАДНЕЕ 6160113531 269.60$ КРЫЛО ЗАДНЕЕ 6160113550 221.03$ КРЫЛО ЗАДНЕЕ 1789320010 14.35$ RESONATOR, INTAKE AIR
1789320030 15.50$ RESONATOR, INTAKE AIR 6160113560 221.03$ КРЫЛО ЗАДНЕЕ 6160113561 194.28$ PANEL SUB-ASSY 1789320040 11.08$ RESONATOR, INTAKE AIR
6160113610 271.58$ КРЫЛО ЗАДНЕЕ 1789320060 24.45$ RESONATOR, INTAKE AIR 6160113906 200.97$ КРЫЛО ЗАДНЕЕ 6160116820 268.16$ PANEL, QUARTER, RH
1789320110 23.41$ RESONATOR, INTAKE AIR 6160116926 275.55$ КРЫЛО ПЕРЕДНЕЕ 1789321020 22.24$ RESONATOR, INTAKE AIR 6160117170 326.05$ КУЗОВНАЯ ПАНЕЛЬ
6160117180 131.47$ КУЗОВНАЯ ПАНЕЛЬ 6160117190 158.60$ КУЗОВНАЯ ПАНЕЛЬ 616011A760 279.33$ PANEL, QUARTER, RH 616011A800 146.04$ PANEL, QUARTER, RH
616011A810 146.04$ PANEL, QUARTER, RH 616011A900 208.23$ PANEL, QUARTER, RH 616011A901 175.40$ PANEL, QUARTER, RH 616011B030 327.06$ PANEL, QUARTER, RH
616011B270 180.04$ PANEL, QUARTER, RH 616011B914 305.95$ PANEL, QUARTER, RH 616011B915 305.95$ PANEL, QUARTER, RH 1789331010 6.16$ RESONATOR, INTAKE AIR
616011B916 305.95$ PANEL, QUARTER, RH 1789331020 5.23$ RESONATOR, INTAKE AIR 616011B918 305.95$ PANEL, QUARTER, RH 616011B919 305.95$ PANEL, QUARTER, RH
1789331040 10.41$ RESONATOR, INTAKE AIR 1789331050 5.04$ RESONATOR, INTAKE AIR 616011C020 234.63$ PANEL, QUARTER, RH 1789331070 7.68$ RESONATOR, INTAKE AIR
616011C340 216.36$ PANEL SUB-ASSY, QUARTER, RH 616011C350 216.36$ PANEL SUB-ASSY, QUARTER, RH 616011C370 242.84$ PANEL, QUARTER, RH 616011C390 242.84$ PANEL, QUARTER, RH
1789331110 2.43$ RESONATOR, INTAKE AIR 616011E900 181.97$ PANEL, QUARTER, RH 1789338020 16.62$ RESONATOR, INTAKE AIR 616011E918 258.37$ PANEL, QUARTER, RH
616011E919 314.87$ PANEL, QUARTER, RH 1789346060 18.20$ RESONATOR, INTAKE AIR 616011E920 258.37$ PANEL, QUARTER, RH 1789346080 38.35$ RESONATOR, INTAKE AIR
616011E922 319.15$ PANEL, QUARTER, RH 616011E923 296.38$ PANEL, QUARTER, RH 1789346110 19.64$ RESONATOR, INTA 616011E930 315.40$ PANEL, QUARTER, RH
1789346141 32.31$ RESONATOR, INTAKE AIR 616011E931 314.87$ КРЫЛО ЗАДНЕЕ 1789354110 22.02$ RESONATOR, INTAKE AIR 1789354250 28.33$ RESONATOR, INTAKE AIR
616011E934 271.58$ PANEL, QUARTER, RH 1789362040 6.59$ RESONATOR, INTAKE AIR 616011E943 271.58$ PANEL, QUARTER, RH 616011E944 271.58$ PANEL, QUARTER, RH
616011E945 301.32$ PANEL, QUARTER, RH 1789364030 13.09$ РЕЗОНАТОР ВОЗДУШНОГО ФИЛЬТРА 616011E946 271.58$ PANEL SUB-ASSY 1789364040 18.82$ РЕЗОНАТОР ВОЗДУШНОГО ФИЛЬТРА
616011G012 289.48$ PANEL, QUARTER, RH 616011G080 300.31$ PANEL, QUARTER, RH 616011H130 258.70$ КРЫЛО ЗАДНЕЕ 616011H200 255.73$ PANEL, QUARTER, RH
1789374110 22.19$ RESONATOR, INTAKE AIR 1789374190 38.60$ RESONATOR, INTAKE AIR 6160120908 157.05$ PANEL, QUARTER, RH 1789374230 11.27$ RESONATOR, INTAKE AIR
6160120910 159.55$ PANEL, QUARTER, RH 1789374240 8.00$ RESONATOR, INTAKE AIR 6160120915 232.60$ PANEL, QUARTER, RH 1789374250 7.81$ RESONATOR, INTAKE AIR
1789374270 22.02$ RESONATOR, INTAKE AIR 6160121180 416.28$ PANEL, QUARTER, RH 1789374290 60.23$ RESONATOR, INTAKE AIR 6160121200 266.62$ PANEL, QUARTER, RH
6160122550 189.06$ PANEL, QUARTER, RH 1789374340 56.03$ РЕЗОНАТОР ВОЗДУШНОГО ФИЛЬТРА 6160122952 239.46$ PANEL, QUARTER, RH 1789374350 18.16$ RESONATOR, INTAKE AIR
6160122963 255.95$ PANEL S/A, QUAR 1789374380 22.70$ RESONATOR, INTAKE AIR 6160122969 273.22$ PANEL, QUARTER, RH 1789374410 4.25$ RESONATOR, INTAKE AIR
6160122971 236.30$ PANEL S/A, QUAR 6160122975 443.87$ PANEL, QUARTER, RH 6160122976 408.36$ PANEL, QUARTER, RH 1789375020 13.85$ RESONATOR, INTAKE AIR
6160122977 400.51$ PANEL, QUARTER, RH 1789375040 12.84$ RESONATOR, INTAKE AIR 6160124909 273.70$ PANEL, QUARTER, RH 6160124910 178.90$ PANEL, QUARTER, RH
1789375070 10.24$ RESONATOR, INTAKE AIR 6160124911 243.02$ PANEL, QUARTER, RH 6160126100 272.57$ PANEL, QUARTER, RH 178940H020 11.47$ RESONATOR, INTAKE AIR, NO.2
6160126180 217.07$ PANEL, QUARTER, RH 1789415020 13.29$ RESONATOR, INTAKE AIR, NO.2 1789415030 12.89$ RESONATOR, INTAKE AIR, NO.2 6160126500 462.87$ PANEL, QUARTER, RH
1789415040 12.69$ RESONATOR, INTAKE AIR, NO.2 6160126710 461.88$ PANEL, QUARTER, RH 6160126730 274.55$ PANEL, QUARTER, RH 1789416070 12.71$ RESONATOR, INTAKE AIR, NO.2
6160126740 503.50$ PANEL, QUARTER, RH 1789416080 12.79$ RESONATOR, INTAKE AIR, NO.2 6160128280 321.98$ PANEL, QUARTER, RH 6160128A60 209.13$ PANEL, QUARTER, RH
1789420020 17.90$ RESONATOR, INTAKE AIR, NO.2 6160128A70 209.13$ PANEL, QUARTER, RH 616012B090 162.22$ PANEL, QTR, RH 1789428090 18.41$ RESONATOR, INTAKE AIR, NO.2
616012B200 327.06$ PANEL, QUARTER, RH 616012B500 320.97$ PANEL, QUARTER, RH 616012B530 326.05$ PANEL, QUARTER, RH 616012B540 326.05$ PANEL, QUARTER, RH
1789454050 5.74$ BRACKET, RESONATOR 616012B580 326.05$ PANEL, QUARTER, RH 1789454100 6.24$ BRACKET, RESONATOR 616012B760 365.74$ PANEL, QUARTER, RH
1789454170 21.91$ RESONATOR, INTAKE AIR 616012B900 180.65$ PANEL, QUARTER, RH 1789462010 20.64$ RESONATOR, INTAKE AIR, NO.2 616012B901 212.39$ PANEL, QUARTER, RH
616012B904 259.69$ PANEL, QUARTER, RH 616012B905 256.33$ PANEL, QUARTER, RH 1789462030 21.08$ RESONATOR, INTAKE AIR, NO.2 616012B906 252.92$ PANEL, QUARTER, RH
1789464020 20.55$ RESONATOR, INTAKE AIR, NO.2 616012B907 252.92$ PANEL, QUARTER, RH 616012B911 357.53$ PANEL, QUARTER, RH 1789474040 20.36$ RESONATOR, INTAKE AIR, NO.2
616012B912 249.87$ PANEL, QUARTER, RH 1789474050 20.36$ RESONATOR, INTAKE AIR, NO.2 616012B916 376.23$ КРЫЛО ЗАДНЕЕ 1789474070 16.05$ RESONATOR, INTAKE AIR, NO.2
616012D100 260.67$ КРЫЛО ЗАДНЕЕ 1789631020 33.95$ RESONATOR SUB-ASSY, INTAKE AIR 616012D904 365.74$ PANEL S/A, QUARTER 616012F070 503.50$ PANEL, QUARTER, RH
616012J240 413.32$ ПАНЕЛЬ КУЗОВА 1789774010 1.66$ PLATE, RESONATOR CONTROL 616012J280 413.32$ PANEL, QUARTER, RH 1790216011 35.80$ SHROUD SUB-ASSY
1790241012 29.41$ INSULATOR, EXHAUST MANIFOLD HEAT, NO.1 616012J360 307.27$ PANEL, QUARTER, RH 1790463020 17.13$ INSULATOR, EXHAUST MANIFOLD HEAT, NO.3 1790746020 39.27$ INLET SUB-ASSY, COOL AIR
6160130913 327.06$ PANEL, QUARTER, RH 1790754010 21.60$ INLET SUB-ASSY, COOL AIR 6160130916 327.06$ PANEL, QUARTER, RH 6160130917 254.16$ PANEL, QUARTER, RH
1790946010 34.22$ DUCT SUB-ASSY, INTERCOOLER COOLING AIR 6160130920 293.02$ PANEL, QUARTER, RH 1790946030 34.11$ DUCT SUB-ASSY, INTERCOOLER COOLING AIR 6160132290 252.92$ PANEL, QUARTER, RH
6160132310 353.98$ PANEL SUB-ASSY, QUARTER, RH 1790946070 18.20$ DUCT SUB-ASSY, INTERCOOLER COOLING AIR 6160132320 263.46$ PANEL SUB-ASSY, QUARTER, RH 1790946100 18.20$ DUCT SUB-ASSY, INTERCOOLER COOLING AIR
6160132916 157.05$ PANEL, QUARTER, RH 179400B010 368.09$ INTERCOOLER ASSY 6160132923 203.75$ PANEL S/A,QUART 6160132933 353.98$ PANEL SUB-ASSY
1794026020 486.71$ INTERCOOLER ASSY 6160133011 231.61$ PANEL, QUARTER, RH 1794030010 418.08$ INTERCOOLER ASSY 6160133021 231.61$ PANEL, QUARTER, RH
6160133240 315.19$ PANEL, QUARTER, RH 1794046040 512.39$ INTERCOOLER ASSY 6160133250 315.19$ КРЫЛО ЗАДНЕЕ 1794046070 625.77$ INTERCOOLER ASSY
1794046130 436.79$ INTERCOOLER ASSY 1794058020 465.23$ INTERCOOLER ASSY 6160133260 315.19$ КРЫЛО ЗАДНЕЕ 1794064021 354.18$ INTERCOOLER ASSY
1794064022 340.27$ INTERCOOLER ASSY 6160133270 320.88$ ПАНЕЛЬ КРЫЛА 1794064023 342.53$ РЕСИВЕР КОНДИЦИОНЕРА АВТОМОБИЛЯ 6160133290 320.88$ PANEL, QUARTER, RH
1794067030 503.08$ INTERCOOLER ASSY 1794074060 928.29$ INTERCOOLER ASSY 1794078050 323.11$ INTERCOOLER ASSY 1794330010 20.66$ PROTECTOR, INTERCOOLER
6160133330 200.39$ БОКОВИНА ЗАДНЯЯ ПРАВАЯ 1794388380 37.52$ PROTECTOR, INTERCOOLER 6160133905 250.88$ PANEL, QUARTER, RH 6160133906 298.87$ PANEL, QUARTER, RH
1794530010 3.46$ BRACKET, INTERCOOLER SUPPORT 1794567010 2.39$ BRACKET, INTERCOOLER SUPPORT 6160133913 304.37$ БОКОВИНА ЗАДНЯЯ ПРАВАЯ 6160133914 337.00$ PANEL SUB-ASSY, QUARTER, RH
1797154020 22.21$ INLET, COOL AIR, NO.1 6160133919 235.91$ PANEL S/A, QUAR 1797154040 22.59$ INLET, COOL AIR, NO.1 1797162010 8.46$ INLET, COOL AIR, NO.1
6160143900 330.43$ PANEL SUB-ASSY, QUARTER, RH 6160143902 331.05$ PANEL SUB-ASSY, QUARTER, RH 1797995J00 6.23$ ORNAMENT, COOL AIR 6160143904 301.32$ PANEL SUB-ASSY, QUARTER, RH
1797995J01 6.96$ ORNAMENT, COOL AIR 6160143905 223.56$ PANEL SUB-ASSY, QUARTER, RH 1831447012 1.52$ KNOB,S/MIRROR 6160144010 268.61$ PANEL, QUARTER, RH
1840742010 10.23$ PROTECTOR, CATALYTIC CONVERTER 6160144020 268.61$ PANEL, QUARTER, RH 1842120010 9.37$ STAY, CONVERTER PROTECTOR, LH 6160147040 229.96$ PANEL, QUARTER, RH
1842150010 3.94$ STAY, CONVERTER PROTECTOR, LH 1843120010 11.25$ INSULATOR, CATALYTIC CONVERTER, UPPER 1843220011 15.86$ INSULATOR, CATALYTIC CONVERTER, LOWER 6160147090 169.15$ PANEL, QUARTER, RH
1843461020 47.25$ COVER, CONVERTER INSULATOR, LOWER 6160148020 43.74$ PANEL SUB-ASSY, QUARTER, OUTER RH 1843511020 9.67$ PROTECTOR, MONOLITHIC CONVERTER 6160150011 440.56$ PANEL, QUARTER, RH
1843511030 13.91$ PROTECTOR, CATALYTIC CONVERTER 6160150021 441.75$ PANEL, QUARTER, RH 1843511040 10.94$ PROTECTOR, CATALYTIC CONVERTER 6160150030 543.84$ PANEL, QUARTER, RH
1843516190 10.94$ PROTECTOR, MONOLITHIC CONVERTER 6160150040 375.15$ PANEL, QUARTER, RH 1843520020 13.58$ ГЛУШИТЕЛЯ ЧАСТЬ 1843566020 15.75$ PROTECTOR, MONOLITHIC CONVERTER
1843646040 6.93$ PROTECTOR, MONOLITHIC CONVERTER, NO.1 6160152010 241.84$ КРЫЛО ЗАДНЕЕ 1843674020 17.90$ PROTECTOR, CATALYTIC CONVERTER 6160152020 245.82$ PANEL, QUARTER, RH
6160152030 245.82$ PANEL, QUARTER, RH 1845011060 520.64$ CONVERTER ASSY, W/CATALYST 6160152040 313.20$ PANEL, QUARTER, RH 1845011120 541.74$ CONVERTER ASSY, W/CATALYST
6160152050 313.20$ PANEL, QUARTER, RH 1845015070 528.86$ CONVERTER ASSY, W/CATALYST 6160152060 255.73$ PANEL, QUARTER, RH 1845016190 500.00$ CONVERTER ASSY, W/CATALYST
6160152070 255.73$ КРЫЛО ЗАДНЕЕ 1845016610 666.68$ CONVERTER ASSY, W/CATALYST 6160152140 198.24$ КРЫЛО ЗАДНЕЕ 1845016730 512.27$ CONVERTER ASSY, W/CATALYST
6160152150 311.23$ PANEL, QUARTER, RH 6160152200 255.73$ КРЫЛО ЗАДНЕЕ 1845020210 503.08$ КАТАЛИЗАТОР 6160152220 255.73$ PANEL, QUARTER, RH
1845035080 663.14$ CONVERTER ASSY, W/CATALYST 6160152240 198.24$ PANEL, QUARTER, RH 6160152241 174.44$ PANEL SUB-ASSY 1845050040 563.31$ КАТАЛИЗАТОР
6160152270 203.18$ КРЫЛО ЗАДНЕЕ 1845050070 615.55$ КАТАЛИЗАТОР 6160152290 204.19$ PANEL, QUARTER, RH 1845050160 585.04$ КАТАЛИЗАТОР
6160152330 202.20$ PANEL, QUARTER, RH 1845050210 715.33$ КАТАЛИЗАТОР 1845050211 715.33$ КАТАЛИЗАТОР 1845050230 647.98$ КАТАЛИЗАТОР
6160152370 253.74$ PANEL SUB-ASSY 1845050231 648.91$ КАТАЛИЗАТОР 6160152400 222.02$ PANEL, QUARTER, RH 1845062080 798.79$ CONVERTER ASSY, W/CATALYST
6160152450 162.56$ PANEL, QUARTER, RH 1845065070 582.60$ CONVERTER ASSY, W/CATALYST 6160152530 169.49$ PANEL, QUARTER, RH 6160153011 268.61$ PANEL, QUARTER, RH
6160153020 317.34$ PANEL, QUARTER, RH 1845070060 530.16$ CONVERTER ASSY, W/CATALYST 1845070090 703.48$ CONVERTER ASSY, W/CATALYST 6160153031 319.70$ PANEL, QUARTER, RH
1845070110 577.84$ CONVERTER ASSY, W/CATALYST 1845074300 821.51$ CONVERTER ASSY, W/CATALYST 6160163010 258.70$ PANEL, QUARTER, RH 1845074460 835.10$ CONVERTER ASSY, W/CATALYST
6160168030 230.94$ PANEL SUB-ASSY, QUARTER, OUTER RH 1845076060 609.84$ CONVERTER ASSY, W/CATALYST 1845076120 589.81$ CONVERTER ASSY, W/CATALYST 1846020020 420.88$ CONVERTER ASSY, MONOLITHIC, LH
6160190850 418.48$ PANEL ASSY, REAR BODY SIDE, RH 1846050030 715.33$ CONVERTER ASSY, W/CATALYST 6160191642 261.04$ PANEL, QUARTER, RH 1846050031 715.33$ CONVERTER ASSY, W/CATALYST
6160191695 431.65$ PANEL, QUARTER, RH 1849116020 1.46$ FLANGE, THERMOSENSOR INLET 6160191696 264.66$ PANEL, QUARTER, RH 1849128010 3.19$ FLANGE, THERMOSENSER INLET
6160191697 219.06$ PANEL, QUARTER, RH 6160191710 266.23$ PANEL, QUARTER, RH 6160191798 337.13$ PANEL, QUARTER, RH 6160195907 243.96$ PANEL, QUARTER, RH
6160195D32 330.06$ PANEL, QUARTER, RH 1881002310 221.10$ RELAY ASSY DRIVE CONTROL 6160195G46 382.13$ PANEL, QUARTER, RH 1882613521 4.84$ НЕ ПОСТАВЛЯЕТСЯ
6160195J83 274.35$ PANEL, QUARTER, RH 6160195N05 272.57$ PANEL, QUARTER, RH 190000D191 4838.22$ ENGINE ASSY, PARTIAL 6160195N08 272.57$ PANEL, QUARTER, RH
190000H150 4769.38$ ENGINE ASSY, PARTIAL 190000L100 5870.77$ ENGINE ASSY, PA 1900011230 2668.43$ ENGINE ASSY, PARTIAL 6160195N42 272.57$ PANEL, QUARTER, RH
1900011350 2787.46$ ENGINE ASSY, PARTIAL 61601AA900 256.71$ PANEL SUB-ASSY, QUARTER, RH 1900011551 3285.26$ ENGINE ASSY, PARTIAL 1900011552 3168.89$ ENGINE ASSY, PARTIAL
61601YC040 139.00$ PANEL 1900011610 3285.26$ ENGINE ASSY, PARTIAL 61601YC050 124.72$ PANEL S/A, QTR 1900011611 3323.82$ ENGINE ASSY, PARTIAL
6160202906 272.57$ PANEL, QUARTER, LH 1900016040 2141.97$ ENGINE ASSY, PARTIAL 1900016410 4592.38$ ENGINE ASSY, PARTIAL 6160206020 377.30$ PANEL, QUARTER, LH
1900016594 4484.48$ ENGINE ASSY, PARTIAL 6160206030 377.30$ PANEL, QUARTER, LH 1900016610 4102.79$ ENGINE ASSY, PARTIAL 6160206040 330.73$ PANEL, QUARTER, LH
6160206050 330.73$ PANEL, QUARTER, LH 1900016910 4017.52$ ENGINE ASSY, PARTIAL 6160206120 237.12$ PANEL, QUARTER, LH 1900017012 8142.60$ ENGINE ASSY, PARTIAL
6160207900 302.38$ ПАНЕЛЬ КУЗОВА 1900017013 7175.16$ ENGINE ASSY, PA 1900017032 8142.60$ ENGINE ASSY, PARTIAL 6160210909 199.08$ PANEL, QUARTER, LH
1900017071 8112.37$ ENGINE ASSY, PARTIAL 6160212907 291.51$ PANEL, QUARTER, LH 1900017072 8223.22$ ENGINE ASSY, PARTIAL 6160212925 318.16$ ПАНЕЛЬ КУЗОВА
1900017073 8320.93$ ENGINE ASSY, PARTIAL 6160212926 318.16$ PANEL, QUARTER, LH 1900017074 8320.93$ ENGINE ASSY, PARTIAL 1900017082 8223.22$ ENGINE ASSY, PARTIAL
1900017093 8320.93$ ENGINE ASSY, PARTIAL 1900017094 8310.95$ ENGINE ASSY, PARTIAL 1900017104 8300.97$ ENGINE ASSY, PARTIAL 1900017139 7875.33$ ENGINE ASSY, PARTIAL
6160212A80 210.89$ PANEL, QUARTER, LH 1900017195 8233.30$ ENGINE ASSY, PA 6160213471 263.07$ PANEL, QUARTER, LH 1900017201 8142.60$ ENGINE ASSY, PARTIAL
1900017202 8015.19$ ENGINE ASSY 6160213481 267.61$ PANEL, QUARTER, LH 1900017204 7072.81$ ENGINE ASSY, PA 1900017313 8300.97$ ENGINE ASSY, PARTIAL
6160213590 272.57$ ПАНЕЛЬ КРЫЛА 1900017320 8142.60$ ENGINE ASSY, PARTIAL 6160213591 269.60$ КРЫЛО ЗАДНЕЕ 1900017363 8162.75$ ENGINE ASSY, PA
6160213610 221.03$ КРЫЛО ЗАДНЕЕ 1900017503 9149.03$ ENGINE ASSY, PA 1900017541 9059.65$ ENGINE ASSY, PARTIAL 6160213620 221.03$ PANEL, QUARTER, LH
6160213621 194.28$ PANEL SUB-ASSY 1900017571 8348.88$ ENGINE ASSY, PARTIAL 1900017621 8348.88$ ENGINE ASSY, PARTIAL 6160213700 271.58$ TY PANEL PARTS REF ART
6160213906 204.96$ PANEL, QUARTER, LH 6160213907 200.97$ PANEL, QUARTER, LH 6160213909 218.38$ PANEL, QUARTER, LH 6160214890 301.42$ PANEL, QUARTER, LH
6160216938 275.55$ КРЫЛО ЗАДНЕЕ 6160217110 325.04$ PANEL SUB-ASSY, QUARTER, LH 1900017780 8339.05$ ENGINE ASSY, PARTIAL 6160217130 158.60$ PANEL SUB-ASSY, QUARTER, LH
616021A330 217.40$ PANEL, QUARTER, LH 1900017840 7336.00$ ENGINE ASSY, PARTIAL 616021A340 279.33$ PANEL, QUARTER, LH 616021A360 210.26$ PANEL, QUARTER, LH
190001A020 4295.27$ ENGINE ASSY, PARTIAL 616021A410 210.26$ PANEL, QUARTER, LH 190001A280 4948.04$ ENGINE ASSY, PARTIAL 616021A900 175.40$ PANEL, QUARTER, LH
190001A380 4887.58$ ENGINE ASSY, PARTIAL 616021B915 305.95$ PANEL, QUARTER, LH 190001A560 5005.40$ ENGINE ASSY, PARTIAL 616021B917 305.95$ PANEL, QUARTER, LH
1900020082 7886.69$ ENGINE ASSY, PARTIAL 616021B920 305.95$ PANEL, QUARTER, LH 1900020102 7896.52$ ENGINE ASSY, PARTIAL 616021C352 240.73$ PANEL SUB-ASSY, QUARTER, LH
1900020112 7886.69$ ENGINE ASSY, PARTIAL 616021C390 216.36$ PANEL SUB-ASSY, QUARTER, LH 1900020210 9852.62$ ENGINE ASSY, PARTIAL 616021C420 242.84$ PANEL, QUARTER, LH
1900020290 10859.99$ ENGINE ASSY, PARTIAL 616021E590 244.31$ PANEL, QUARTER, LH 1900020450 11547.95$ ENGINE ASSY, PARTIAL 616021E860 271.58$ КРЫЛО ЗАДНЕЕ
1900021062 4356.36$ ENGINE ASSY, PARTIAL 616021E900 181.69$ PANEL, QUARTER, LH 1900021100 4356.36$ ENGINE ASSY, PARTIAL 616021E901 181.97$ PANEL, QUARTER, LH
1900021110 4356.36$ ENGINE ASSY, PARTIAL 616021E911 175.40$ PANEL, QUARTER, LH 1900021210 4356.36$ ENGINE ASSY, PARTIAL 1900021230 4808.72$ ENGINE ASSY, PARTIAL
616021E920 249.96$ PANEL, QUARTER, LH 1900021830 3845.01$ ENGINE ASSY, PARTIAL 616021E924 258.37$ PANEL, QUARTER, LH 1900021831 3481.16$ ENGINE ASSY, PARTIAL
616021E928 319.15$ КРЫЛО ЗАДНЕЕ 1900022210 5487.25$ ENGINE ASSY, PARTIAL 616021E929 296.38$ PANEL, QUARTER, LH 1900022230 5487.25$ ENGINE ASSY, PARTIAL
616021E930 293.54$ PANEL, QUARTER, LH 1900022261 5487.25$ ENGINE ASSY, PARTIAL 616021E936 318.41$ PANEL, QUARTER, LH 1900022330 5487.25$ ENGINE ASSY, PARTIAL
616021E937 314.87$ КРЫЛО ЗАДНЕЕ 1900022840 5506.92$ ENGINE ASSY, PARTIAL 616021E940 301.32$ PANEL, QUARTER, LH 1900022A80 4828.39$ ENGINE ASSY, PARTIAL
1900022B00 4828.39$ ENGINE ASSY, PARTIAL 616021E945 271.58$ PANEL, QUARTER, LH 1900022B60 4828.39$ ENGINE ASSY,PARTIAL 1900028130 6795.14$ ENGINE ASSY, PARTIAL
616021G281 290.50$ PANEL, QUARTER, LH 1900028131 6785.31$ ENGINE ASSY, PARTIAL 616021G342 289.48$ PANEL, QUARTER, LH 1900028160 5969.11$ ENGINE ASSY, PARTIAL
1900028161 5305.15$ ENGINE ASSY, PARTIAL 616021G420 300.31$ PANEL, QUARTER, LH 1900028180 5969.11$ ENGINE ASSY, PARTIAL 616021H030 255.73$ PANEL, QUARTER, LH
1900028361 6883.65$ ENGINE ASSY, PARTIAL 6160220914 232.60$ PANEL, QUARTER, LH 1900028400 5959.27$ ENGINE ASSY, PARTIAL 6160220919 157.05$ PANEL
1900028494 5241.41$ ENGINE ASSY, PARTIAL 6160220922 255.73$ PANEL, QUARTER, LH 6160221150 291.28$ PANEL SUB-ASSY 1900028840 6883.65$ ENGINE ASSY, PARTIAL
6160221170 416.28$ БОКОВИНА ЗАДНЯЯ ЛЕВАЯ 6160221190 266.62$ PANEL, QUARTER, LH 1900028A90 5497.08$ ENGINE ASSY, PARTIAL 1900028B30 5497.08$ ENGINE ASSY, PARTIAL
6160222921 260.02$ PANEL, QUARTER, LH 1900030061 6484.86$ ENGINE ASSY, PARTIAL 6160222925 273.22$ PANEL, QUARTER, LH 6160222936 273.22$ PANEL S/A, QUAR
6160222939 271.84$ PANEL, QUARTER, LH 1900030410 5608.73$ ENGINE ASSY, PARTIAL 6160222940 236.30$ PANEL, QUARTER, LH 1900030440 4882.07$ ENGINE ASSY, PARTIAL
6160222943 408.36$ PANEL, QUARTER, LH 6160222944 408.36$ PANEL, QUARTER, LH 6160222945 408.36$ PANEL, QUARTER, LH 1900031310 9135.58$ БЛОК ЦИЛИНДРОВ
1900031350 10030.46$ ENGINE ASSY, PARTIAL 6160222947 411.33$ PANEL, QUARTER, LH 1900031510 8840.57$ ENGINE ASSY, PARTIAL 6160222949 410.35$ PANEL, QUARTER, LH
1900031A61 8840.57$ ENGINE ASSY, PARTIAL 6160224903 342.29$ PANEL, QUARTER, LH 1900031E20 9348.93$ ENGINE ASSY, PARTIAL 6160224910 234.84$ PANEL, QUARTER, LH
1900031E30 7650.68$ ENGINE ASSY, PARTIAL 6160224911 276.05$ PANEL, QUARTER, LH 1900031E40 7483.51$ ENGINE ASSY, PARTIAL 6160224912 243.02$ PANEL, QUARTER, LH
1900031F60 8840.57$ ENGINE ASSY, PARTIAL 6160224913 243.02$ ПАНЕЛЬ КУЗОВА 1900031L20 8840.57$ ENGINE ASSY, PARTIAL 6160226160 455.80$ PANEL, QUARTER, LH
1900035131 4706.18$ ENGINE ASSY, PARTIAL 6160226161 530.21$ PANEL, QUARTER, LH 1900035191 4706.18$ ENGINE ASSY, PARTIAL 6160226162 546.13$ PANEL, QUARTER, LH
1900035311 4077.03$ ENGINE ASSY, PARTIAL 6160226230 272.57$ PANEL, QUARTER, LH 1900035341 4020.91$ ENGINE ASSY, PARTIAL 1900035480 4595.79$ ENGINE ASSY, PARTIAL
6160226341 462.87$ PANEL, QUARTER, LH 1900035500 4690.71$ ENGINE ASSY, PARTIAL 6160226450 272.57$ PANEL, QUARTER, LH 1900035560 4690.71$ ENGINE ASSY, PARTIAL
6160226601 446.92$ PANEL, QUARTER, LH 1900037171 2947.60$ ENGINE ASSY, PARTIAL 6160226611 530.21$ PANEL, QUARTER, LH 1900038340 16093.43$ ENGINE ASSY, PARTIAL
1900042330 4817.18$ ENGINE ASSY, PARTIAL 1900043231 3996.27$ ENGINE ASSY, PARTIAL 6160228091 553.06$ PANEL SUB-ASSY 1900046070 8213.59$ ENGINE ASSY, PARTIAL
1900046077 8632.75$ ENGINE ASSY, PARTIAL 6160228590 349.44$ PANEL, QUARTER, LH 1900046143 8632.75$ ENGINE ASSY, PARTIAL 6160228591 279.33$ PANEL, QUARTER, LH
1900046160 10647.36$ ENGINE ASSY, PARTIAL 6160228690 345.92$ PANEL, QUARTER, LH 1900050050 14490.49$ ENGINE ASSY, PARTIAL 6160228810 553.06$ PANEL, QUARTER, LH
1900050450 11821.61$ ENGINE ASSY, PARTIAL 6160228870 161.85$ КРЫЛО ЗАДНЕЕ 1900050453 11800.54$ ENGINE ASSY, PARTIAL 1900050490 11800.54$ ENGINE ASSY, PARTIAL
616022B290 254.16$ PANEL, QUARTER, LH 1900050530 15479.18$ ENGINE ASSY, PARTIAL 1900050540 15479.18$ ENGINE ASSY, PARTIAL 616022B650 326.05$ PANEL, QUARTER, LH
616022B670 326.05$ PANEL, QUARTER, LH 1900050640 14742.07$ ENGINE ASSY, PARTIAL 616022B870 326.05$ PANEL, QUARTER, LH 1900050670 11800.54$ ENGINE ASSY, PARTIAL
616022B900 180.65$ PANEL, QUARTER, LH 616022B901 212.39$ PANEL, QUARTER, LH 1900050720 15479.18$ ENGINE ASSY, PARTIAL 616022D200 376.23$ PANEL, QUARTER, LH
1900050B40 11800.54$ ДВИГАТЕЛЬ В СБОРЕ 2UZ 616022D210 365.74$ PANEL, QUARTER, LH 1900050B50 14742.07$ ДВИГАТЕЛЬ В СБОРЕ 2UZ 616022D420 361.78$ PANEL, QUARTER, LH
1900050B60 11800.54$ ДВИГАТЕЛЬ В СБОРЕ 2UZ 616022D430 255.73$ PANEL, QUARTER, LH 1900050B70 10272.50$ ДВИГАТЕЛЬ В СБОРЕ 2UZ 616022D470 260.67$ PANEL, QUARTER, LH
1900054730 5643.39$ ENGINE ASSY, PARTIAL 1900054741 4285.35$ ENGINE ASSY, PARTIAL 616022D902 252.92$ PANEL, QUARTER, LH 1900054851 5172.57$ ENGINE ASSY, PARTIAL
616022D903 252.92$ PANEL, QUARTER, LH 616022D904 252.92$ PANEL, QUARTER, LH 1900054B40 5172.57$ ENGINE ASSY, PARTIAL 616022D909 357.53$ КРЫЛО ЗАДНЕЕ
1900056140 3913.40$ ENGINE ASSY, PARTIAL 616022D917 365.74$ PANEL S/A, QUARTER 1900056281 5431.76$ ENGINE ASSY, PARTIAL 616022D920 355.50$ КРЫЛО ЗАДНЕЕ
1900056291 5431.76$ ENGINE ASSY, PARTIAL 616022F020 373.89$ PANEL, QUARTER, LH 1900058080 6401.79$ ENGINE 616022F021 446.92$ PANEL, QUARTER, LH
1900058370 5432.27$ ENGINE ASSY, PARTIAL 1900058470 6596.66$ ENGINE ASSY, PARTIAL 616022F060 271.21$ PANEL, QUARTER, LH 1900058520 6189.95$ ENGINE ASSY, PARTIAL
616022N050 249.66$ PANEL, QUARTER, LH 1900058530 5882.44$ ENGINE ASSY, PARTIAL 616022N170 302.30$ PANEL, QUARTER, LH 1900058621 6278.27$ ENGINE ASSY, PARTIAL
616022N210 442.15$ PANEL SUB-ASSY 1900058631 6278.27$ ENGINE ASSY, PARTIAL 616022N260 442.15$ PANEL SUB-ASSY 1900058780 6288.34$ ENGINE ASSY, PARTIAL
6160230912 327.06$ PANEL, QUARTER, LH 6160230913 230.67$ PANEL, QUARTER, LH 190005B200 6185.45$ ENGINE ASSY, PARTIAL 6160232480 353.98$ PANEL SUB-ASSY, QUARTER, LH
190005B240 5562.77$ ENGINE ASSY, PARTIAL 6160232490 263.46$ PANEL SUB-ASSY, QUARTER, LH 190005B410 6195.28$ ENGINE ASSY, PARTIAL 6160232501 293.38$ PANEL, QUARTER, LH
6160232926 203.75$ PANEL, QUARTER, LH 190005B490 6195.28$ ENGINE ASSY, PARTIAL 6160232927 210.04$ PANEL, QUARTER, LH 6160232931 203.75$ PANEL, QUARTER, LH
190005B640 6480.46$ ENGINE ASSY, PARTIAL 6160232939 228.55$ PANEL S/A,QUART 6160232941 228.55$ PANEL S/A,QUART 190005C040 6973.76$ ENGINE ASSY, PARTIAL
6160232956 356.82$ PANEL SUB-ASSY 190005C080 6950.14$ ENGINE ASSY, PARTIAL 6160233011 231.61$ КРЫЛО ЗАДНЕЕ 190005C120 6972.15$ ENGINE ASSY, PARTIAL
6160233040 297.51$ КРЫЛО ЗАДНЕЕ 1900061171 6547.06$ ENGINE ASSY, PARTIAL 6160233150 315.19$ КРЫЛО ЗАДНЕЕ 1900061190 5163.51$ ENGINE ASSY, PARTIAL
6160233160 320.88$ КРЫЛО ЗАДНЕЕ 1900061320 5862.60$ ENGINE ASSY, PARTIAL 1900061340 6180.03$ ENGINE ASSY, PARTIAL 6160233170 320.88$ КРЫЛО ЗАДНЕЕ
1900061370 6110.59$ ENGINE ASSY, PARTIAL 1900061390 6368.51$ ENGINE ASSY, PARTIAL 1900061410 5594.76$ ENGINE ASSY, PARTIAL 1900062140 7818.16$ ENGINE ASSY, PARTIAL
1900062430 8388.21$ ENGINE ASSY, PARTIAL 1900064471 4930.14$ ENGINE ASSY, PARTIAL 1900064861 5195.55$ ENGINE ASSY, PA 1900065081 6772.06$ ENGINE ASSY, PARTIAL
1900066020 9258.61$ ENGINE ASSY, PARTIAL 1900066030 9258.61$ ENGINE ASSY, PARTIAL 1900066082 9367.88$ ENGINE ASSY, PARTIAL 616023A902 327.06$ PANEL, QUARTER, LH
1900066110 9371.59$ ENGINE ASSY, PARTIAL 616023A908 306.95$ PANEL, QUARTER, LH 1900067031 6470.63$ ENGINE ASSY, PARTIAL 1900067111 6480.46$ ENGINE ASSY, PARTIAL
1900068120 6884.34$ ENGINE ASSY, PARTIAL 6160243900 330.43$ PANEL SUB-ASSY, QUARTER, LH 1900068140 9165.89$ ENGINE ASSY, PARTIAL 6160243902 331.05$ PANEL SUB-ASSY, QUARTER, LH
1900070172 5961.79$ ENGINE ASSY, PARTIAL 6160243906 301.32$ PANEL SUB-ASSY, QUARTER, LH 1900071100 1943.15$ ENGINE ASSY, PARTIAL 6160243910 223.56$ PANEL SUB-ASSY, QUARTER, LH
1900072290 3204.09$ ENGINE ASSY, PARTIAL 6160244010 268.61$ PANEL, QUARTER, LH 1900072291 3315.49$ ENGINE ASSY, PARTIAL 6160244020 268.61$ PANEL, QUARTER, LH
1900072292 3864.67$ ENGINE ASSY, PARTIAL 6160246010 200.21$ КРЫЛО ЗАДНЕЕ 1900073082 2295.61$ ENGINE ASSY,PAR 6160247020 265.64$ PANEL, QUARTER, LH
1900073182 2521.56$ ENGINE ASSY,PAR 6160247031 265.64$ PANEL SUB-ASSY 1900073401 3511.61$ ENGINE ASSY, PARTIAL 6160247040 229.96$ ПАНЕЛЬ КУЗОВА
1900073405 3824.64$ ENGINE ASSY, PARTIAL 1900073440 3838.96$ ENGINE ASSY, PARTIAL 1900073491 3511.61$ ENGINE ASSY,PAR 6160247090 191.30$ PANEL, QUARTER, LH
1900073520 4434.09$ ENGINE ASSY, PARTIAL 6160248020 30.84$ PANEL SUB-ASSY, QUARTER, OUTER LH 1900073550 2449.26$ ENGINE ASSY, PARTIAL 6160250011 440.56$ PANEL, QUARTER, LH
1900074540 5663.54$ ENGINE ASSY, PARTIAL 6160250031 441.75$ PANEL, QUARTER, LH 1900074541 5771.73$ ENGINE ASSY, PARTIAL 6160250050 528.75$ PANEL, QUARTER, LH
1900074580 5663.54$ ENGINE ASSY, PARTIAL 6160250051 543.84$ PANEL, QUARTER, LH 1900074791 5308.23$ ENGINE ASSY, PARTIAL 6160250060 595.74$ PANEL, QUARTER, LH
1900075020 4017.52$ ENGINE ASSY, PARTIAL 6160250070 375.15$ PANEL, QUARTER, LH 1900075032 3577.50$ ENGINE ASSY, PARTIAL 1900075051 4706.18$ ENGINE ASSY, PARTIAL
1900075072 4061.22$ ENGINE ASSY, PARTIAL 1900075081 6893.48$ ENGINE ASSY, PARTIAL 1900075230 4827.99$ ENGINE ASSY, PARTIAL 6160252010 241.84$ КРЫЛО ЗАДНЕЕ
1900075240 4818.55$ ENGINE ASSY, PARTIAL 1900075250 4828.39$ ENGINE ASSY, PARTIAL 6160252020 251.75$ ПАНЕЛЬ КУЗОВА 1900075280 6884.35$ ENGINE ASSY, PARTIAL
6160252030 245.82$ ПАНЕЛЬ КРЫЛА 1900075290 6894.28$ ENGINE ASSY, PARTIAL 6160252040 245.82$ PANEL, QUARTER, LH 1900075360 3995.02$ ENGINE ASSY, PARTIAL
6160252050 313.20$ PANEL, QUARTER, LH 1900075421 6883.65$ ENGINE ASSY, PARTIAL 6160252060 313.20$ PANEL, QUARTER, LH 1900075430 6883.65$ ENGINE ASSY, PARTIAL
6160252070 255.73$ PANEL, QUARTER, LH 1900075440 6893.48$ ENGINE ASSY, PARTIAL 6160252080 255.73$ ПАНЕЛЬ КРЫЛА 1900075540 6883.65$ ENGINE ASSY, PARTIAL
6160252160 198.24$ ПАНЕЛЬ КРЫЛА 1900075570 6893.48$ ENGINE ASSY, PARTIAL 1900075700 6893.48$ ENGINE ASSY, PARTIAL 6160252170 311.23$ PANEL, QUARTER, LH
1900075710 6883.65$ ENGINE ASSY, PARTIAL 6160252220 255.73$ PANEL, QUARTER, LH 1900075F90 6057.61$ ENGINE ASSY, PARTIAL 1900075G00 6057.61$ ENGINE ASSY, PARTIAL
6160252240 255.73$ КРЫЛО ЗАДНЕЕ 1900075G40 6037.94$ ENGINE ASSY, PARTIAL 1900075G80 6047.78$ ENGINE ASSY, PARTIAL 6160252260 198.24$ КРЫЛО ЗАДНЕЕ
1900075K90 6037.94$ ENGINE ASSY, PARTIAL 1900075L40 6037.94$ ENGINE ASSY, PARTIAL 1900078470 8584.89$ ENGINE ASSY, PARTIAL 1900078710 6401.61$ ENGINE ASSY, PARTIAL
6160252290 162.56$ КРЫЛО ЗАДНЕЕ 1900078960 6155.95$ ENGINE ASSY, PARTIAL 190007A180 5428.25$ ENGINE ASSY, PARTIAL 6160252320 234.84$ PANEL, QUARTER, LH
1900088395 5865.09$ ENGINE ASSY, PARTIAL 1902011061 249.68$ DISTRIBUTOR ASSY 1902011141 312.84$ DISTRIBUTOR ASSY 1902011310 401.56$ DISTRIBUTOR ASSY
6160252420 253.74$ PANEL SUB-ASSY 6160252500 169.49$ PANEL, QUARTER, LH 1902011380 423.58$ DISTRIBUTOR ASSY 6160252550 169.49$ PANEL, QUARTER, LH
1902011400 415.45$ DISTRIBUTOR ASSY 6160253010 317.34$ PANEL, QUARTER, LH 1902015050 415.31$ DISTRIBUTOR ASSY 1902015080 300.35$ DISTRIBUTOR ASSY
6160253021 319.70$ PANEL, QUARTER, LH 1902016020 278.51$ РАСПРЕДЕЛИТЕЛЬ ЗАЖИГАНИЯ 1902016060 309.63$ РАСПРЕДЕЛИТЕЛЬ ЗАЖИГАНИЯ 6160263010 258.70$ КРЫЛО ЗАДНЕЕ
1902016110 309.63$ РАСПРЕДЕЛИТЕЛЬ ЗАЖИГАНИЯ 1902016150 412.14$ РАСПРЕДЕЛИТЕЛЬ ЗАЖИГАНИЯ 616026A750 182.38$ PANEL, QUARTER, LH 1902016190 411.77$ РАСПРЕДЕЛИТЕЛЬ ЗАЖИГАНИЯ
616026A751 124.37$ PANEL, QUARTER, LH 6160274010 122.90$ PANEL, QUARTER, LH 1902016230 388.27$ РАСПРЕДЕЛИТЕЛЬ ЗАЖИГАНИЯ 6160291695 431.65$ PANEL, QUARTER, LH
1902016250 400.05$ РАСПРЕДЕЛИТЕЛЬ ЗАЖИГАНИЯ 6160291696 219.06$ PANEL, QUARTER, LH 6160291796 337.13$ PANEL, QUARTER, LH 1902016280 330.60$ РАСПРЕДЕЛИТЕЛЬ ЗАЖИГАНИЯ
6160295749 244.36$ PANEL, QUARTER, LH 1902074010 368.48$ DISTRIBUTOR ASSY 6160295754 200.61$ PANEL, QUARTER, LH 6160295907 243.96$ PANEL, QUARTER, LH
1902074030 368.48$ DISTRIBUTOR 6160295J85 530.21$ PANEL, QUARTER, LH 1902075020 388.27$ РАСПРЕДЕЛИТЕЛЬ ЗАЖИГАНИЯ 6160295J88 223.70$ PANEL, QUARTER, LH
6160295N19 242.76$ PANEL, QUARTER, LH 6160295N36 223.70$ PANEL, QUARTER, LH 1902075040 388.27$ РАСПРЕДЕЛИТЕЛЬ ЗАЖИГАНИЯ 6160295N37 223.70$ PANEL, QUARTER, LH
1902075041 411.77$ РАСПРЕДЕЛИТЕЛЬ ЗАЖИГАНИЯ 6160295N71 223.70$ PANEL, QUARTER, LH 61602AA901 255.73$ PANEL SUB-ASSY, QUARTER, LH 1902075060 407.02$ РАСПРЕДЕЛИТЕЛЬ ЗАЖИГАНИЯ
61602YC040 124.72$ PANEL S/A, QTR 616032B901 131.23$ PANEL, QUARTER WHEEL HOUSE, INNER RH 6160330913 51.05$ PANEL SUB-ASSY, QUARTER WHEEL HOUSE, RH 1902075080 406.28$ РАСПРЕДЕЛИТЕЛЬ ЗАЖИГАНИЯ
6160333030 115.80$ PANEL, QUARTER WHEEL HOUSE, INNER RH 6160333080 118.70$ PANEL SUB-ASSY 1903016140 445.05$ DISTRIBUTOR ASSY 1903063052 404.65$ DISTRIBUTOR ASSY
6160342905 160.34$ БРЫЗГОВИК 1903063090 400.56$ DISTRIBUTOR ASSY 1903071010 305.55$ DISTRIBUTOR ASSY 6160360880 133.27$ PANEL SUB-ASSY, QUARTER WHEEL HOUSE, RH
1903071060 422.84$ DISTRIBUTOR ASSY 61603YC060 56.76$ PANEL S/A 1/4 WHEELH *R/A CODE"H"*SOURCE 6160430912 51.05$ PANEL SUB-ASSY, QUARTER WHEEL HOUSE, LH 6160433030 115.80$ PANEL, QUARTER WHEEL HOUSE, INNER LH
6160442040 147.85$ ПОДКРЫЛОК 1903073090 442.77$ DISTRIBUTOR ASSY 6160442905 136.48$ ПОДКРЫЛОК 1903073130 412.14$ DISTRIBUTOR ASSY
6160448900 149.93$ PANEL SUB-ASSY, QUARTER WHEEL HOUSE, LH 1903073131 413.67$ DISTRIBUTOR ASSY 6160448901 251.03$ PANEL SUB-ASSY, QUARTER WHEEL HOUSE, LH 1903073140 388.89$ DISTRIBUTOR ASSY
6160460670 144.73$ PANEL SUB-ASSY, QUARTER WHEEL HOUSE, LH 6160520280 28.17$ PANEL SUB-ASSY, QUATER, REAR INNER RH 6160526240 74.76$ PANEL, QUARTER, RH 1903775020 49.12$ ПРОВОДА СВЕЧНЫЕ ВЫСОКОВОЛЬТНЫЕ
6160535040 67.74$ REINFORCEMENT SUB-ASSY, QUARTER PANEL, RH 6160542060 56.02$ PANEL, QUARTER WHEEL HOUSE, OUTER RH 1905016020 252.03$ DISTRIBUTOR ASSY 1905016030 220.65$ DISTRIBUTOR ASSY
6160560040 56.02$ PANEL, QUARTER, RH 6160560041 56.33$ PANEL, QUARTER, RH 1905074020 270.73$ РАСПРЕДЕЛИТЕЛЬ ЗАЖИГАНИЯ 6160595J03 45.82$ КРЫЛА КАРКАС
616060C030 74.87$ PANEL, QUARTER, LH 6160620250 28.37$ PANEL SUB-ASSY, QUATER, REAR INNER LH 6160626290 74.76$ PANEL, QUARTER, LH 1905074050 269.98$ РАСПРЕДЕЛИТЕЛЬ ЗАЖИГАНИЯ
6160626390 64.03$ PANEL, QUARTER, LH 1905075030 269.98$ DISTRIBUTOR ASSY 1906013150 150.49$ DISTRIBUTOR ASSY 6160642070 64.35$ КУЗОВНАЯ ПАНЕЛЬ
1906013190 358.58$ DISTRIBUTOR ASSY 6160642090 64.03$ КУЗОВНАЯ ПАНЕЛЬ 1906013250 358.64$ DISTRIBUTOR ASSY 6160642900 56.02$ КУЗОВНАЯ ПАНЕЛЬ
1908013010 74.46$ COIL ASSY, W/BRACKET & CORD 6160710120 74.76$ PANEL, QUARTER WHEEL HOUSE, INNER RH 1908016020 240.30$ COIL ASSY, W/BRACKET & CORD 6160712916 125.98$ PANEL, QUARTER WHEEL HOUSE, INNER RH
1908016030 54.17$ COIL ASSY, IGNITION 6160712927 74.87$ PANEL, QUARTER WHEEL HOUSE, INNER RH 1908046030 54.28$ COIL ASSY, W/BRACKET & CORD 6160712943 65.81$ PANEL, QUARTER WHEEL HOUSE, INNER RH
6160714907 138.64$ PANEL, QUARTER WHEEL HOUSE, INNER RH 6160714910 133.27$ PANEL, QUARTER WHEEL HOUSE, INNER RH 6160716241 73.30$ PANEL, QUARTER WHEEL HOUSE, INNER RH 1909050011 88.93$ COIL ASSY, W/BRACKET
6160722240 152.28$ PANEL, QUARTER WHEEL HOUSE, INNER RH 1910002020 223.60$ РАСПРЕДЕЛИТЕЛЬ ЗАЖИГАНИЯ 1910010020 103.84$ DISTRIBUTOR ASSY 6160730900 116.75$ PANEL, QUARTER WHEEL HOUSE, INNER RH
1910010021 135.17$ DISTRIBUTOR ASSY 6160730904 166.49$ PANEL, QUARTER WHEEL HOUSE, INNER RH 1910010030 113.05$ DISTRIBUTOR ASSY 6160733060 109.91$ КРЫЛА КАРКАС
6160733904 116.93$ АРКА КОЛЕСНАЯ 1910011070 207.24$ DISTRIBUTOR ASSY 6160733909 252.32$ АРКА КОЛЕСНАЯ 1910011080 214.77$ DISTRIBUTOR ASSY
6160743902 79.24$ PANEL, QUARTER WHEEL HOUSE, INNER RH 1910011081 222.87$ DISTRIBUTOR ASSY 6160750902 139.16$ PANEL, QUARTER WHEEL HOUSE, INNER RH 6160750920 144.09$ PANEL, QUARTER WHEEL HOUSE, INNER RH
6160750921 144.09$ PANEL, QUARTER WHEEL HOUSE, INNER RH 1910013390 120.55$ DISTRIBUTOR ASSY 6160750930 166.49$ PANEL, QUARTER WHEEL HOUSE, INNER RH 1910013400 106.49$ DISTRIBUTOR ASSY
1910013410 140.21$ DISTRIBUTOR 1910013420 141.43$ DISTRIBUTOR ASS 6160752330 59.87$ PANEL, QUARTER WHEEL HOUSE, INNER RH 1910013450 140.07$ DISTRIBUTOR ASS
6160752904 74.76$ PANEL, QUARTER WHEEL HOUSE, INNER RH 1910013480 140.95$ DISTRIBUTOR ASS 1910013550 193.03$ DISTRIBUTOR ASSY 6160753021 148.27$ PANEL, QUARTER WHEEL HOUSE, INNER RH
1910014060 85.82$ DISTRIBUTOR ASSY 6160760020 74.98$ КУЗОВНАЯ ПАНЕЛЬ 1910014100 116.46$ DISTRIBUTOR ASSY 6160760040 85.17$ КУЗОВНАЯ ПАНЕЛЬ
1910015100 104.85$ DISTRIBUTOR ASSY 1910016050 118.22$ РАСПРЕДЕЛИТЕЛЬ ЗАЖИГАНИЯ 6160760190 88.01$ КУЗОВНАЯ ПАНЕЛЬ 1910016060 218.62$ РАСПРЕДЕЛИТЕЛЬ ЗАЖИГАНИЯ
6160760230 82.26$ КУЗОВНАЯ ПАНЕЛЬ 1910016180 175.29$ РАСПРЕДЕЛИТЕЛЬ ЗАЖИГАНИЯ 1910016210 175.29$ РАСПРЕДЕЛИТЕЛЬ ЗАЖИГАНИЯ 6160760901 101.30$ РАСШИРИТЕЛЬ КРЫЛА
1910016250 219.37$ РАСПРЕДЕЛИТЕЛЬ ЗАЖИГАНИЯ 1910016270 212.17$ РАСПРЕДЕЛИТЕЛЬ ЗАЖИГАНИЯ 1910024050 81.83$ DISTRIBUTOR ASSY 6160790A04 228.96$ PANEL, QUARTER WHEEL HOUSE, INNER RH
1910024120 105.68$ DISTRIBUTOR ASSY 1910028130 116.46$ DISTRIBUTOR ASSY 6160790K00 245.39$ EXTENSION SUB-ASSY, REAR WHEEL OPENING, RH 6160795D00 74.98$ PANEL, QUARTER WHEEL HOUSE, INNER RH
1910031130 136.97$ DISTRIBUTOR ASSY 1910034260 108.94$ DISTRIBUTOR ASSY 1910035081 139.83$ DISTRIBUTOR ASSY 6160795J78 93.50$ PANEL SUB-ASSY, QUARTER, INNER REAR RH
1910035110 142.77$ DISTRIBUTOR ASSY 6160795J83 110.36$ PANEL SUB-ASSY, QUARTER, INNER REAR RH 1910035140 206.94$ DISTRIBUTOR ASSY 6160810120 74.76$ PANEL, QUARTER WHEEL HOUSE, INNER LH
6160812220 96.84$ PANEL, QUARTER WHEEL HOUSE, INNER LH 6160812915 113.87$ PANEL, QUARTER WHEEL HOUSE, INNER LH 1910035220 268.73$ DISTRIBUTOR ASSY 1910035240 216.12$ DISTRIBUTOR ASSY
1910035250 364.54$ DISTRIBUTOR ASSY 6160813190 93.40$ КУЗОВНАЯ ПАНЕЛЬ 1910035270 370.44$ DISTRIBUTOR ASSY 6160830220 118.70$ PANEL, QUARTER WHEEL HOUSE, INNER LH
1910037040 88.94$ DISTRIBUTOR ASSY 6160830250 123.96$ АРКА КОЛЕСНАЯ 6160830900 116.75$ PANEL, QUARTER WHEEL HOUSE, INNER LH 1910037110 139.06$ DISTRIBUTOR ASSY
6160830904 166.49$ PANEL, QUARTER WHEEL HOUSE, INNER LH 1910037120 106.49$ DISTRIBUTOR ASSY 1910037130 117.22$ DISTRIBUTOR ASSY 6160833060 109.91$ PANEL, QUARTER WHEEL HOUSE, INNER LH
1910038100 81.83$ DISTRIBUTOR ASSY 6160833902 116.93$ КУЗОВНАЯ ПАНЕЛЬ 1910041120 101.51$ DISTRIBUTOR ASSY 6160833904 116.93$ КУЗОВНАЯ ПАНЕЛЬ
1910042040 274.52$ DISTRIBUTOR ASSY 6160833909 252.32$ PANEL, QUARTER WHEEL HOUSE, INNER LH 1910042050 159.57$ DISTRIBUTOR ASSY 6160836010 39.67$ BRACE SUB-ASSY, QUARTER WHEEL HOUSE, LH
1910043120 209.86$ DISTRIBUTOR ASSY 6160842060 125.98$ PANEL, QUARTER WHEEL HOUSE, INNER LH 1910043150 231.83$ DISTRIBUTOR ASSY 6160843902 79.24$ PANEL, QUARTER WHEEL HOUSE, INNER LH
1910043170 126.16$ DISTRIBUTOR ASSY 6160850902 139.16$ PANEL, QUARTER WHEEL HOUSE, INNER LH 6160850920 154.62$ PANEL, QUARTER WHEEL HOUSE, INNER LH 1910043210 162.20$ DISTRIBUTOR ASSY
1910043220 162.20$ DISTRIBUTOR ASSY 6160852370 59.87$ PANEL, QUARTER WHEEL HOUSE, INNER LH 1910044020 85.82$ DISTRIBUTOR ASSY 1910044044 84.67$ DISTRIBUTOR ASSY
6160852912 74.87$ АРКА КОЛЕСНАЯ 1910044050 85.82$ DISTRIBUTOR 6160852913 74.87$ PANEL, QUARTER WHEEL HOUSE, INNER LH 6160853011 157.38$ PANEL, QUARTER WHEEL HOUSE, INNER LH
1910044240 87.20$ DISTRIBUTOR ASSY 6160860070 91.23$ КУЗОВНАЯ ПАНЕЛЬ 6160860071 92.96$ КУЗОВНАЯ ПАНЕЛЬ 1910060061 92.85$ DISTRIBUTOR
1910061160 149.62$ РАСПРЕДЕЛИТЕЛЬ ЗАЖИГАНИЯ 6160860300 89.75$ КУЗОВНАЯ ПАНЕЛЬ 6160860320 89.75$ КУЗОВНАЯ ПАНЕЛЬ 6160860901 101.30$ РАСШИРИТЕЛЬ КРЫЛА
1910062030 281.79$ РАСПРЕДЕЛИТЕЛЬ ЗАЖИГАНИЯ 1910063010 105.68$ DISTRIBUTOR ASSY 6160890K00 250.36$ EXTENSION SUB-ASSY, REAR WHEEL OPENING, LH 6160895D01 74.98$ PANEL, QUARTER WHEEL HOUSE, INNER LH
6160895J62 102.03$ PANEL SUB-ASSY, QUARTER, INNER REAR LH 6160922900 25.72$ BRACE SUB-ASSY, QUARTER PANEL 6161042011 377.85$ КРЫЛО ЗАДНЕЕ 1910070110 206.43$ DISTRIBUTOR ASSY
1910070120 252.77$ DISTRIBUTOR ASSY 1910070170 327.54$ DISTRIBUTOR ASSY 1910070230 262.42$ DISTRIBUTOR ASSY 1910073010 95.85$ DISTRIBUTOR ASSY
616110C060 142.51$ PANEL, QUARTER, RH 1910073030 85.82$ DISTRIBUTOR ASSY 616110H010 155.04$ PANEL, QUARTER, RH 616110H020 206.34$ PANEL, QUARTER, RH
6161112909 199.08$ PANEL, QUARTER, RH 6161112925 244.70$ PANEL, QUARTER, RH 1910074031 195.77$ DISTRIBUTOR ASSY 6161112927 199.08$ PANEL, QUARTER, RH
1910074050 194.14$ DISTRIBUTOR ASSY 6161113340 361.78$ PANEL, QUARTER, RH 1910074060 217.04$ DISTRIBUTOR ASSY 6161113910 215.29$ PANEL, QUARTER, RH
616111B120 363.47$ PANEL, QUARTER, RH 1910074110 219.37$ DISTRIBUTOR ASSY 6161120640 166.05$ PANEL, QUARTER, RH 1910074230 222.87$ DISTRIBUTOR ASSY
6161122570 302.30$ ПАНЕЛЬ КРЫЛА 6161124122 416.28$ PANEL, QUARTER, RH 1910088280 305.93$ DISTRIBUTOR ASSY 1910088362 194.14$ DISTRIBUTOR ASSY
6161126510 297.36$ PANEL, QUARTER, RH 1910088363 274.34$ DISTRIBUTOR ASSY 6161126550 297.36$ PANEL, QUARTER, RH 1910088364 222.87$ DISTRIBUTOR ASSY
6161128060 385.56$ PANEL, QUARTER, RH 6161128090 243.83$ PANEL, QUARTER, RH 1910102020 14.35$ КРЫШКА РАСПРЕДЕЛЕНИЯ ЗАЖИГАНИЯ 6161128100 241.72$ PANEL, QUARTER, RH
1910102030 12.40$ КРЫШКА РАСПРЕДЕЛЕНИЯ ЗАЖИГАНИЯ 6161128160 289.42$ КУЗОВНАЯ ПАНЕЛЬ 1910102H00 48.22$ БАЧОК РАСШИРИТЕЛЬНЫЙ 6161128180 288.43$ КРЫЛО ЗАДНЕЕ
6161128260 289.42$ КУЗОВНАЯ ПАНЕЛЬ 1910111032 44.12$ КРЫШКА РАСПРЕДЕЛЕНИЯ ЗАЖИГАНИЯ 616112B270 233.92$ PANEL, QUARTER, RH 616112B530 361.78$ PANEL, QUARTER, RH
616112B540 362.77$ КРЫЛО ЗАДНЕЕ 616112B900 202.70$ PANEL, QUARTER, RH 6161130730 429.15$ PANEL, QUARTER, RH 1910111260 43.08$ КРЫШКА РАСПРЕДЕЛЕНИЯ ЗАЖИГАНИЯ
6161130740 360.46$ PANEL, QUARTER, RH 6161130761 455.93$ PANEL, QUARTER, RH 6161130801 362.77$ PANEL, QUARTER, RH 6161130810 363.75$ PANEL, QUARTER
1910115022 12.18$ CAP SUB-ASSY, DISTRIBUTOR 1910115090 44.18$ CAP SUB-ASSY, DISTRIBUTOR 6161130820 363.75$ PANEL, QUARTER, RH 6161130841 431.78$ PANEL, QUARTER, RH
1910115160 43.18$ CAP SUB-ASSY, DISTRIBUTOR 6161130880 323.23$ КРЫЛО ЗАДНЕЕ ПРАВОЕ 6161130890 323.23$ КРЫЛО ЗАДНЕЕ 6161130891 322.06$ КРЫЛО ЗАДНЕЕ
1910116130 80.46$ CAP SUB-ASSY, DISTRIBUTOR 6161130911 432.94$ КРЫЛО ЗАДНЕЕ 6161134010 173.46$ PANEL, QUARTER, RH 6161135030 346.91$ PANEL, QUARTER, RH
1910116220 12.40$ CAP SUB-ASSY, DISTRIBUTOR 6161135100 298.34$ PANEL, QUARTER, RH 1910127051 13.80$ CAP SUB-ASSY, DISTRIBUTOR 6161135190 240.86$ PANEL, QUARTER, RH
6161135200 211.15$ PANEL, QUARTER, RH 6161135250 317.18$ PANEL, QUARTER, RH 6161135260 217.93$ КРЫЛО ЗАДНЕЕ 6161135261 246.82$ PANEL, QUARTER, RH
6161135901 344.92$ PANEL, QUARTER, RH 6161135902 344.92$ PANEL, QUARTER, RH 6161135903 344.92$ PANEL, QUARTER, RH 6161135904 345.92$ PANEL, QUARTER, RH
1910137051 15.89$ CAP SUB-ASSY, DISTRIBUTOR 6161137140 154.62$ PANEL SUB-ASSY, BACK CORNER, OUTER RH 1910138011 8.89$ CAP SUB-ASSY, DISTRIBUTOR 6161137141 119.10$ PANEL SUB-ASSY, BACK CORNER, OUTER RH
6161137150 193.27$ PANEL SUB-ASSY, BACK CORNER, OUTER RH 6161142140 275.55$ PANEL, QUARTER, RH 1910141240 11.21$ CAP SUB-ASSY, DISTRIBUTOR 1910145191 15.16$ CAP SUB-ASSY, DISTRIBUTOR
1910146020 11.42$ КРЫШКА ТРАМБЛЕРА 6161148050 340.92$ КРЫЛО ЗАДНЕЕ 1910162020 15.19$ CAP SUB-ASSY, DISTRIBUTOR 6161148060 340.92$ КУЗОВНАЯ ПАНЕЛЬ
6161148070 293.38$ PANEL, QUARTER, RH 6161150050 373.97$ КРЫЛО ЗАДНЕЕ 6161150060 373.97$ PANEL, QUARTER, RH 6161150070 301.22$ КРЫЛО ЗАДНЕЕ
6161150080 373.97$ PANEL, QUARTER, RH 1910174010 70.67$ КРЫШКА РАСПРЕДЕЛЕНИЯ ЗАЖИГАНИЯ 6161152020 251.75$ PANEL, QUARTER, RH 6161152210 221.03$ КРЫЛО ЗАДНЕЕ
6161152211 202.20$ КРЫЛО ЗАДНЕЕ 6161153040 235.32$ PANEL, QUARTER, RH 6161158010 306.26$ PANEL, QUARTER, RH 6161158030 303.29$ PANEL, QUARTER, RH
6161160270 507.26$ PANEL, QUARTER, RH 6161160290 507.26$ PANEL, QUARTER, RH 6161160320 377.03$ PANEL, QUARTER, RH 6161174010 122.90$ PANEL, QUARTER, RH
6161189107 291.97$ PANEL, QUARTER, RH 6161189111 339.26$ PANEL, QUARTER, RH 6161189113 339.26$ PANEL, QUARTER, RH 6161190A15 470.92$ PANEL, QUARTER, RH
6161190A18 448.45$ PANEL, QUARTER, RH 6161195J07 207.95$ PANEL, QUARTER, RH 1910188280 13.52$ КРЫШКА РАСПРЕДЕЛЕНИЯ ЗАЖИГАНИЯ 6161195J35 207.95$ PANEL, QUARTER, RH
61611AC020 309.24$ КРЫЛО ЗАДНЕЕ 6161202100 295.26$ КРЫЛО ЗАДНЕЕ 1910188380 13.52$ КРЫШКА РАСПРЕДЕЛЕНИЯ ЗАЖИГАНИЯ 6161208904 363.75$ PANEL, QUARTER, LH
616120C090 114.98$ PANEL, QUARTER, LH 1910202020 4.61$ БЕГУНОК РАСПРЕДЕЛИТЕЛЯ ЗАЖИГАНИЯ 616120H010 155.04$ PANEL, QUARTER, LH 616120H020 206.34$ PANEL, QUARTER, LH
1910202030 3.98$ БЕГУНОК РАСПРЕДЕЛИТЕЛЯ ЗАЖИГАНИЯ 1910211031 5.90$ БЕГУНОК РАСПРЕДЕЛИТЕЛЯ ЗАЖИГАНИЯ 6161212040 123.37$ PANEL, QUARTER, LH 6161212620 166.50$ PANEL, QUARTER, LH
1910215021 3.64$ РОТОР РАСПРЕДЕЛИТЕЛЯ ЗАЖИГАНИЯ 6161212890 146.04$ PANEL, QUARTER, LH 6161212908 249.96$ PANEL, QUARTER, LH 6161212910 244.70$ PANEL, QUARTER, LH
1910216060 3.94$ БЕГУНОК РАСПРЕДЕЛИТЕЛЯ ЗАЖИГАНИЯ 6161212915 177.75$ PANEL, QUARTER, LH 1910222012 3.38$ БЕГУНОК РАСПРЕДЕЛИТЕЛЯ ЗАЖИГАНИЯ 6161213190 237.68$ PANEL, QUARTER, LH
6161213210 294.06$ PANEL, QUARTER, LH 6161213340 361.78$ PANEL, QUARTER, LH 1910238210 6.89$ ROTOR SUB-ASSY, DISTRIBUTOR 616121B080 420.65$ PANEL, QUARTER, LH
1910241010 3.49$ ROTOR SUB-ASSY, DISTRIBUTOR 1910241240 4.86$ ROTOR SUB-ASSY, DISTRIBUTOR 6161222620 302.30$ PANEL, QUARTER, LH 6161224131 416.28$ PANEL, QUARTER, LH
1910245060 4.04$ ROTOR SUB-ASSY, DISTRIBUTOR 1910245191 6.26$ ROTOR SUB-ASSY, DISTRIBUTOR 6161226560 288.03$ PANEL, QUARTER, LH 1910262010 6.26$ ROTOR SUB-ASSY, DISTRIBUTOR
6161226580 297.36$ PANEL, QUARTER, LH 6161226590 297.36$ PANEL, QUARTER, LH 6161228110 384.58$ PANEL, QUARTER, LH 1910263010 4.01$ РОТОР ГЕНЕРАТОРА
6161228180 289.42$ КРЫЛО ЗАДНЕЕ 1910266010 7.97$ РОТОР РАСПРЕДЕЛИТЕЛЯ ЗАЖИГАНИЯ 616122B490 233.92$ PANEL, QUARTER, LH 1910270010 6.63$ ROTOR SUB-ASSY, DISTRIBUTOR
6161230911 201.91$ PANEL, QUARTER, LH 1910273030 4.19$ БЕГУНОК РАСПРЕДЕЛИТЕЛЯ ЗАЖИГАНИЯ 6161230A30 322.06$ КРЫЛО 6161235010 346.91$ PANEL, QUARTER, LH
6161235090 298.34$ PANEL, QUARTER, LH 6161235130 240.86$ PANEL, QUARTER, LH 1910311050 43.60$ BREAKER SUB-ASSY, DISTRIBUTOR 6161235150 290.41$ PANEL, QUARTER, LH
1910326210 43.60$ BREAKER SUB-ASSY, DISTRIBUTOR 6161235200 217.93$ PANEL, QUARTER, LH 1910337030 43.39$ BREAKER SUB-ASSY, DISTRIBUTOR 1910341030 44.63$ BREAKER SUB-ASSY, DISTRIBUTOR
6161235903 344.92$ PANEL, QUARTER, LH 6161237110 154.62$ PANEL SUB-ASSY, BACK CORNER, OUTER LH 1910363010 40.86$ BREAKER SUB-ASSY, DISTRIBUTOR 616123A100 316.90$ PANEL, QUARTER, LH
1910488280 28.99$ ПРИКУРИВАТЕЛЯ ГНЕЗДО 616123A150 429.15$ PANEL, QUARTER, LH 1910535081 60.46$ GOVERNOR SUB-ASSY 1910560070 32.75$ GOVERNOR SUB-ASSY
1910561150 36.31$ GOVERNOR SUB-ASSY 616123A200 432.94$ PANEL, QUARTER, LH 1910561160 38.74$ GOVERNOR SUB-ASSY 1910561210 36.31$ GOVERNOR SUB-ASSY
616123A210 363.75$ PANEL, QUARTER, LH 1910573040 52.81$ GOVERNOR SUB-ASSY 1910611040 22.54$ CAM SUB-ASSY, DISTRIBUTOR 616123A902 432.94$ PANEL, QUARTER, LH
1910616120 23.01$ CAM SUB-ASSY, DISTRIBUTOR 1910625010 10.18$ CAM SUB-ASSY, DISTRIBUTOR 6161244080 229.96$ ПАНЕЛЬ КРЫЛА 1910641010 14.86$ CAM SUB-ASSY, DISTRIBUTOR
1910660070 10.52$ CAM SUB-ASSY, DISTRIBUTOR 1911465010 24.25$ COVER, WATER PROOF(FOR DISTRIBUTOR) 6161248030 355.83$ PANEL, QUARTER, LH 6161248040 315.19$ PANEL, QUARTER, LH
6161248050 385.76$ КРЫЛО ЗАДНЕЕ 6161248051 340.92$ КРЫЛО ЗАДНЕЕ 6161248060 385.76$ PANEL, QUARTER, LH 1912116020 3.95$ COVER, DUST PROOF
6161248061 340.92$ КРЫЛО ЗАДНЕЕ 1912116040 3.79$ COVER, DUST PROOF 6161248070 293.38$ ПАНЕЛЬ - БОКОВИНА ЛЕВ 1912145060 1.95$ COVER, DUST PROOF
6161250080 301.22$ КРЫЛО ЗАДНЕЕ 6161250081 323.75$ PANEL, QUARTER, LH 1912161160 1.46$ COVER, DUST PROOF 6161250090 373.97$ PANEL, QUARTER, LH
1912163010 2.97$ COVER, DUST PROOF 1912163040 3.13$ COVER, DUST PROOF 6161250101 333.24$ PANEL, QUARTER, LH 1912163090 1.44$ COVER, DUST PROOF
6161250110 373.97$ PANEL, QUARTER, LH 6161252220 221.03$ КРЫЛО ЗАДНЕЕ 1912213070 26.20$ PLATE, STATIONARY, DISTRIBUTOR 6161252221 195.90$ PANEL, QUARTER, LH
6161253020 258.35$ КРЫЛО ЗАДНЕЕ 1912237030 29.14$ PLATE, STATIONARY, DISTRIBUTOR 6161253030 258.35$ PANEL, QUARTER, LH 1912288263 44.79$ PLATE, STATIONARY, DISTRIBUTOR
6161253031 235.32$ PANEL, QUARTER, LH 6161258010 306.26$ PANEL, QUARTER, LH 6161260260 507.26$ PANEL, QUARTER, LH 6161260380 377.03$ PANEL, QUARTER, LH
6161260560 488.64$ PANEL, QUARTER, LH 1912741141 0.79$ PACKING, DUST PROOF 6161260580 557.03$ КРЫЛО ЗАДНЕЕ 6161289113 303.51$ PANEL, QUARTER, LH
6161289114 129.50$ PANEL, QUARTER, LH 6161289116 339.26$ PANEL, QUARTER, LH 1912765010 0.94$ ПРОКЛАДКА РЕЗИНОВАЯ 6161290A12 515.66$ PANEL, QUARTER, LH
6161290A15 431.65$ PANEL, QUARTER, LH 6161295712 167.67$ PANEL, QUARTER, LH 6161295J08 289.87$ PANEL, QUARTER, LH 6161295J29 266.76$ PANEL, QUARTER, LH
61612AC010 309.24$ КРЫЛО 61612AC011 314.20$ PANEL, QUARTER, LH 1913236020 9.99$ TERMINAL, DISTRIBUTOR 61612AE010 334.01$ PANEL, QUARTER, LH
6161326D60 243.19$ PANEL, QUARTER, INNER RH 6161326D70 248.84$ PANEL, QUARTER, INNER RH 1913341010 2.94$ CONDENSER, DISTRIBUTOR 6161326D80 248.84$ PANEL, QUARTER, INNER RH
6161326F70 125.98$ PANEL, QUARTER, INNER RH 6161333010 39.57$ PANEL, QUARTER, INNER RH 1913733012 1.57$ SPRING SUB-ASSY, DAMPER 6161348010 23.02$ КУЗОВНАЯ ПАНЕЛЬ
6161348020 10.52$ КУЗОВНАЯ ПАНЕЛЬ 1914411032 14.65$ LEAD, DISTRIBUTOR BREAKER 1914411060 10.84$ LEAD, DISTRIBUTOR BREAKER 1914411070 10.96$ LEAD, DISTRIBUTOR BREAKER
1914411090 4.86$ LEAD, DISTRIBUTOR BREAKER 6161433010 39.57$ PANEL, QUARTER, INNER LH 6161448010 23.02$ PANEL, QUARTER, INNER LH 1914415120 13.00$ ПРОВОДА ЭЛЕКТРИЧЕСКИЕ
1914416011 17.29$ LEAD, DISTRIBUTOR BREAKER 6161526160 38.73$ REINFORCEMENT, REAR BODY REAR SIDE PANEL, RH 1914416040 5.75$ LEAD, DISTRIBUTOR BREAKER 6161528050 27.80$ REINFORCEMENT, QUARTER PANEL, OUTER RH
1914416050 6.51$ LEAD, DISTRIBUTOR BREAKER 6161536010 50.40$ PILLAR, NO.10 OUTER, UPPER RH 1914416110 15.37$ LEAD, DISTRIBUTOR BREAKER 6161612070 14.80$ REINFORCEMENT, REAR BODY REAR SIDE PANEL, LH
1914434180 2.56$ LEAD, DISTRIBUTOR BREAKER 6161626090 38.73$ REINFORCEMENT, REAR BODY REAR SIDE PANEL, LH 6161626120 31.55$ REINFORCEMENT, REAR BODY REAR SIDE PANEL, LH 1914463100 7.54$ LEAD, DISTRIBUTOR BREAKER
6161628050 51.75$ REINFORCEMENT, QUARTER PANEL, OUTER LH 1914473060 8.85$ LEAD, DISTRIBUTOR BREAKER 6161628070 27.70$ REINFORCEMENT, QUARTER PANEL, OUTER LH 6161658010 36.55$ REINFORCEMENT, REAR BODY REAR SIDE PANEL, LH
1914474060 28.08$ ПРОВОДА ЭЛЕКТРИЧЕСКИЕ 6161721020 19.34$ PANEL, QUARTER INNER, REAR RH 6161726010 19.47$ PANEL, QUARTER INNER, LOWER RH 6161748010 12.67$ PANEL, QUARTER INNER, REAR RH
1914475020 9.15$ LEAD, DISTRIBUTOR BREAKER 6161826010 19.47$ PANEL, QUARTER, INNER LOWER LH 6161842030 14.69$ КУЗОВНАЯ ПАНЕЛЬ 6161848010 12.67$ PANEL, QUARTER, INNER REAR LH
1914475050 12.18$ LEAD, DISTRIBUTOR BREAKER 1914475060 6.57$ LEAD, DISTRIBUTOR BREAKER 6162042011 377.85$ FENDER ASSY, REAR LH 6162042012 379.48$ FENDER ASSY, REAR LH
1915124081 16.81$ SHAFT, GOVERNOR 1915133011 15.68$ SHAFT, GOVERNOR 1915160061 32.18$ SHAFT, GOVERNOR 1915161160 21.28$ SHAFT, GOVERNOR
1915171020 19.81$ SHAFT, GOVERNOR 6162105900 23.01$ КРОНШТЕЙН КУЗОВНОЙ 1915245060 4.14$ WEIGHT, GOVERNOR 6162107901 26.41$ TROUGH, LUGGAGE COMPARTMENT OPENING, RH
1915263010 2.76$ ГРУЗ БАЛАНСИРОВОЧНЫЙ 6162107902 25.62$ TROUGH, LUGGAGE COMPARTMENT OPENING, RH 1915313390 1.73$ SPRING, GOVERNOR, A 6162110030 23.59$ TROUGH, BACK DOOR OPENING, RH
1915315290 1.15$ SPRING, GOVERNOR, A 6162110040 24.16$ TROUGH, BACK DOOR OPENING, RH 1915316050 1.04$ SPRING, GOVERNOR, A 6162112350 13.96$ TROUGH, LUGGAGE COMPARTMENT OPENING, RH
1915316250 1.28$ SPRING, GOVERNOR, A 6162112360 13.96$ TROUGH, LUGGAGE COMPARTMENT OPENING, RH 1915335160 1.19$ ПРУЖИНА ВОЗВРАТНАЯ 6162112540 25.30$ TROUGH, BACK DOOR OPENING, RH
1915337040 0.89$ SPRING, GOVERNOR, A 6162113010 21.00$ TROUGH, BACK DOOR OPENING, RH 1915372060 1.15$ SPRING, GOVERNOR, A 6162113041 25.51$ TROUGH, BACK DOOR OPENING, RH
1915375030 1.42$ SPRING, GOVERNOR, A 1915415130 1.25$ SPRING, GOVERNOR, B 1915416250 1.34$ SPRING, GOVERNOR, B 6162116100 13.96$ TROUGH, LUGGAGE COMPARTMENT OPENING, RH
1915435160 1.19$ ПРУЖИНА ВОЗВРАТНАЯ 6162120040 12.40$ TROUGH, LUGGAGE COMPARTMENT OPENING, RH 1915461010 0.64$ SPRING, GOVERNOR, B 6162120100 13.76$ TROUGH, LUGGAGE COMPARTMENT OPENING, RH
1915475050 1.46$ SPRING, GOVERNOR, B 6162120240 13.96$ TROUGH, LUGGAGE COMPARTMENT OPENING, RH 1916963011 1.27$ STOPPER, CAM GREASE 6162128030 17.60$ TROUGH, BACK DOOR OPENING, RH
1918111066 37.32$ ROTOR, DISTRIBUTOR, SIGNAL 6162130130 17.62$ TROUGH, LUGGAGE COMPARTMENT OPENING, RH 1918111290 12.89$ ROTOR, DISTRIBUTOR, SIGNAL 1918116100 32.39$ ROTOR, DISTRIBUTOR, SIGNAL
6162130901 17.39$ TROUGH, LUGGAGE COMPARTMENT OPENING, RH 1918131170 25.46$ ROTOR, DISTRIBUTOR, SIGNAL 6162132060 22.17$ EXTENSION, QUAR 1918143160 33.12$ ROTOR, DISTRIBUTOR, SIGNAL
6162133900 31.48$ TROUGH, LUGGAGE COMPARTMENT OPENING, RH 6162133901 32.60$ ДВЕРИ УГОЛОК 1918172011 29.56$ ROTOR, DISTRIBUTOR, SIGNAL 1918175010 13.09$ ROTOR, DISTRIBUTOR, SIGNAL
6162133908 30.41$ TROUGH, LUGGAGE 1918175060 14.73$ ROTOR, DISTRIBUTOR, SIGNAL 6162135900 27.59$ TROUGH, BACK DOOR OPENING, RH 1918363030 8.82$ ROTOR, SIGNAL
6162142040 62.06$ ДВЕРИ УГОЛОК 1919515021 14.08$ GEAR, SPIRAL, DISTRIBUTOR 1919516040 18.16$ GEAR, SPIRAL, DISTRIBUTOR 6162144040 28.85$ TROUGH, BACK DOOR OPENING, RH
1919524081 22.43$ GEAR, SPIRAL, DISTRIBUTOR 6162148010 28.37$ TROUGH, BACK DOOR OPENING, RH 1919531031 22.33$ GEAR, SPIRAL, DISTRIBUTOR 6162150020 17.30$ TROUGH, LUGGAGE COMPARTMENT OPENING, RH
1919538210 20.94$ GEAR, SPIRAL, DISTRIBUTOR 1919541130 17.94$ GEAR, SPIRAL, DISTRIBUTOR 6162150030 17.56$ TROUGH, LUGGAGE COMPARTMENT OPENING, RH 1919560040 10.18$ GEAR, SPIRAL, DISTRIBUTOR
1919571010 14.47$ ШЕСТЕРНЯ 6162150900 16.55$ TROUGH, LUGGAGE COMPARTMENT OPENING, RH 6162150903 1.49$ TY BODY PARTS-EXTERNAL REF ART 6162152010 20.41$ ПАНЕЛЬ КУЗОВА
6162152080 35.20$ ПАНЕЛЬ ДВЕРИ ВНУТРЕННЯЯ 1922010021 62.03$ ADVANCER ASSY, VACUUM, DISTRIBUTOR 1922011051 22.43$ ADVANCER ASSY, VACUUM, DISTRIBUTOR 6162153010 17.44$ TROUGH, LUGGAGE COMPARTMENT OPENING, RH
1922011060 33.02$ ADVANCER ASSY, VACUUM, DISTRIBUTOR 6162168010 39.99$ TROUGH, BACK DOOR OPENING, RH 1922011140 57.96$ ADVANCER ASSY, VACUUM, DISTRIBUTOR 1922011230 62.03$ ADVANCER ASSY, VACUUM, DISTRIBUTOR
6162206020 13.76$ TROUGH,LUGGAGE 6162207901 26.41$ TROUGH, LUGGAGE COMPARTMENT OPENING, LH 1922013050 33.79$ ADVANCER ASSY, VACUUM, DISTRIBUTOR 6162207902 25.62$ TROUGH, LUGGAGE COMPARTMENT OPENING, LH
6162210030 23.59$ TROUGH, BACK DOOR OPENING, LH 1922013200 45.21$ ADVANCER ASSY, VACUUM, DISTRIBUTOR 6162210040 24.16$ TROUGH, BACK DOOR OPENING, LH 1922013260 30.47$ ADVANCER ASSY, VACUUM, DISTRIBUTOR
6162212540 25.30$ TROUGH, BACK DOOR OPENING, LH 1922013380 33.61$ ADVANCER ASSY, VACUUM, DISTRIBUTOR 6162213041 25.51$ TROUGH, BACK DOOR OPENING, LH 1922013410 63.70$ CONTROLLER
1922013450 58.89$ CONTROLLER SUB- 6162213061 22.28$ TROUGH, BACK DOOR OPENING, LH 1922014050 25.05$ ADVANCER ASSY, VACUUM, DISTRIBUTOR 6162216100 13.96$ TROUGH, LUGGAGE COMPARTMENT OPENING, LH
1922015150 29.70$ ADVANCER ASSY, VACUUM, DISTRIBUTOR 6162220040 12.40$ TROUGH, LUGGAGE COMPARTMENT OPENING, LH 1922016040 30.94$ ADVANCER ASSY, VACUUM, DISTRIBUTOR 6162220100 13.76$ TROUGH, LUGGAGE COMPARTMENT OPENING, LH
1922016080 55.91$ ADVANCER ASSY, VACUUM, DISTRIBUTOR 6162220240 13.96$ TROUGH, LUGGAGE COMPARTMENT OPENING, LH 1922016130 46.01$ ADVANCER ASSY, VACUUM, DISTRIBUTOR 1922016230 62.03$ ADVANCER ASSY, VACUUM, DISTRIBUTOR
6162222090 13.92$ TROUGH, LUGGAGE COMPARTMENT OPENING, LH 1922016240 31.88$ ADVANCER ASSY, VACUUM, DISTRIBUTOR 6162222160 13.86$ TROUGH, LUGGAGE COMPARTMENT OPENING, LH 1922016241 53.36$ ADVANCER ASSY, VACUUM, DISTRIBUTOR
1922016250 61.93$ ADVANCER ASSY, VACUUM, DISTRIBUTOR 6162228020 17.60$ TROUGH, BACK DOOR OPENING, LH 1922016270 55.81$ ADVANCER ASSY, VACUUM, DISTRIBUTOR 6162232060 22.17$ EXTENSION, QUAR
1922025011 23.15$ ADVANCER ASSY, VACUUM, DISTRIBUTOR 1922026190 23.15$ ADVANCER ASSY, VACUUM, DISTRIBUTOR 6162233900 31.61$ КРОНШТЕЙН КУЗОВНОЙ 6162233901 32.60$ TROUGH, LUGGAGE COMPARTMENT OPENING, LH
1922026310 24.46$ ADVANCER ASSY, VACUUM, DISTRIBUTOR 6162233904 32.69$ ПАНЕЛЬ КУЗОВА 1922031020 23.39$ ADVANCER ASSY, VACUUM, DISTRIBUTOR 1922031030 30.94$ ADVANCER ASSY, VACUUM, DISTRIBUTOR
6162233909 30.41$ НАКЛАДКА НА З.КРЫЛО 1922034210 30.84$ ADVANCER ASSY, VACUUM, DISTRIBUTOR 6162235900 27.59$ TROUGH, BACK DOOR OPENING, LH 1922034240 23.24$ ADVANCER ASSY, VACUUM, DISTRIBUTOR
6162242010 27.59$ БАМПЕРА ПАНЕЛЬ 1922035080 22.36$ ADVANCER ASSY, VACUUM, DISTRIBUTOR 1922035110 24.46$ ADVANCER ASSY, VACUUM, DISTRIBUTOR 6162244040 28.85$ TROUGH, BACK DOOR OPENING, LH
1922035120 63.02$ ADVANCER ASSY, VACUUM, DISTRIBUTOR 6162248010 28.37$ ПАНЕЛЬ КУЗОВА 1922035140 63.02$ ADVANCER ASSY, VACUUM, DISTRIBUTOR 6162248020 39.99$ КУЗОВНАЯ ПАНЕЛЬ
1922035150 61.93$ ADVANCER ASSY, VACUUM, DISTRIBUTOR 6162248050 14.05$ TROUGH, BACK DOOR OPENING, LH 6162250020 17.30$ TROUGH, LUGGAGE COMPARTMENT OPENING, LH 6162250030 17.56$ TROUGH, LUGGAGE COMPARTMENT OPENING, LH
1922043080 30.75$ ADVANCER ASSY, VACUUM, DISTRIBUTOR 1922043200 31.78$ ADVANCER ASSY, VACUUM, DISTRIBUTOR 6162250900 16.55$ TROUGH, LUGGAGE COMPARTMENT OPENING, LH 1922043210 58.07$ ADVANCER ASSY, VACUUM, DISTRIBUTOR
6162252010 20.41$ КУЗОВНАЯ ПАНЕЛЬ 1922044210 24.09$ ADVANCER ASSY, VACUUM, DISTRIBUTOR 1922060072 27.13$ ADVANCER ASSY, VACUUM, DISTRIBUTOR 1922061131 26.83$ ADVANCER ASSY, VACUUM, DISTRIBUTOR
1922061150 31.88$ ADVANCER ASSY, VACUUM, DISTRIBUTOR 6162253010 17.44$ TROUGH, LUGGAGE COMPARTMENT OPENING, LH 1922063010 46.09$ ADVANCER ASSY, VACUUM, DISTRIBUTOR 6162268010 39.99$ TROUGH, BACK DOOR OPENING, LH
1922070010 42.20$ ADVANCER ASSY, VACUUM, DISTRIBUTOR 61622AC901 32.69$ TROUGH, LUGGAGE COMPARTMENT OPENING, LH 1922070050 26.83$ ADVANCER ASSY, VACUUM, DISTRIBUTOR 1922070120 25.05$ ADVANCER ASSY, VACUUM, DISTRIBUTOR
1922070170 33.79$ ADVANCER ASSY, VACUUM, DISTRIBUTOR 1922070180 32.49$ ADVANCER ASSY, VACUUM, DISTRIBUTOR 6162330030 58.79$ EXTENSION, QUARTER PANEL, OUTER RH 1922071050 57.96$ ADVANCER ASSY, VACUUM, DISTRIBUTOR
1922071060 33.75$ ДАТЧИК ОПЕРЕЖЕНИЯ ЗАЖИГАНИЯ 1922073010 26.83$ ADVANCER ASSY, VACUUM, DISTRIBUTOR 6162350901 27.32$ EXTENSION, QUARTER INNER PANEL, REAR RH 1922073011 32.49$ ADVANCER ASSY, VACUUM, DISTRIBUTOR
6162360040 34.06$ EXTENSION, QUARTER PANEL, FRONT RH 1922073030 30.02$ ADVANCER ASSY, VACUUM, DISTRIBUTOR 6162426040 212.30$ EXTENSION, QUARTER PANEL, OUTER LH 1922073060 56.32$ ADVANCER ASSY, VACUUM, DISTRIBUTOR
1922073080 29.58$ ADVANCER ASSY, VACUUM, DISTRIBUTOR 1922073130 33.79$ ADVANCER ASSY, VACUUM, DISTRIBUTOR 6162430030 58.79$ EXTENSION, QUARTER PANEL, OUTER LH 1922073150 59.93$ ADVANCER ASSY, VACUUM, DISTRIBUTOR
1922074080 32.49$ ADVANCER ASSY, VACUUM, DISTRIBUTOR 1922075010 63.70$ ADVANCER ASSY, VACUUM, DISTRIBUTOR 6162450901 27.32$ EXTENSION, QUARTER INNER PANEL, REAR LH 1922075030 62.03$ ADVANCER ASSY, VACUUM, DISTRIBUTOR
6162513050 14.19$ EXTENSION, QUARTER PANEL, INNER REAR RH 6162520060 28.59$ EXTENSION, QUARTER PANEL, INNER REAR RH 1922075100 63.60$ ADVANCER ASSY, VACUUM, DISTRIBUTOR 6162520070 28.59$ EXTENSION, QUARTER PANEL, INNER REAR RH
6162521010 32.69$ EXTENSION, QUARTER PANEL REAR, RH 6162528100 37.48$ EXTENSION, QUARTER PANEL, REAR RH 1923133011 2.22$ TERMINAL, DISTRIBUTOR 6162530080 12.22$ EXTENSION, QUARTER PANEL, INNER REAR RH
1923138011 2.06$ TERMINAL, DISTRIBUTOR 6162533030 9.94$ EXTENSION, QUARTER PANEL, REAR RH 1923510021 53.64$ HOUSING, DISTRIBUTOR 6162533050 15.74$ EXTENSION, QUARTER PANEL, INNER REAR RH
1923511050 55.30$ HOUSING, DISTRIBUTOR 6162533070 12.78$ EXTENSION, QUARTER PANEL, REAR RH 1923511080 55.43$ HOUSING, DISTRIBUTOR 6162536010 55.39$ PILLAR, NO.10 OUTER, UPPER LH
1923511090 89.43$ HOUSING, DISTRIBUTOR 6162536011 55.29$ PILLAR, NO.10 OUTER, UPPER LH 1923511100 94.31$ HOUSING, DISTRIBUTOR 6162542020 14.27$ EXTENSION, QUARTER PANEL, REAR RH
1923511200 93.90$ HOUSING, DISTRIBUTOR 6162542030 12.70$ EXTENSION, QUARTER PANEL, REAR RH 1923511340 55.38$ HOUSING, DISTRIBUTOR 6162548010 14.31$ EXTENSION SUB-ASSY, QUARTER PANEL, RH
1923513190 58.78$ HOUSING, DISTRIBUTOR 6162548020 27.06$ PANEL, REAR BODY REAR SIDE CORNER, RH 1923513550 83.54$ HOUSING, DISTRIBUTOR 1923516080 92.43$ РАСПРЕДЕЛИТЕЛЬ ЗАЖИГАНИЯ
6162552010 10.38$ EXTENSION, QUARTER PANEL, REAR RH 1923516090 58.89$ РАСПРЕДЕЛИТЕЛЬ ЗАЖИГАНИЯ 6162552050 20.30$ EXTENSION, QUARTER PANEL, UPPER RH 1923516110 58.89$ РАСПРЕДЕЛИТЕЛЬ ЗАЖИГАНИЯ
6162553020 12.66$ EXTENSION, QUARTER PANEL, REAR RH 1923516130 89.22$ РАСПРЕДЕЛИТЕЛЬ ЗАЖИГАНИЯ 6162560110 34.89$ КУЗОВНОЙ УСИЛИТЕЛЬ 6162560120 34.89$ EXTENSION, QUARTER PANEL, INNER REAR RH
1923516190 75.78$ РАСПРЕДЕЛИТЕЛЬ ЗАЖИГАНИЯ 1923516240 93.90$ РАСПРЕДЕЛИТЕЛЬ ЗАЖИГАНИЯ 6162595J01 31.55$ EXTENSION, QUARTER PANEL, INNER REAR RH 1923516250 92.96$ РАСПРЕДЕЛИТЕЛЬ ЗАЖИГАНИЯ
1923535010 60.84$ HOUSING, DISTRIBUTOR 1923542050 182.59$ HOUSING, DISTRIBUTOR 6162595J05 21.35$ EXTENSION, QUARTER PANEL, INNER REAR RH 1923562030 59.47$ HOUSING, DISTRIBUTOR
1923562040 62.61$ HOUSING, DISTRIBUTOR 6162613060 20.52$ КУЗОВНОЙ УСИЛИТЕЛЬ 6162620070 28.59$ EXTENSION, QUARTER PANEL, INNER REAR LH 6162628090 36.87$ EXTENSION, QUARTER PANEL, REAR LH
1923563090 93.37$ HOUSING, DISTRIBUTOR 6162630080 12.17$ EXTENSION, QUARTER PANEL, INNER REAR LH 6162633050 15.74$ EXTENSION, QUARTER PANEL, INNER REAR LH 6162633070 12.78$ EXTENSION, QUARTER PANEL, REAR LH
6162643010 5.48$ EXTENSION, QUARTER PANEL, REAR LH 6162647020 22.60$ EXTENSION, QUARTER PANEL, REAR LH 1923570160 94.83$ HOUSING, DISTRIBUTOR 6162648010 14.31$ КУЗОВНАЯ ПАНЕЛЬ
1923570170 94.93$ HOUSING, DISTRIBUTOR 6162648020 27.06$ PANEL, REAR BODY REAR SIDE CORNER, LH 1923571010 60.84$ HOUSING, DISTRIBUTOR 1923573080 92.43$ HOUSING, DISTRIBUTOR
6162650020 10.93$ EXTENSION, QUARTER PANEL, INNER REAR LH 1923574020 86.64$ РАСПРЕДЕЛИТЕЛЬ ЗАЖИГАНИЯ 6162650030 11.83$ EXTENSION, QUARTER PANEL, REAR LH 1923574050 84.17$ РАСПРЕДЕЛИТЕЛЬ ЗАЖИГАНИЯ
6162652010 10.38$ РАСШИРИТЕЛЬ КРЫЛА 1923574060 94.31$ РАСПРЕДЕЛИТЕЛЬ ЗАЖИГАНИЯ 6162653020 12.66$ EXTENSION, QUARTER PANEL, REAR LH 1923574090 56.83$ РАСПРЕДЕЛИТЕЛЬ ЗАЖИГАНИЯ
1923574110 92.64$ РАСПРЕДЕЛИТЕЛЬ ЗАЖИГАНИЯ 1923574130 94.99$ РАСПРЕДЕЛИТЕЛЬ ЗАЖИГАНИЯ 6162712070 7.19$ EXTENSION, QUARTER PANEL, UPPER REAR RH 1923574200 93.59$ РАСПРЕДЕЛИТЕЛЬ ЗАЖИГАНИЯ
6162733010 11.67$ EXTENSION, QUARTER PANEL, REAR LOWER RH 6162733900 23.74$ EXTENSION, QUARTER PANEL, REAR LOWER RH 6162743010 40.82$ EXTENSION, QUARTER PANEL, REAR LOWER RH 1923575011 56.83$ HOUSING, DISTRIBUTOR
6162743020 32.49$ EXTENSION, QUARTER PANEL, REAR LOWER RH 1923575030 87.12$ HOUSING, DISTRIBUTOR 6162748030 11.21$ УДЛИНИТЕЛЬ QUARTER PANEL UPPER ЗАДН. RH 6162748901 31.48$ EXTENSION, QUARTER PANEL, UPPER REAR RH
6162753010 12.04$ EXTENSION, QUARTER PANEL, UPPER REAR RH 6162768010 26.34$ EXTENSION, QUARTER PANEL, REAR LOWER RH 6162812090 7.19$ EXTENSION, QUARTER PANEL, UPPER REAR LH 1924215180 4.01$ CLAMP, CORD, NO.2
6162821040 17.60$ EXTENSION, QUARTER PANEL, REAR LOWER LH 1925013030 39.68$ GENERATOR ASSY, SIGNAL 6162823020 24.96$ EXTENSION, QUARTER PANEL, LOWER LH 1925013120 37.55$ GENERATOR ASSY, SIGNAL
6162833010 11.67$ EXTENSION, QUARTER PANEL, REAR LOWER LH 6162833900 23.74$ EXTENSION, QUARTER PANEL, REAR LOWER LH 6162842040 1.76$ КРОНШТЕЙН КУЗОВНОЙ 1925035240 46.93$ GENERATOR ASSY, SIGNAL
6162842050 6.43$ КРОНШТЕЙН КУЗОВНОЙ 1925038270 51.54$ GENERATOR ASSY, SIGNAL 6162848901 31.48$ EXTENSION, QUARTER PANEL, UPPER REAR LH 1925043150 53.70$ GENERATOR ASSY, SIGNAL
6162928030 24.16$ REINFORCEMENT, QUARTER PANEL, LH 1925045150 49.31$ GENERATOR ASSY, SIGNAL 6162942010 2.66$ КРОНШТЕЙН КУЗОВНОЙ 6163102030 56.12$ КУЗОВНАЯ ПАНЕЛЬ
1925070050 41.02$ GENERATOR ASSY, SIGNAL 6163107010 64.03$ PANEL, QUARTER WHEEL HOUSE, OUTER RH 1925070170 30.75$ GENERATOR ASSY, SIGNAL 6163112210 56.12$ КУЗОВНАЯ ПАНЕЛЬ
1925073010 36.31$ GENERATOR ASSY, SIGNAL 6163112300 56.12$ КУЗОВНАЯ ПАНЕЛЬ 6163112320 51.81$ КУЗОВНАЯ ПАНЕЛЬ 6163112360 56.02$ КУЗОВНАЯ ПАНЕЛЬ
1930016011 225.36$ SENSOR ASSY, CAM POSITION 1930042010 269.60$ SENSOR ASSY, CAM POSITION 6163114180 71.85$ PANEL, QUARTER WHEEL HOUSE, OUTER RH 6163116150 44.61$ PANEL, QUARTER WHEEL HOUSE, OUTER RH
6163116170 33.12$ PANEL, QUARTER WHEEL HOUSE, OUTER RH 1930070012 204.53$ SENSOR ASSY, CAM POSITION 6163120270 63.32$ PANEL, QUARTER WHEEL HOUSE, OUTER RH 6163121040 49.36$ PANEL, QUARTER WHEEL HOUSE, OUTER RH
1931178010 9.15$ SENSOR, CRANK POSITION 6163124040 61.66$ PANEL, QUARTER WHEEL HOUSE, OUTER RH 1931197401 48.10$ ДАТЧИК ПОЛОЖЕНИЯ КОЛЕНВАЛА 6163128050 36.76$ PANEL, QUARTER WHEEL HOUSE, OUTER RH
6163128070 44.77$ PANEL, QUARTER WHEEL HOUSE, OUTER RH 6163130100 45.60$ PANEL, QUARTER WHEEL HOUSE, OUTER RH 6163130150 56.12$ PANEL, QUARTER WHEEL HOUSE, OUTER RH 6163130160 79.99$ PANEL, QUARTER WHEEL HOUSE, OUTER RH
1931537010 5.45$ PLATE, CRANK ANGLE SENSOR, NO.1 6163133010 33.03$ ПОДКРЫЛОК 6163133050 80.39$ ПОДКРЫЛОК 6163133080 64.12$ АРКА КОЛЕСНАЯ
6163142050 56.02$ КУЗОВНАЯ ПАНЕЛЬ 6163143010 57.69$ PANEL, QUARTER WHEEL HOUSE, OUTER RH 1950074020 56.12$ КАТУШКА ЗАЖИГАНИЯ 6163143012 46.34$ PANEL, QUARTER WHEEL HOUSE, OUTER RH
1950074030 57.25$ КАТУШКА ЗАЖИГАНИЯ 6163148010 93.40$ КУЗОВНАЯ ПАНЕЛЬ 1950074040 55.95$ КАТУШКА ЗАЖИГАНИЯ 6163148030 74.79$ КУЗОВНАЯ ПАНЕЛЬ
1950074050 55.43$ КАТУШКА ЗАЖИГАНИЯ 6163148060 64.40$ PANEL, QUARTER WHEEL HOUSE, OUTER RH 1950074070 55.43$ КАТУШКА ЗАЖИГАНИЯ 6163148904 74.79$ PANEL, QUARTER WHEEL HOUSE, OUTER RH
6163150010 80.39$ ПОДКРЫЛОК 6163150020 80.13$ ПОДКРЫЛОК 1950074120 75.06$ КАТУШКА ЗАЖИГАНИЯ 1950087101 58.58$ КАТУШКА ЗАЖИГАНИЯ
1950942010 45.80$ COVER, IGNITION COIL 1951842010 27.44$ WIRE, IGNITION COIL 1951970020 11.05$ COVER, IGNITION COIL 6163152903 44.77$ КУЗОВНАЯ ПАНЕЛЬ
6163153010 79.99$ PANEL, QUARTER WHEEL HOUSE, OUTER RH 1953174020 2.12$ КОЛПАЧОК ПЛАСТИКОВЫЙ 6163153040 55.94$ PANEL, QUARTER WHEEL HOUSE, OUTER RH 6163160050 56.12$ КУЗОВНАЯ ПАНЕЛЬ
1953274010 2.00$ HOLDER, RESISTIVE CODE, NO.2 6163160901 74.79$ КУЗОВНАЯ ПАНЕЛЬ 6163160902 49.57$ КУЗОВНАЯ ПАНЕЛЬ 1953911020 1.95$ HOLDER, RESISTIVE CODE, NO.4
1953911030 1.71$ КОЛПАЧОК ЗАЩИТНЫЙ ПЛАСТИКОВЫЙ 6163160919 51.54$ PANEL, QUARTER WHEEL HOUSE, OUTER RH 6163168010 49.36$ PANEL, QUARTER WHEEL HOUSE, OUTER RH 6163189102 54.64$ PANEL, QUARTER WHEEL HOUSE, OUTER RH
6163190A03 170.15$ PANEL, QUARTER